<?xml version="1.0" encoding="UTF-8" standalone="no" ?><gpx xmlns="http://www.topografix.com/GPX/1/1" xmlns:gpxx="http://www.garmin.com/xmlschemas/WaypointExtension/v1" xmlns:gpxtpx="http://www.garmin.com/xmlschemas/TrackPointExtension/v1" creator="Oregon 450" version="1.1" xmlns:xsi="http://www.w3.org/2001/XMLSchema-instance" xsi:schemaLocation="http://www.topografix.com/GPX/1/1 http://www.topografix.com/GPX/1/1/gpx.xsd http://www.garmin.com/xmlschemas/WaypointExtension/v1 http://www8.garmin.com/xmlschemas/WaypointExtensionv1.xsd http://www.garmin.com/xmlschemas/TrackPointExtension/v1 http://www.garmin.com/xmlschemas/TrackPointExtensionv1.xsd"><metadata><link href="http://www.garmin.com"><text>Garmin International</text></link><time>2011-06-11T06:51:18Z</time></metadata><trk><name>Tracé actuel: 29 MAI 2011 03:48</name><trkseg><trkpt lat="47.798703" lon="-4.351961"><ele>-39.76</ele><time>2011-05-29T01:48:46Z</time></trkpt><trkpt lat="47.798695" lon="-4.351966"><ele>-38.32</ele><time>2011-05-29T01:49:30Z</time></trkpt></trkseg><trkseg><trkpt lat="47.841606" lon="-4.284411"><ele>-10.44</ele><time>2011-05-29T02:41:26Z</time></trkpt><trkpt lat="47.842315" lon="-4.285237"><ele>28.50</ele><time>2011-05-29T02:42:26Z</time></trkpt><trkpt lat="47.841845" lon="-4.286421"><ele>32.34</ele><time>2011-05-29T02:42:38Z</time></trkpt><trkpt lat="47.840939" lon="-4.286967"><ele>31.38</ele><time>2011-05-29T02:42:46Z</time></trkpt><trkpt lat="47.840022" lon="-4.286772"><ele>29.94</ele><time>2011-05-29T02:42:53Z</time></trkpt><trkpt lat="47.839377" lon="-4.287316"><ele>29.46</ele><time>2011-05-29T02:43:06Z</time></trkpt><trkpt lat="47.838924" lon="-4.288522"><ele>34.26</ele><time>2011-05-29T02:43:13Z</time></trkpt><trkpt lat="47.838453" lon="-4.289723"><ele>32.34</ele><time>2011-05-29T02:43:19Z</time></trkpt><trkpt lat="47.838069" lon="-4.290921"><ele>28.50</ele><time>2011-05-29T02:43:29Z</time></trkpt><trkpt lat="47.837310" lon="-4.291875"><ele>33.78</ele><time>2011-05-29T02:43:38Z</time></trkpt><trkpt lat="47.836554" lon="-4.292812"><ele>37.15</ele><time>2011-05-29T02:43:44Z</time></trkpt><trkpt lat="47.835813" lon="-4.293719"><ele>38.11</ele><time>2011-05-29T02:43:49Z</time></trkpt><trkpt lat="47.835114" lon="-4.294775"><ele>38.11</ele><time>2011-05-29T02:43:54Z</time></trkpt><trkpt lat="47.834626" lon="-4.296097"><ele>37.63</ele><time>2011-05-29T02:43:59Z</time></trkpt><trkpt lat="47.834272" lon="-4.297521"><ele>36.67</ele><time>2011-05-29T02:44:04Z</time></trkpt><trkpt lat="47.833732" lon="-4.298830"><ele>36.19</ele><time>2011-05-29T02:44:09Z</time></trkpt><trkpt lat="47.833037" lon="-4.300083"><ele>36.67</ele><time>2011-05-29T02:44:14Z</time></trkpt><trkpt lat="47.832279" lon="-4.301117"><ele>34.74</ele><time>2011-05-29T02:44:19Z</time></trkpt><trkpt lat="47.831470" lon="-4.302098"><ele>35.23</ele><time>2011-05-29T02:44:24Z</time></trkpt><trkpt lat="47.830640" lon="-4.303107"><ele>35.71</ele><time>2011-05-29T02:44:29Z</time></trkpt><trkpt lat="47.829801" lon="-4.304105"><ele>32.34</ele><time>2011-05-29T02:44:34Z</time></trkpt><trkpt lat="47.828956" lon="-4.305033"><ele>29.46</ele><time>2011-05-29T02:44:39Z</time></trkpt><trkpt lat="47.828201" lon="-4.305849"><ele>27.53</ele><time>2011-05-29T02:44:44Z</time></trkpt><trkpt lat="47.827443" lon="-4.306691"><ele>25.13</ele><time>2011-05-29T02:44:50Z</time></trkpt><trkpt lat="47.827061" lon="-4.307854"><ele>23.69</ele><time>2011-05-29T02:45:01Z</time></trkpt><trkpt lat="47.826561" lon="-4.309190"><ele>24.65</ele><time>2011-05-29T02:45:09Z</time></trkpt><trkpt lat="47.826104" lon="-4.310432"><ele>27.53</ele><time>2011-05-29T02:45:15Z</time></trkpt><trkpt lat="47.825664" lon="-4.311681"><ele>26.09</ele><time>2011-05-29T02:45:21Z</time></trkpt><trkpt lat="47.825187" lon="-4.313066"><ele>24.65</ele><time>2011-05-29T02:45:28Z</time></trkpt><trkpt lat="47.824892" lon="-4.314379"><ele>25.13</ele><time>2011-05-29T02:45:35Z</time></trkpt><trkpt lat="47.824746" lon="-4.315733"><ele>25.61</ele><time>2011-05-29T02:45:41Z</time></trkpt><trkpt lat="47.824605" lon="-4.317107"><ele>23.69</ele><time>2011-05-29T02:45:47Z</time></trkpt><trkpt lat="47.824469" lon="-4.318646"><ele>23.21</ele><time>2011-05-29T02:45:54Z</time></trkpt><trkpt lat="47.824479" lon="-4.320065"><ele>22.73</ele><time>2011-05-29T02:46:00Z</time></trkpt><trkpt lat="47.824498" lon="-4.321539"><ele>17.44</ele><time>2011-05-29T02:46:07Z</time></trkpt><trkpt lat="47.824793" lon="-4.322033"><ele>14.08</ele><time>2011-05-29T02:47:17Z</time></trkpt><trkpt lat="47.824191" lon="-4.322927"><ele>17.44</ele><time>2011-05-29T02:47:33Z</time></trkpt><trkpt lat="47.823752" lon="-4.324255"><ele>21.77</ele><time>2011-05-29T02:47:41Z</time></trkpt><trkpt lat="47.823598" lon="-4.325618"><ele>21.77</ele><time>2011-05-29T02:47:48Z</time></trkpt><trkpt lat="47.823447" lon="-4.327051"><ele>19.84</ele><time>2011-05-29T02:47:55Z</time></trkpt><trkpt lat="47.823105" lon="-4.328356"><ele>12.63</ele><time>2011-05-29T02:48:04Z</time></trkpt><trkpt lat="47.822297" lon="-4.329193"><ele>16.00</ele><time>2011-05-29T02:48:15Z</time></trkpt><trkpt lat="47.822392" lon="-4.329594"><ele>12.63</ele><time>2011-05-29T02:48:35Z</time></trkpt><trkpt lat="47.822157" lon="-4.329340"><ele>15.04</ele><time>2011-05-29T02:49:13Z</time></trkpt><trkpt lat="47.821418" lon="-4.330192"><ele>12.15</ele><time>2011-05-29T02:49:24Z</time></trkpt><trkpt lat="47.821062" lon="-4.329120"><ele>13.12</ele><time>2011-05-29T02:49:41Z</time></trkpt><trkpt lat="47.820530" lon="-4.328604"><ele>13.60</ele><time>2011-05-29T02:50:34Z</time></trkpt><trkpt lat="47.820199" lon="-4.329899"><ele>14.08</ele><time>2011-05-29T02:50:44Z</time></trkpt><trkpt lat="47.819822" lon="-4.331165"><ele>10.23</ele><time>2011-05-29T02:50:54Z</time></trkpt><trkpt lat="47.818962" lon="-4.331402"><ele>10.71</ele><time>2011-05-29T02:51:07Z</time></trkpt><trkpt lat="47.818026" lon="-4.331476"><ele>10.23</ele><time>2011-05-29T02:51:14Z</time></trkpt><trkpt lat="47.817149" lon="-4.332049"><ele>10.23</ele><time>2011-05-29T02:51:22Z</time></trkpt><trkpt lat="47.817085" lon="-4.333353"><ele>10.71</ele><time>2011-05-29T02:51:33Z</time></trkpt><trkpt lat="47.817320" lon="-4.334733"><ele>12.63</ele><time>2011-05-29T02:51:41Z</time></trkpt><trkpt lat="47.817294" lon="-4.336149"><ele>11.67</ele><time>2011-05-29T02:51:49Z</time></trkpt><trkpt lat="47.817253" lon="-4.337566"><ele>13.12</ele><time>2011-05-29T02:51:56Z</time></trkpt><trkpt lat="47.817189" lon="-4.339049"><ele>12.63</ele><time>2011-05-29T02:52:03Z</time></trkpt><trkpt lat="47.817128" lon="-4.340553"><ele>9.27</ele><time>2011-05-29T02:52:11Z</time></trkpt><trkpt lat="47.817068" lon="-4.341907"><ele>8.79</ele><time>2011-05-29T02:52:18Z</time></trkpt><trkpt lat="47.816985" lon="-4.343261"><ele>5.42</ele><time>2011-05-29T02:53:17Z</time></trkpt><trkpt lat="47.816772" lon="-4.344535"><ele>3.50</ele><time>2011-05-29T02:53:30Z</time></trkpt><trkpt lat="47.815819" lon="-4.344464"><ele>6.87</ele><time>2011-05-29T02:53:40Z</time></trkpt><trkpt lat="47.815197" lon="-4.343970"><ele>3.98</ele><time>2011-05-29T02:53:54Z</time></trkpt><trkpt lat="47.815271" lon="-4.344416"><ele>4.46</ele><time>2011-05-29T02:54:54Z</time></trkpt><trkpt lat="47.816228" lon="-4.344487"><ele>6.87</ele><time>2011-05-29T02:55:04Z</time></trkpt><trkpt lat="47.816936" lon="-4.344107"><ele>4.94</ele><time>2011-05-29T02:55:16Z</time></trkpt><trkpt lat="47.817026" lon="-4.342620"><ele>9.27</ele><time>2011-05-29T02:55:25Z</time></trkpt><trkpt lat="47.817091" lon="-4.341228"><ele>9.75</ele><time>2011-05-29T02:55:32Z</time></trkpt><trkpt lat="47.817143" lon="-4.339834"><ele>10.71</ele><time>2011-05-29T02:55:39Z</time></trkpt><trkpt lat="47.817205" lon="-4.338439"><ele>10.71</ele><time>2011-05-29T02:55:46Z</time></trkpt><trkpt lat="47.817255" lon="-4.337038"><ele>6.87</ele><time>2011-05-29T02:55:55Z</time></trkpt><trkpt lat="47.816477" lon="-4.336432"><ele>9.27</ele><time>2011-05-29T02:56:29Z</time></trkpt><trkpt lat="47.815920" lon="-4.335367"><ele>8.31</ele><time>2011-05-29T02:56:41Z</time></trkpt><trkpt lat="47.815145" lon="-4.335221"><ele>8.31</ele><time>2011-05-29T02:57:46Z</time></trkpt><trkpt lat="47.814415" lon="-4.336055"><ele>8.79</ele><time>2011-05-29T02:58:01Z</time></trkpt><trkpt lat="47.814368" lon="-4.336144"><ele>8.31</ele><time>2011-05-29T02:58:42Z</time></trkpt><trkpt lat="47.813741" lon="-4.335855"><ele>9.27</ele><time>2011-05-29T02:59:04Z</time></trkpt><trkpt lat="47.814277" lon="-4.334783"><ele>8.79</ele><time>2011-05-29T02:59:18Z</time></trkpt><trkpt lat="47.813901" lon="-4.335861"><ele>9.27</ele><time>2011-05-29T03:00:07Z</time></trkpt><trkpt lat="47.813122" lon="-4.336268"><ele>10.71</ele><time>2011-05-29T03:00:23Z</time></trkpt><trkpt lat="47.812616" lon="-4.337398"><ele>9.75</ele><time>2011-05-29T03:00:59Z</time></trkpt><trkpt lat="47.812741" lon="-4.337005"><ele>10.71</ele><time>2011-05-29T03:01:20Z</time></trkpt><trkpt lat="47.812959" lon="-4.335874"><ele>10.23</ele><time>2011-05-29T03:01:34Z</time></trkpt><trkpt lat="47.812203" lon="-4.335464"><ele>8.79</ele><time>2011-05-29T03:02:07Z</time></trkpt><trkpt lat="47.812576" lon="-4.334312"><ele>9.75</ele><time>2011-05-29T03:02:30Z</time></trkpt><trkpt lat="47.811769" lon="-4.333777"><ele>9.27</ele><time>2011-05-29T03:03:20Z</time></trkpt><trkpt lat="47.811000" lon="-4.333572"><ele>9.75</ele><time>2011-05-29T03:03:35Z</time></trkpt><trkpt lat="47.810529" lon="-4.334761"><ele>8.79</ele><time>2011-05-29T03:03:48Z</time></trkpt><trkpt lat="47.810530" lon="-4.334706"><ele>8.79</ele><time>2011-05-29T03:05:00Z</time></trkpt><trkpt lat="47.811058" lon="-4.333434"><ele>10.71</ele><time>2011-05-29T03:05:10Z</time></trkpt><trkpt lat="47.811367" lon="-4.332101"><ele>11.19</ele><time>2011-05-29T03:05:19Z</time></trkpt><trkpt lat="47.810796" lon="-4.331040"><ele>12.15</ele><time>2011-05-29T03:05:27Z</time></trkpt><trkpt lat="47.810144" lon="-4.330116"><ele>10.71</ele><time>2011-05-29T03:05:35Z</time></trkpt><trkpt lat="47.810361" lon="-4.330442"><ele>9.75</ele><time>2011-05-29T03:06:19Z</time></trkpt><trkpt lat="47.810243" lon="-4.331764"><ele>8.79</ele><time>2011-05-29T03:06:54Z</time></trkpt><trkpt lat="47.809919" lon="-4.332831"><ele>8.31</ele><time>2011-05-29T03:08:04Z</time></trkpt><trkpt lat="47.810316" lon="-4.331524"><ele>10.23</ele><time>2011-05-29T03:08:50Z</time></trkpt><trkpt lat="47.810827" lon="-4.331027"><ele>10.71</ele><time>2011-05-29T03:09:05Z</time></trkpt><trkpt lat="47.811484" lon="-4.331968"><ele>8.31</ele><time>2011-05-29T03:09:18Z</time></trkpt><trkpt lat="47.811610" lon="-4.331718"><ele>8.31</ele><time>2011-05-29T03:10:07Z</time></trkpt><trkpt lat="47.812298" lon="-4.330694"><ele>9.75</ele><time>2011-05-29T03:10:23Z</time></trkpt><trkpt lat="47.812931" lon="-4.329501"><ele>9.27</ele><time>2011-05-29T03:10:32Z</time></trkpt><trkpt lat="47.813339" lon="-4.328445"><ele>8.31</ele><time>2011-05-29T03:10:44Z</time></trkpt><trkpt lat="47.813532" lon="-4.328375"><ele>8.31</ele><time>2011-05-29T03:12:17Z</time></trkpt><trkpt lat="47.814185" lon="-4.327275"><ele>11.19</ele><time>2011-05-29T03:12:28Z</time></trkpt><trkpt lat="47.814729" lon="-4.326112"><ele>13.60</ele><time>2011-05-29T03:12:43Z</time></trkpt><trkpt lat="47.815016" lon="-4.324758"><ele>16.48</ele><time>2011-05-29T03:12:51Z</time></trkpt><trkpt lat="47.815076" lon="-4.323377"><ele>14.56</ele><time>2011-05-29T03:13:00Z</time></trkpt><trkpt lat="47.815992" lon="-4.323824"><ele>18.88</ele><time>2011-05-29T03:13:13Z</time></trkpt><trkpt lat="47.816832" lon="-4.324343"><ele>14.56</ele><time>2011-05-29T03:13:23Z</time></trkpt><trkpt lat="47.816992" lon="-4.324356"><ele>15.04</ele><time>2011-05-29T03:14:02Z</time></trkpt><trkpt lat="47.816050" lon="-4.323917"><ele>18.40</ele><time>2011-05-29T03:14:37Z</time></trkpt><trkpt lat="47.815185" lon="-4.323323"><ele>14.08</ele><time>2011-05-29T03:14:47Z</time></trkpt><trkpt lat="47.815388" lon="-4.321980"><ele>16.48</ele><time>2011-05-29T03:15:00Z</time></trkpt><trkpt lat="47.815859" lon="-4.320745"><ele>18.40</ele><time>2011-05-29T03:15:10Z</time></trkpt><trkpt lat="47.815950" lon="-4.320610"><ele>19.36</ele><time>2011-05-29T03:15:46Z</time></trkpt><trkpt lat="47.815432" lon="-4.321911"><ele>19.84</ele><time>2011-05-29T03:15:56Z</time></trkpt><trkpt lat="47.815063" lon="-4.323176"><ele>13.12</ele><time>2011-05-29T03:16:07Z</time></trkpt><trkpt lat="47.814113" lon="-4.322592"><ele>17.44</ele><time>2011-05-29T03:16:18Z</time></trkpt><trkpt lat="47.813174" lon="-4.321947"><ele>17.44</ele><time>2011-05-29T03:16:25Z</time></trkpt><trkpt lat="47.812312" lon="-4.321357"><ele>15.52</ele><time>2011-05-29T03:16:31Z</time></trkpt><trkpt lat="47.811483" lon="-4.320616"><ele>12.15</ele><time>2011-05-29T03:16:38Z</time></trkpt><trkpt lat="47.810941" lon="-4.321007"><ele>11.67</ele><time>2011-05-29T03:16:51Z</time></trkpt><trkpt lat="47.811295" lon="-4.322090"><ele>10.23</ele><time>2011-05-29T03:17:06Z</time></trkpt><trkpt lat="47.812247" lon="-4.322491"><ele>12.15</ele><time>2011-05-29T03:17:17Z</time></trkpt><trkpt lat="47.812987" lon="-4.323290"><ele>11.19</ele><time>2011-05-29T03:17:29Z</time></trkpt><trkpt lat="47.812406" lon="-4.322627"><ele>12.15</ele><time>2011-05-29T03:18:20Z</time></trkpt><trkpt lat="47.811459" lon="-4.322159"><ele>11.67</ele><time>2011-05-29T03:18:31Z</time></trkpt><trkpt lat="47.810695" lon="-4.322273"><ele>8.31</ele><time>2011-05-29T03:18:49Z</time></trkpt><trkpt lat="47.809876" lon="-4.321717"><ele>7.83</ele><time>2011-05-29T03:19:05Z</time></trkpt><trkpt lat="47.809161" lon="-4.321694"><ele>6.39</ele><time>2011-05-29T03:19:20Z</time></trkpt><trkpt lat="47.808739" lon="-4.322917"><ele>8.79</ele><time>2011-05-29T03:19:57Z</time></trkpt><trkpt lat="47.808839" lon="-4.323859"><ele>5.91</ele><time>2011-05-29T03:21:12Z</time></trkpt><trkpt lat="47.809714" lon="-4.324235"><ele>6.39</ele><time>2011-05-29T03:21:22Z</time></trkpt><trkpt lat="47.810058" lon="-4.325269"><ele>7.35</ele><time>2011-05-29T03:21:38Z</time></trkpt><trkpt lat="47.809634" lon="-4.326571"><ele>11.67</ele><time>2011-05-29T03:21:47Z</time></trkpt><trkpt lat="47.809435" lon="-4.327962"><ele>10.23</ele><time>2011-05-29T03:21:56Z</time></trkpt><trkpt lat="47.808683" lon="-4.328228"><ele>10.23</ele><time>2011-05-29T03:22:10Z</time></trkpt><trkpt lat="47.807725" lon="-4.328074"><ele>12.15</ele><time>2011-05-29T03:22:40Z</time></trkpt><trkpt lat="47.806791" lon="-4.327836"><ele>10.71</ele><time>2011-05-29T03:22:48Z</time></trkpt><trkpt lat="47.805869" lon="-4.327685"><ele>7.35</ele><time>2011-05-29T03:23:52Z</time></trkpt><trkpt lat="47.805206" lon="-4.328269"><ele>8.79</ele><time>2011-05-29T03:24:04Z</time></trkpt><trkpt lat="47.804597" lon="-4.328921"><ele>6.87</ele><time>2011-05-29T03:24:15Z</time></trkpt><trkpt lat="47.803862" lon="-4.328928"><ele>7.83</ele><time>2011-05-29T03:24:26Z</time></trkpt><trkpt lat="47.803432" lon="-4.330141"><ele>9.75</ele><time>2011-05-29T03:24:35Z</time></trkpt><trkpt lat="47.802718" lon="-4.331054"><ele>7.83</ele><time>2011-05-29T03:24:43Z</time></trkpt><trkpt lat="47.801987" lon="-4.331196"><ele>5.42</ele><time>2011-05-29T03:24:58Z</time></trkpt><trkpt lat="47.801251" lon="-4.330129"><ele>8.79</ele><time>2011-05-29T03:25:07Z</time></trkpt><trkpt lat="47.800586" lon="-4.329183"><ele>7.35</ele><time>2011-05-29T03:25:15Z</time></trkpt><trkpt lat="47.799901" lon="-4.328171"><ele>8.31</ele><time>2011-05-29T03:25:24Z</time></trkpt><trkpt lat="47.799252" lon="-4.327213"><ele>6.87</ele><time>2011-05-29T03:25:35Z</time></trkpt><trkpt lat="47.799021" lon="-4.326875"><ele>6.39</ele><time>2011-05-29T03:26:17Z</time></trkpt><trkpt lat="47.799693" lon="-4.327867"><ele>7.83</ele><time>2011-05-29T03:26:30Z</time></trkpt><trkpt lat="47.800391" lon="-4.328897"><ele>6.39</ele><time>2011-05-29T03:26:40Z</time></trkpt><trkpt lat="47.801141" lon="-4.329932"><ele>8.31</ele><time>2011-05-29T03:26:54Z</time></trkpt><trkpt lat="47.801902" lon="-4.330990"><ele>8.79</ele><time>2011-05-29T03:27:02Z</time></trkpt><trkpt lat="47.802560" lon="-4.331992"><ele>9.27</ele><time>2011-05-29T03:27:09Z</time></trkpt><trkpt lat="47.803135" lon="-4.333208"><ele>9.27</ele><time>2011-05-29T03:27:16Z</time></trkpt><trkpt lat="47.803680" lon="-4.334391"><ele>8.79</ele><time>2011-05-29T03:27:23Z</time></trkpt><trkpt lat="47.804264" lon="-4.335555"><ele>6.39</ele><time>2011-05-29T03:27:35Z</time></trkpt><trkpt lat="47.804986" lon="-4.336507"><ele>7.35</ele><time>2011-05-29T03:27:43Z</time></trkpt><trkpt lat="47.805681" lon="-4.337420"><ele>3.50</ele><time>2011-05-29T03:27:52Z</time></trkpt><trkpt lat="47.806406" lon="-4.336992"><ele>5.42</ele><time>2011-05-29T03:28:13Z</time></trkpt><trkpt lat="47.806403" lon="-4.337017"><ele>5.42</ele><time>2011-05-29T03:29:19Z</time></trkpt><trkpt lat="47.806567" lon="-4.335947"><ele>6.39</ele><time>2011-05-29T03:29:43Z</time></trkpt><trkpt lat="47.806975" lon="-4.334807"><ele>7.83</ele><time>2011-05-29T03:29:56Z</time></trkpt><trkpt lat="47.806670" lon="-4.333776"><ele>7.83</ele><time>2011-05-29T03:30:34Z</time></trkpt><trkpt lat="47.805988" lon="-4.334111"><ele>8.31</ele><time>2011-05-29T03:30:49Z</time></trkpt><trkpt lat="47.805538" lon="-4.335362"><ele>5.91</ele><time>2011-05-29T03:31:01Z</time></trkpt><trkpt lat="47.805660" lon="-4.335012"><ele>4.94</ele><time>2011-05-29T03:32:52Z</time></trkpt><trkpt lat="47.806133" lon="-4.333774"><ele>6.87</ele><time>2011-05-29T03:33:14Z</time></trkpt><trkpt lat="47.805669" lon="-4.332930"><ele>9.27</ele><time>2011-05-29T03:33:30Z</time></trkpt><trkpt lat="47.805034" lon="-4.333393"><ele>8.79</ele><time>2011-05-29T03:33:51Z</time></trkpt><trkpt lat="47.804582" lon="-4.334637"><ele>7.83</ele><time>2011-05-29T03:34:22Z</time></trkpt><trkpt lat="47.804470" lon="-4.335869"><ele>6.39</ele><time>2011-05-29T03:34:37Z</time></trkpt><trkpt lat="47.805212" lon="-4.336801"><ele>8.31</ele><time>2011-05-29T03:34:46Z</time></trkpt><trkpt lat="47.805919" lon="-4.337710"><ele>5.42</ele><time>2011-05-29T03:34:55Z</time></trkpt><trkpt lat="47.806011" lon="-4.337799"><ele>3.50</ele><time>2011-05-29T03:35:53Z</time></trkpt><trkpt lat="47.806835" lon="-4.338382"><ele>5.91</ele><time>2011-05-29T03:36:53Z</time></trkpt><trkpt lat="47.807586" lon="-4.339215"><ele>8.31</ele><time>2011-05-29T03:37:01Z</time></trkpt><trkpt lat="47.808421" lon="-4.339941"><ele>7.83</ele><time>2011-05-29T03:37:09Z</time></trkpt><trkpt lat="47.809324" lon="-4.339700"><ele>7.83</ele><time>2011-05-29T03:37:19Z</time></trkpt><trkpt lat="47.809179" lon="-4.338363"><ele>8.31</ele><time>2011-05-29T03:38:09Z</time></trkpt><trkpt lat="47.808947" lon="-4.336979"><ele>9.27</ele><time>2011-05-29T03:38:19Z</time></trkpt><trkpt lat="47.808730" lon="-4.335673"><ele>7.83</ele><time>2011-05-29T03:38:28Z</time></trkpt><trkpt lat="47.808524" lon="-4.334337"><ele>8.31</ele><time>2011-05-29T03:38:52Z</time></trkpt><trkpt lat="47.808301" lon="-4.332957"><ele>10.23</ele><time>2011-05-29T03:39:02Z</time></trkpt><trkpt lat="47.808089" lon="-4.331626"><ele>8.79</ele><time>2011-05-29T03:39:10Z</time></trkpt><trkpt lat="47.807821" lon="-4.331396"><ele>8.31</ele><time>2011-05-29T03:39:29Z</time></trkpt><trkpt lat="47.807709" lon="-4.332790"><ele>7.35</ele><time>2011-05-29T03:39:45Z</time></trkpt><trkpt lat="47.807996" lon="-4.334118"><ele>8.31</ele><time>2011-05-29T03:40:32Z</time></trkpt><trkpt lat="47.807790" lon="-4.335503"><ele>8.31</ele><time>2011-05-29T03:40:43Z</time></trkpt><trkpt lat="47.807386" lon="-4.336783"><ele>5.91</ele><time>2011-05-29T03:40:54Z</time></trkpt><trkpt lat="47.807065" lon="-4.337878"><ele>4.46</ele><time>2011-05-29T03:41:29Z</time></trkpt><trkpt lat="47.807380" lon="-4.338955"><ele>6.87</ele><time>2011-05-29T03:41:46Z</time></trkpt><trkpt lat="47.808148" lon="-4.339776"><ele>7.35</ele><time>2011-05-29T03:41:54Z</time></trkpt><trkpt lat="47.809017" lon="-4.339970"><ele>9.27</ele><time>2011-05-29T03:42:02Z</time></trkpt><trkpt lat="47.809901" lon="-4.339374"><ele>10.71</ele><time>2011-05-29T03:42:11Z</time></trkpt><trkpt lat="47.810891" lon="-4.339113"><ele>9.27</ele><time>2011-05-29T03:42:20Z</time></trkpt><trkpt lat="47.811746" lon="-4.339490"><ele>11.67</ele><time>2011-05-29T03:42:38Z</time></trkpt><trkpt lat="47.812387" lon="-4.340475"><ele>10.23</ele><time>2011-05-29T03:42:47Z</time></trkpt><trkpt lat="47.812938" lon="-4.341534"><ele>8.79</ele><time>2011-05-29T03:43:17Z</time></trkpt><trkpt lat="47.812855" lon="-4.342904"><ele>10.71</ele><time>2011-05-29T03:43:27Z</time></trkpt><trkpt lat="47.812629" lon="-4.344314"><ele>11.19</ele><time>2011-05-29T03:43:35Z</time></trkpt><trkpt lat="47.812209" lon="-4.345615"><ele>11.67</ele><time>2011-05-29T03:43:43Z</time></trkpt><trkpt lat="47.811814" lon="-4.346830"><ele>11.67</ele><time>2011-05-29T03:43:51Z</time></trkpt><trkpt lat="47.811402" lon="-4.347666"><ele>7.83</ele><time>2011-05-29T03:44:49Z</time></trkpt><trkpt lat="47.811487" lon="-4.347819"><ele>9.27</ele><time>2011-05-29T03:45:37Z</time></trkpt><trkpt lat="47.811212" lon="-4.349179"><ele>10.23</ele><time>2011-05-29T03:45:49Z</time></trkpt><trkpt lat="47.810393" lon="-4.349016"><ele>10.71</ele><time>2011-05-29T03:46:03Z</time></trkpt><trkpt lat="47.809485" lon="-4.348866"><ele>8.31</ele><time>2011-05-29T03:46:13Z</time></trkpt><trkpt lat="47.808865" lon="-4.349850"><ele>6.87</ele><time>2011-05-29T03:46:56Z</time></trkpt><trkpt lat="47.808115" lon="-4.349041"><ele>8.79</ele><time>2011-05-29T03:47:09Z</time></trkpt><trkpt lat="47.807378" lon="-4.348071"><ele>8.31</ele><time>2011-05-29T03:47:44Z</time></trkpt><trkpt lat="47.806709" lon="-4.348596"><ele>10.71</ele><time>2011-05-29T03:48:15Z</time></trkpt><trkpt lat="47.806101" lon="-4.349830"><ele>10.71</ele><time>2011-05-29T03:48:23Z</time></trkpt><trkpt lat="47.805440" lon="-4.350480"><ele>6.87</ele><time>2011-05-29T03:48:36Z</time></trkpt><trkpt lat="47.805297" lon="-4.350312"><ele>7.35</ele><time>2011-05-29T03:49:14Z</time></trkpt><trkpt lat="47.806009" lon="-4.349988"><ele>6.87</ele><time>2011-05-29T03:49:31Z</time></trkpt><trkpt lat="47.806574" lon="-4.348828"><ele>8.79</ele><time>2011-05-29T03:49:39Z</time></trkpt><trkpt lat="47.807151" lon="-4.347777"><ele>6.39</ele><time>2011-05-29T03:49:49Z</time></trkpt><trkpt lat="47.807826" lon="-4.348660"><ele>8.79</ele><time>2011-05-29T03:50:04Z</time></trkpt><trkpt lat="47.808522" lon="-4.349531"><ele>8.79</ele><time>2011-05-29T03:50:16Z</time></trkpt><trkpt lat="47.809194" lon="-4.349138"><ele>8.79</ele><time>2011-05-29T03:50:30Z</time></trkpt><trkpt lat="47.809660" lon="-4.347855"><ele>10.23</ele><time>2011-05-29T03:50:41Z</time></trkpt><trkpt lat="47.810087" lon="-4.346597"><ele>9.75</ele><time>2011-05-29T03:50:51Z</time></trkpt><trkpt lat="47.810110" lon="-4.345801"><ele>7.35</ele><time>2011-05-29T03:53:12Z</time></trkpt><trkpt lat="47.810334" lon="-4.344664"><ele>8.79</ele><time>2011-05-29T03:53:35Z</time></trkpt><trkpt lat="47.810657" lon="-4.343334"><ele>8.79</ele><time>2011-05-29T03:53:48Z</time></trkpt><trkpt lat="47.811077" lon="-4.342175"><ele>5.91</ele><time>2011-05-29T03:54:32Z</time></trkpt><trkpt lat="47.811529" lon="-4.340945"><ele>8.79</ele><time>2011-05-29T03:55:11Z</time></trkpt><trkpt lat="47.811580" lon="-4.340157"><ele>7.83</ele><time>2011-05-29T03:55:27Z</time></trkpt><trkpt lat="47.811404" lon="-4.340133"><ele>6.87</ele><time>2011-05-29T03:56:36Z</time></trkpt><trkpt lat="47.811284" lon="-4.339381"><ele>8.31</ele><time>2011-05-29T03:56:59Z</time></trkpt><trkpt lat="47.810580" lon="-4.339175"><ele>10.71</ele><time>2011-05-29T03:57:13Z</time></trkpt><trkpt lat="47.809597" lon="-4.339474"><ele>10.23</ele><time>2011-05-29T03:57:22Z</time></trkpt><trkpt lat="47.808740" lon="-4.340070"><ele>7.35</ele><time>2011-05-29T03:57:31Z</time></trkpt><trkpt lat="47.807819" lon="-4.339538"><ele>9.75</ele><time>2011-05-29T03:57:39Z</time></trkpt><trkpt lat="47.807063" lon="-4.338634"><ele>8.79</ele><time>2011-05-29T03:57:46Z</time></trkpt><trkpt lat="47.806267" lon="-4.338731"><ele>6.39</ele><time>2011-05-29T03:57:57Z</time></trkpt><trkpt lat="47.805557" lon="-4.339643"><ele>7.35</ele><time>2011-05-29T03:58:05Z</time></trkpt><trkpt lat="47.804845" lon="-4.340504"><ele>4.46</ele><time>2011-05-29T03:58:29Z</time></trkpt><trkpt lat="47.804398" lon="-4.341509"><ele>4.94</ele><time>2011-05-29T03:58:44Z</time></trkpt><trkpt lat="47.804728" lon="-4.342529"><ele>6.87</ele><time>2011-05-29T03:59:01Z</time></trkpt><trkpt lat="47.804925" lon="-4.342689"><ele>6.39</ele><time>2011-05-29T03:59:52Z</time></trkpt><trkpt lat="47.804492" lon="-4.341776"><ele>4.94</ele><time>2011-05-29T04:00:06Z</time></trkpt><trkpt lat="47.804688" lon="-4.340703"><ele>7.35</ele><time>2011-05-29T04:00:25Z</time></trkpt><trkpt lat="47.805456" lon="-4.339731"><ele>8.31</ele><time>2011-05-29T04:00:33Z</time></trkpt><trkpt lat="47.806173" lon="-4.338835"><ele>7.35</ele><time>2011-05-29T04:00:40Z</time></trkpt><trkpt lat="47.806127" lon="-4.337972"><ele>4.94</ele><time>2011-05-29T04:00:54Z</time></trkpt><trkpt lat="47.805422" lon="-4.337082"><ele>4.46</ele><time>2011-05-29T04:01:03Z</time></trkpt><trkpt lat="47.804629" lon="-4.337275"><ele>4.94</ele><time>2011-05-29T04:01:19Z</time></trkpt><trkpt lat="47.803854" lon="-4.336607"><ele>3.98</ele><time>2011-05-29T04:01:57Z</time></trkpt><trkpt lat="47.802933" lon="-4.336415"><ele>6.39</ele><time>2011-05-29T04:02:08Z</time></trkpt><trkpt lat="47.802261" lon="-4.337300"><ele>6.87</ele><time>2011-05-29T04:02:17Z</time></trkpt><trkpt lat="47.801878" lon="-4.338574"><ele>3.98</ele><time>2011-05-29T04:03:02Z</time></trkpt><trkpt lat="47.801909" lon="-4.340006"><ele>4.94</ele><time>2011-05-29T04:03:14Z</time></trkpt><trkpt lat="47.802012" lon="-4.341296"><ele>5.42</ele><time>2011-05-29T04:03:25Z</time></trkpt><trkpt lat="47.802684" lon="-4.342332"><ele>4.46</ele><time>2011-05-29T04:03:35Z</time></trkpt><trkpt lat="47.803545" lon="-4.342413"><ele>2.54</ele><time>2011-05-29T04:03:48Z</time></trkpt><trkpt lat="47.802885" lon="-4.343407"><ele>6.39</ele><time>2011-05-29T04:03:59Z</time></trkpt><trkpt lat="47.803007" lon="-4.344615"><ele>4.46</ele><time>2011-05-29T04:04:09Z</time></trkpt><trkpt lat="47.803993" lon="-4.344920"><ele>7.83</ele><time>2011-05-29T04:04:19Z</time></trkpt><trkpt lat="47.804895" lon="-4.345188"><ele>5.42</ele><time>2011-05-29T04:04:29Z</time></trkpt><trkpt lat="47.805801" lon="-4.345554"><ele>6.87</ele><time>2011-05-29T04:05:11Z</time></trkpt><trkpt lat="47.806298" lon="-4.344731"><ele>8.31</ele><time>2011-05-29T04:05:27Z</time></trkpt><trkpt lat="47.806452" lon="-4.344213"><ele>8.79</ele><time>2011-05-29T04:06:20Z</time></trkpt><trkpt lat="47.806099" lon="-4.345484"><ele>6.87</ele><time>2011-05-29T04:06:34Z</time></trkpt><trkpt lat="47.806873" lon="-4.345835"><ele>7.35</ele><time>2011-05-29T04:06:58Z</time></trkpt><trkpt lat="47.807218" lon="-4.345298"><ele>6.87</ele><time>2011-05-29T04:07:47Z</time></trkpt><trkpt lat="47.807538" lon="-4.346162"><ele>8.31</ele><time>2011-05-29T04:08:21Z</time></trkpt><trkpt lat="47.807534" lon="-4.347085"><ele>10.71</ele><time>2011-05-29T04:08:42Z</time></trkpt><trkpt lat="47.806930" lon="-4.348224"><ele>12.15</ele><time>2011-05-29T04:08:50Z</time></trkpt><trkpt lat="47.806378" lon="-4.349297"><ele>13.12</ele><time>2011-05-29T04:08:56Z</time></trkpt><trkpt lat="47.805801" lon="-4.350488"><ele>15.04</ele><time>2011-05-29T04:09:02Z</time></trkpt><trkpt lat="47.805217" lon="-4.351649"><ele>11.67</ele><time>2011-05-29T04:09:08Z</time></trkpt><trkpt lat="47.804657" lon="-4.352726"><ele>10.71</ele><time>2011-05-29T04:09:14Z</time></trkpt><trkpt lat="47.804011" lon="-4.353806"><ele>5.91</ele><time>2011-05-29T04:09:22Z</time></trkpt><trkpt lat="47.803324" lon="-4.354769"><ele>7.35</ele><time>2011-05-29T04:10:31Z</time></trkpt><trkpt lat="47.802758" lon="-4.355861"><ele>4.94</ele><time>2011-05-29T04:10:43Z</time></trkpt><trkpt lat="47.802955" lon="-4.356718"><ele>5.91</ele><time>2011-05-29T04:11:51Z</time></trkpt><trkpt lat="47.803886" lon="-4.357218"><ele>6.39</ele><time>2011-05-29T04:12:03Z</time></trkpt><trkpt lat="47.804850" lon="-4.357716"><ele>8.31</ele><time>2011-05-29T04:12:43Z</time></trkpt><trkpt lat="47.805695" lon="-4.358481"><ele>9.27</ele><time>2011-05-29T04:12:51Z</time></trkpt><trkpt lat="47.806554" lon="-4.359079"><ele>8.31</ele><time>2011-05-29T04:12:59Z</time></trkpt><trkpt lat="47.807246" lon="-4.359629"><ele>6.87</ele><time>2011-05-29T04:13:17Z</time></trkpt><trkpt lat="47.807074" lon="-4.361005"><ele>7.35</ele><time>2011-05-29T04:13:48Z</time></trkpt><trkpt lat="47.806808" lon="-4.362338"><ele>6.39</ele><time>2011-05-29T04:14:47Z</time></trkpt><trkpt lat="47.806067" lon="-4.362865"><ele>7.35</ele><time>2011-05-29T04:14:57Z</time></trkpt><trkpt lat="47.805372" lon="-4.361931"><ele>5.42</ele><time>2011-05-29T04:15:06Z</time></trkpt><trkpt lat="47.804688" lon="-4.361002"><ele>9.27</ele><time>2011-05-29T04:15:20Z</time></trkpt><trkpt lat="47.803929" lon="-4.360124"><ele>8.31</ele><time>2011-05-29T04:15:28Z</time></trkpt><trkpt lat="47.803194" lon="-4.359298"><ele>4.94</ele><time>2011-05-29T04:15:38Z</time></trkpt><trkpt lat="47.802346" lon="-4.358559"><ele>6.87</ele><time>2011-05-29T04:16:11Z</time></trkpt><trkpt lat="47.801559" lon="-4.357933"><ele>3.98</ele><time>2011-05-29T04:16:26Z</time></trkpt><trkpt lat="47.801895" lon="-4.356694"><ele>5.42</ele><time>2011-05-29T04:16:40Z</time></trkpt><trkpt lat="47.801205" lon="-4.356167"><ele>5.91</ele><time>2011-05-29T04:17:23Z</time></trkpt><trkpt lat="47.800365" lon="-4.356649"><ele>5.91</ele><time>2011-05-29T04:17:42Z</time></trkpt><trkpt lat="47.799468" lon="-4.356878"><ele>8.31</ele><time>2011-05-29T04:18:00Z</time></trkpt><trkpt lat="47.798509" lon="-4.356528"><ele>9.27</ele><time>2011-05-29T04:18:10Z</time></trkpt><trkpt lat="47.797731" lon="-4.355676"><ele>6.39</ele><time>2011-05-29T04:18:21Z</time></trkpt><trkpt lat="47.797168" lon="-4.355316"><ele>4.94</ele><time>2011-05-29T04:19:10Z</time></trkpt><trkpt lat="47.797409" lon="-4.353971"><ele>7.35</ele><time>2011-05-29T04:19:23Z</time></trkpt><trkpt lat="47.797643" lon="-4.352630"><ele>5.42</ele><time>2011-05-29T04:20:49Z</time></trkpt><trkpt lat="47.798317" lon="-4.352402"><ele>3.50</ele><time>2011-05-29T04:21:10Z</time></trkpt><trkpt lat="47.798890" lon="-4.353532"><ele>7.35</ele><time>2011-05-29T04:21:22Z</time></trkpt><trkpt lat="47.799002" lon="-4.354621"><ele>6.39</ele><time>2011-05-29T04:21:39Z</time></trkpt><trkpt lat="47.798959" lon="-4.354722"><ele>5.91</ele><time>2011-05-29T04:22:36Z</time></trkpt><trkpt lat="47.799513" lon="-4.353502"><ele>8.31</ele><time>2011-05-29T04:22:47Z</time></trkpt><trkpt lat="47.800090" lon="-4.352401"><ele>7.35</ele><time>2011-05-29T04:22:56Z</time></trkpt><trkpt lat="47.800822" lon="-4.351981"><ele>5.91</ele><time>2011-05-29T04:23:09Z</time></trkpt><trkpt lat="47.800939" lon="-4.353048"><ele>6.39</ele><time>2011-05-29T04:23:23Z</time></trkpt><trkpt lat="47.800255" lon="-4.354088"><ele>7.83</ele><time>2011-05-29T04:23:34Z</time></trkpt><trkpt lat="47.799781" lon="-4.355288"><ele>7.83</ele><time>2011-05-29T04:23:47Z</time></trkpt><trkpt lat="47.799370" lon="-4.356518"><ele>8.31</ele><time>2011-05-29T04:24:03Z</time></trkpt><trkpt lat="47.799126" lon="-4.357574"><ele>7.83</ele><time>2011-05-29T04:24:26Z</time></trkpt><trkpt lat="47.798962" lon="-4.358978"><ele>7.35</ele><time>2011-05-29T04:25:13Z</time></trkpt><trkpt lat="47.798232" lon="-4.358813"><ele>6.87</ele><time>2011-05-29T04:26:01Z</time></trkpt><trkpt lat="47.797583" lon="-4.358405"><ele>7.35</ele><time>2011-05-29T04:26:17Z</time></trkpt><trkpt lat="47.797120" lon="-4.359679"><ele>7.83</ele><time>2011-05-29T04:26:28Z</time></trkpt><trkpt lat="47.797111" lon="-4.360995"><ele>8.31</ele><time>2011-05-29T04:26:43Z</time></trkpt><trkpt lat="47.797288" lon="-4.362343"><ele>6.87</ele><time>2011-05-29T04:26:52Z</time></trkpt><trkpt lat="47.797291" lon="-4.362498"><ele>4.94</ele><time>2011-05-29T04:27:42Z</time></trkpt><trkpt lat="47.797789" lon="-4.361545"><ele>4.46</ele><time>2011-05-29T04:28:27Z</time></trkpt><trkpt lat="47.798619" lon="-4.362321"><ele>8.31</ele><time>2011-05-29T04:28:41Z</time></trkpt><trkpt lat="47.799214" lon="-4.363435"><ele>8.79</ele><time>2011-05-29T04:29:33Z</time></trkpt><trkpt lat="47.800112" lon="-4.363601"><ele>8.79</ele><time>2011-05-29T04:29:42Z</time></trkpt><trkpt lat="47.800664" lon="-4.364164"><ele>7.83</ele><time>2011-05-29T04:29:58Z</time></trkpt><trkpt lat="47.800703" lon="-4.365453"><ele>7.35</ele><time>2011-05-29T04:30:12Z</time></trkpt><trkpt lat="47.800878" lon="-4.366814"><ele>9.27</ele><time>2011-05-29T04:30:22Z</time></trkpt><trkpt lat="47.801577" lon="-4.367361"><ele>7.83</ele><time>2011-05-29T04:30:33Z</time></trkpt><trkpt lat="47.801842" lon="-4.366380"><ele>6.87</ele><time>2011-05-29T04:31:07Z</time></trkpt><trkpt lat="47.801894" lon="-4.366404"><ele>6.87</ele><time>2011-05-29T04:32:31Z</time></trkpt><trkpt lat="47.801492" lon="-4.367383"><ele>7.35</ele><time>2011-05-29T04:32:48Z</time></trkpt><trkpt lat="47.800950" lon="-4.368144"><ele>4.94</ele><time>2011-05-29T04:33:20Z</time></trkpt><trkpt lat="47.800616" lon="-4.369360"><ele>5.91</ele><time>2011-05-29T04:33:36Z</time></trkpt><trkpt lat="47.799889" lon="-4.370211"><ele>4.46</ele><time>2011-05-29T04:33:50Z</time></trkpt><trkpt lat="47.799031" lon="-4.369857"><ele>6.39</ele><time>2011-05-29T04:34:15Z</time></trkpt><trkpt lat="47.798752" lon="-4.371154"><ele>5.42</ele><time>2011-05-29T04:34:28Z</time></trkpt><trkpt lat="47.799528" lon="-4.371632"><ele>5.91</ele><time>2011-05-29T04:35:07Z</time></trkpt><trkpt lat="47.799527" lon="-4.372556"><ele>5.91</ele><time>2011-05-29T04:35:24Z</time></trkpt><trkpt lat="47.799171" lon="-4.371720"><ele>5.42</ele><time>2011-05-29T04:35:43Z</time></trkpt><trkpt lat="47.798746" lon="-4.370642"><ele>5.91</ele><time>2011-05-29T04:36:09Z</time></trkpt><trkpt lat="47.799222" lon="-4.369354"><ele>9.27</ele><time>2011-05-29T04:36:18Z</time></trkpt><trkpt lat="47.799746" lon="-4.368058"><ele>10.23</ele><time>2011-05-29T04:36:26Z</time></trkpt><trkpt lat="47.799976" lon="-4.366650"><ele>10.71</ele><time>2011-05-29T04:36:34Z</time></trkpt><trkpt lat="47.800423" lon="-4.365481"><ele>12.15</ele><time>2011-05-29T04:36:40Z</time></trkpt><trkpt lat="47.800669" lon="-4.363977"><ele>10.71</ele><time>2011-05-29T04:36:47Z</time></trkpt><trkpt lat="47.800968" lon="-4.362680"><ele>12.15</ele><time>2011-05-29T04:36:53Z</time></trkpt><trkpt lat="47.801306" lon="-4.361401"><ele>11.67</ele><time>2011-05-29T04:36:59Z</time></trkpt><trkpt lat="47.801378" lon="-4.360037"><ele>10.71</ele><time>2011-05-29T04:37:05Z</time></trkpt><trkpt lat="47.801500" lon="-4.358667"><ele>10.23</ele><time>2011-05-29T04:37:11Z</time></trkpt><trkpt lat="47.801709" lon="-4.357314"><ele>7.35</ele><time>2011-05-29T04:37:18Z</time></trkpt><trkpt lat="47.802417" lon="-4.356395"><ele>10.23</ele><time>2011-05-29T04:37:26Z</time></trkpt><trkpt lat="47.803019" lon="-4.355194"><ele>12.15</ele><time>2011-05-29T04:37:33Z</time></trkpt><trkpt lat="47.803681" lon="-4.354124"><ele>11.67</ele><time>2011-05-29T04:37:39Z</time></trkpt><trkpt lat="47.804405" lon="-4.353131"><ele>13.12</ele><time>2011-05-29T04:37:45Z</time></trkpt><trkpt lat="47.805044" lon="-4.351899"><ele>13.60</ele><time>2011-05-29T04:37:51Z</time></trkpt><trkpt lat="47.805691" lon="-4.350618"><ele>13.60</ele><time>2011-05-29T04:37:57Z</time></trkpt><trkpt lat="47.806304" lon="-4.349354"><ele>13.60</ele><time>2011-05-29T04:38:03Z</time></trkpt><trkpt lat="47.806910" lon="-4.348175"><ele>14.08</ele><time>2011-05-29T04:38:09Z</time></trkpt><trkpt lat="47.807545" lon="-4.347006"><ele>12.15</ele><time>2011-05-29T04:38:16Z</time></trkpt><trkpt lat="47.808103" lon="-4.345981"><ele>12.15</ele><time>2011-05-29T04:38:23Z</time></trkpt><trkpt lat="47.808605" lon="-4.344836"><ele>7.83</ele><time>2011-05-29T04:38:33Z</time></trkpt><trkpt lat="47.809078" lon="-4.343649"><ele>10.71</ele><time>2011-05-29T04:39:46Z</time></trkpt><trkpt lat="47.809672" lon="-4.342501"><ele>10.71</ele><time>2011-05-29T04:39:56Z</time></trkpt><trkpt lat="47.810269" lon="-4.341415"><ele>8.31</ele><time>2011-05-29T04:40:05Z</time></trkpt><trkpt lat="47.810861" lon="-4.340356"><ele>10.71</ele><time>2011-05-29T04:40:13Z</time></trkpt><trkpt lat="47.811357" lon="-4.339223"><ele>8.31</ele><time>2011-05-29T04:40:24Z</time></trkpt><trkpt lat="47.812082" lon="-4.340005"><ele>12.15</ele><time>2011-05-29T04:40:38Z</time></trkpt><trkpt lat="47.812763" lon="-4.341141"><ele>11.19</ele><time>2011-05-29T04:40:46Z</time></trkpt><trkpt lat="47.813226" lon="-4.342490"><ele>12.63</ele><time>2011-05-29T04:40:54Z</time></trkpt><trkpt lat="47.813800" lon="-4.343568"><ele>11.19</ele><time>2011-05-29T04:41:01Z</time></trkpt><trkpt lat="47.814078" lon="-4.344737"><ele>8.79</ele><time>2011-05-29T04:41:14Z</time></trkpt><trkpt lat="47.814002" lon="-4.345996"><ele>8.31</ele><time>2011-05-29T04:41:48Z</time></trkpt><trkpt lat="47.814789" lon="-4.345512"><ele>6.87</ele><time>2011-05-29T04:42:03Z</time></trkpt><trkpt lat="47.815096" lon="-4.346666"><ele>11.19</ele><time>2011-05-29T04:42:48Z</time></trkpt><trkpt lat="47.815085" lon="-4.348035"><ele>9.27</ele><time>2011-05-29T04:42:59Z</time></trkpt><trkpt lat="47.816035" lon="-4.348370"><ele>10.23</ele><time>2011-05-29T04:43:08Z</time></trkpt><trkpt lat="47.816542" lon="-4.349124"><ele>9.27</ele><time>2011-05-29T04:43:20Z</time></trkpt><trkpt lat="47.816268" lon="-4.350582"><ele>14.08</ele><time>2011-05-29T04:43:28Z</time></trkpt><trkpt lat="47.815927" lon="-4.351920"><ele>13.60</ele><time>2011-05-29T04:43:34Z</time></trkpt><trkpt lat="47.815488" lon="-4.353196"><ele>11.19</ele><time>2011-05-29T04:43:41Z</time></trkpt><trkpt lat="47.815575" lon="-4.354368"><ele>9.75</ele><time>2011-05-29T04:43:54Z</time></trkpt><trkpt lat="47.816146" lon="-4.355534"><ele>13.12</ele><time>2011-05-29T04:44:01Z</time></trkpt><trkpt lat="47.816612" lon="-4.356713"><ele>12.15</ele><time>2011-05-29T04:44:07Z</time></trkpt><trkpt lat="47.817080" lon="-4.357757"><ele>7.35</ele><time>2011-05-29T04:44:17Z</time></trkpt><trkpt lat="47.817995" lon="-4.357752"><ele>10.23</ele><time>2011-05-29T04:44:57Z</time></trkpt><trkpt lat="47.818282" lon="-4.356749"><ele>6.39</ele><time>2011-05-29T04:45:12Z</time></trkpt><trkpt lat="47.818420" lon="-4.357763"><ele>7.35</ele><time>2011-05-29T04:45:51Z</time></trkpt><trkpt lat="47.819354" lon="-4.357816"><ele>9.27</ele><time>2011-05-29T04:46:01Z</time></trkpt><trkpt lat="47.819774" lon="-4.358662"><ele>6.87</ele><time>2011-05-29T04:46:37Z</time></trkpt><trkpt lat="47.819856" lon="-4.360055"><ele>8.31</ele><time>2011-05-29T04:46:50Z</time></trkpt><trkpt lat="47.820636" lon="-4.360319"><ele>10.23</ele><time>2011-05-29T04:47:06Z</time></trkpt><trkpt lat="47.821436" lon="-4.359766"><ele>8.31</ele><time>2011-05-29T04:47:34Z</time></trkpt><trkpt lat="47.821893" lon="-4.358585"><ele>8.79</ele><time>2011-05-29T04:48:16Z</time></trkpt><trkpt lat="47.822661" lon="-4.357672"><ele>11.19</ele><time>2011-05-29T04:48:25Z</time></trkpt><trkpt lat="47.823478" lon="-4.357760"><ele>7.35</ele><time>2011-05-29T04:48:37Z</time></trkpt><trkpt lat="47.823632" lon="-4.358562"><ele>7.35</ele><time>2011-05-29T04:49:29Z</time></trkpt><trkpt lat="47.823686" lon="-4.357649"><ele>8.31</ele><time>2011-05-29T04:49:59Z</time></trkpt><trkpt lat="47.824539" lon="-4.358235"><ele>11.19</ele><time>2011-05-29T04:50:09Z</time></trkpt><trkpt lat="47.824795" lon="-4.359699"><ele>12.15</ele><time>2011-05-29T04:50:17Z</time></trkpt><trkpt lat="47.825047" lon="-4.361126"><ele>13.12</ele><time>2011-05-29T04:50:24Z</time></trkpt><trkpt lat="47.825356" lon="-4.362237"><ele>6.39</ele><time>2011-05-29T04:50:48Z</time></trkpt><trkpt lat="47.826131" lon="-4.363011"><ele>10.71</ele><time>2011-05-29T04:51:12Z</time></trkpt><trkpt lat="47.826185" lon="-4.364342"><ele>10.23</ele><time>2011-05-29T04:51:21Z</time></trkpt><trkpt lat="47.825899" lon="-4.365693"><ele>9.27</ele><time>2011-05-29T04:52:21Z</time></trkpt><trkpt lat="47.825489" lon="-4.366904"><ele>13.60</ele><time>2011-05-29T04:52:30Z</time></trkpt><trkpt lat="47.824741" lon="-4.367752"><ele>9.75</ele><time>2011-05-29T04:52:39Z</time></trkpt><trkpt lat="47.824520" lon="-4.369094"><ele>13.12</ele><time>2011-05-29T04:53:10Z</time></trkpt><trkpt lat="47.824184" lon="-4.370530"><ele>16.48</ele><time>2011-05-29T04:53:18Z</time></trkpt><trkpt lat="47.823853" lon="-4.371843"><ele>13.60</ele><time>2011-05-29T04:53:57Z</time></trkpt><trkpt lat="47.823078" lon="-4.372679"><ele>14.56</ele><time>2011-05-29T04:54:08Z</time></trkpt><trkpt lat="47.822282" lon="-4.373353"><ele>11.19</ele><time>2011-05-29T04:54:39Z</time></trkpt><trkpt lat="47.823033" lon="-4.373716"><ele>10.71</ele><time>2011-05-29T04:54:57Z</time></trkpt><trkpt lat="47.822981" lon="-4.373535"><ele>11.67</ele><time>2011-05-29T04:55:50Z</time></trkpt><trkpt lat="47.822067" lon="-4.373485"><ele>12.63</ele><time>2011-05-29T04:56:04Z</time></trkpt><trkpt lat="47.821125" lon="-4.373613"><ele>10.71</ele><time>2011-05-29T04:56:15Z</time></trkpt><trkpt lat="47.820727" lon="-4.374617"><ele>8.79</ele><time>2011-05-29T04:56:56Z</time></trkpt><trkpt lat="47.819937" lon="-4.374018"><ele>7.35</ele><time>2011-05-29T04:57:15Z</time></trkpt><trkpt lat="47.820700" lon="-4.373495"><ele>11.19</ele><time>2011-05-29T04:57:27Z</time></trkpt><trkpt lat="47.821650" lon="-4.373597"><ele>14.08</ele><time>2011-05-29T04:57:36Z</time></trkpt><trkpt lat="47.822233" lon="-4.373976"><ele>12.15</ele><time>2011-05-29T04:57:49Z</time></trkpt><trkpt lat="47.821879" lon="-4.375209"><ele>14.08</ele><time>2011-05-29T04:57:59Z</time></trkpt><trkpt lat="47.821208" lon="-4.376162"><ele>10.23</ele><time>2011-05-29T04:58:10Z</time></trkpt><trkpt lat="47.820452" lon="-4.377049"><ele>13.12</ele><time>2011-05-29T04:58:44Z</time></trkpt><trkpt lat="47.819684" lon="-4.377805"><ele>9.27</ele><time>2011-05-29T04:58:54Z</time></trkpt><trkpt lat="47.820011" lon="-4.378855"><ele>10.23</ele><time>2011-05-29T04:59:36Z</time></trkpt><trkpt lat="47.819570" lon="-4.379978"><ele>11.19</ele><time>2011-05-29T05:00:19Z</time></trkpt><trkpt lat="47.818640" lon="-4.380198"><ele>11.19</ele><time>2011-05-29T05:00:29Z</time></trkpt><trkpt lat="47.817854" lon="-4.380235"><ele>5.42</ele><time>2011-05-29T05:01:35Z</time></trkpt><trkpt lat="47.817882" lon="-4.380240"><ele>5.91</ele><time>2011-05-29T05:02:07Z</time></trkpt><trkpt lat="47.818826" lon="-4.380212"><ele>10.23</ele><time>2011-05-29T05:02:17Z</time></trkpt><trkpt lat="47.819655" lon="-4.379760"><ele>8.79</ele><time>2011-05-29T05:02:27Z</time></trkpt><trkpt lat="47.819515" lon="-4.380079"><ele>10.23</ele><time>2011-05-29T05:02:47Z</time></trkpt><trkpt lat="47.818558" lon="-4.380226"><ele>10.23</ele><time>2011-05-29T05:02:56Z</time></trkpt><trkpt lat="47.817639" lon="-4.380059"><ele>4.46</ele><time>2011-05-29T05:03:07Z</time></trkpt><trkpt lat="47.818028" lon="-4.378820"><ele>3.98</ele><time>2011-05-29T05:03:52Z</time></trkpt><trkpt lat="47.817590" lon="-4.377637"><ele>2.54</ele><time>2011-05-29T05:04:04Z</time></trkpt><trkpt lat="47.818076" lon="-4.377530"><ele>4.94</ele><time>2011-05-29T05:04:21Z</time></trkpt><trkpt lat="47.818691" lon="-4.377289"><ele>3.98</ele><time>2011-05-29T05:05:14Z</time></trkpt><trkpt lat="47.819243" lon="-4.376153"><ele>5.91</ele><time>2011-05-29T05:05:23Z</time></trkpt><trkpt lat="47.819730" lon="-4.375006"><ele>6.39</ele><time>2011-05-29T05:06:11Z</time></trkpt><trkpt lat="47.820084" lon="-4.373739"><ele>7.35</ele><time>2011-05-29T05:06:22Z</time></trkpt><trkpt lat="47.820212" lon="-4.372734"><ele>6.39</ele><time>2011-05-29T05:06:54Z</time></trkpt><trkpt lat="47.820290" lon="-4.371401"><ele>5.42</ele><time>2011-05-29T05:07:07Z</time></trkpt><trkpt lat="47.820504" lon="-4.370077"><ele>5.91</ele><time>2011-05-29T05:07:46Z</time></trkpt><trkpt lat="47.821189" lon="-4.369805"><ele>9.27</ele><time>2011-05-29T05:08:17Z</time></trkpt><trkpt lat="47.822106" lon="-4.369839"><ele>6.87</ele><time>2011-05-29T05:08:27Z</time></trkpt><trkpt lat="47.821398" lon="-4.369885"><ele>7.35</ele><time>2011-05-29T05:08:56Z</time></trkpt><trkpt lat="47.820515" lon="-4.369578"><ele>8.31</ele><time>2011-05-29T05:09:06Z</time></trkpt><trkpt lat="47.819669" lon="-4.369179"><ele>5.42</ele><time>2011-05-29T05:09:20Z</time></trkpt><trkpt lat="47.819836" lon="-4.367843"><ele>7.83</ele><time>2011-05-29T05:09:31Z</time></trkpt><trkpt lat="47.820234" lon="-4.366591"><ele>8.31</ele><time>2011-05-29T05:09:39Z</time></trkpt><trkpt lat="47.820962" lon="-4.365971"><ele>6.87</ele><time>2011-05-29T05:10:07Z</time></trkpt><trkpt lat="47.820859" lon="-4.365984"><ele>7.83</ele><time>2011-05-29T05:11:09Z</time></trkpt><trkpt lat="47.820472" lon="-4.365181"><ele>8.31</ele><time>2011-05-29T05:11:24Z</time></trkpt><trkpt lat="47.820588" lon="-4.363765"><ele>11.67</ele><time>2011-05-29T05:11:31Z</time></trkpt><trkpt lat="47.820619" lon="-4.362407"><ele>13.12</ele><time>2011-05-29T05:11:37Z</time></trkpt><trkpt lat="47.820670" lon="-4.360931"><ele>9.75</ele><time>2011-05-29T05:11:44Z</time></trkpt><trkpt lat="47.820198" lon="-4.360381"><ele>8.79</ele><time>2011-05-29T05:11:57Z</time></trkpt><trkpt lat="47.819258" lon="-4.360538"><ele>8.79</ele><time>2011-05-29T05:12:05Z</time></trkpt><trkpt lat="47.818335" lon="-4.360707"><ele>7.35</ele><time>2011-05-29T05:12:36Z</time></trkpt><trkpt lat="47.818249" lon="-4.361672"><ele>4.46</ele><time>2011-05-29T05:12:58Z</time></trkpt><trkpt lat="47.817897" lon="-4.361567"><ele>5.91</ele><time>2011-05-29T05:13:28Z</time></trkpt><trkpt lat="47.818209" lon="-4.362858"><ele>6.39</ele><time>2011-05-29T05:13:37Z</time></trkpt><trkpt lat="47.818390" lon="-4.364280"><ele>7.83</ele><time>2011-05-29T05:13:47Z</time></trkpt><trkpt lat="47.818123" lon="-4.365604"><ele>4.94</ele><time>2011-05-29T05:14:26Z</time></trkpt><trkpt lat="47.817808" lon="-4.366912"><ele>5.42</ele><time>2011-05-29T05:14:36Z</time></trkpt><trkpt lat="47.817501" lon="-4.368201"><ele>7.83</ele><time>2011-05-29T05:14:49Z</time></trkpt><trkpt lat="47.817105" lon="-4.369443"><ele>6.39</ele><time>2011-05-29T05:15:30Z</time></trkpt><trkpt lat="47.816479" lon="-4.370534"><ele>7.35</ele><time>2011-05-29T05:15:39Z</time></trkpt><trkpt lat="47.816210" lon="-4.371825"><ele>3.02</ele><time>2011-05-29T05:16:18Z</time></trkpt><trkpt lat="47.815972" lon="-4.373133"><ele>1.58</ele><time>2011-05-29T05:17:28Z</time></trkpt><trkpt lat="47.815247" lon="-4.372390"><ele>2.54</ele><time>2011-05-29T05:18:10Z</time></trkpt><trkpt lat="47.815229" lon="-4.371172"><ele>1.10</ele><time>2011-05-29T05:18:24Z</time></trkpt><trkpt lat="47.815162" lon="-4.370351"><ele>1.58</ele><time>2011-05-29T05:19:18Z</time></trkpt><trkpt lat="47.815661" lon="-4.369668"><ele>3.98</ele><time>2011-05-29T05:19:45Z</time></trkpt><trkpt lat="47.815757" lon="-4.368548"><ele>3.02</ele><time>2011-05-29T05:20:20Z</time></trkpt><trkpt lat="47.815666" lon="-4.367393"><ele>6.39</ele><time>2011-05-29T05:20:38Z</time></trkpt><trkpt lat="47.815664" lon="-4.366038"><ele>5.42</ele><time>2011-05-29T05:20:45Z</time></trkpt><trkpt lat="47.816227" lon="-4.365906"><ele>4.94</ele><time>2011-05-29T05:20:58Z</time></trkpt><trkpt lat="47.816736" lon="-4.367110"><ele>6.39</ele><time>2011-05-29T05:21:08Z</time></trkpt><trkpt lat="47.817418" lon="-4.367995"><ele>4.46</ele><time>2011-05-29T05:21:18Z</time></trkpt><trkpt lat="47.817438" lon="-4.369142"><ele>7.35</ele><time>2011-05-29T05:21:37Z</time></trkpt><trkpt lat="47.817612" lon="-4.369159"><ele>4.46</ele><time>2011-05-29T05:22:29Z</time></trkpt><trkpt lat="47.817933" lon="-4.370420"><ele>7.35</ele><time>2011-05-29T05:23:03Z</time></trkpt><trkpt lat="47.818616" lon="-4.371191"><ele>5.91</ele><time>2011-05-29T05:23:13Z</time></trkpt><trkpt lat="47.819342" lon="-4.371930"><ele>3.98</ele><time>2011-05-29T05:23:32Z</time></trkpt><trkpt lat="47.818668" lon="-4.371229"><ele>5.91</ele><time>2011-05-29T05:23:59Z</time></trkpt><trkpt lat="47.817941" lon="-4.371738"><ele>5.91</ele><time>2011-05-29T05:24:12Z</time></trkpt><trkpt lat="47.817202" lon="-4.372581"><ele>6.39</ele><time>2011-05-29T05:24:20Z</time></trkpt><trkpt lat="47.816595" lon="-4.373738"><ele>4.46</ele><time>2011-05-29T05:24:35Z</time></trkpt><trkpt lat="47.815967" lon="-4.374052"><ele>3.98</ele><time>2011-05-29T05:24:52Z</time></trkpt><trkpt lat="47.815163" lon="-4.373158"><ele>5.91</ele><time>2011-05-29T05:25:01Z</time></trkpt><trkpt lat="47.814285" lon="-4.372760"><ele>4.46</ele><time>2011-05-29T05:25:11Z</time></trkpt><trkpt lat="47.813386" lon="-4.372410"><ele>3.98</ele><time>2011-05-29T05:25:20Z</time></trkpt><trkpt lat="47.813515" lon="-4.371221"><ele>0.14</ele><time>2011-05-29T05:25:34Z</time></trkpt><trkpt lat="47.812866" lon="-4.370276"><ele>3.98</ele><time>2011-05-29T05:25:46Z</time></trkpt><trkpt lat="47.812255" lon="-4.370288"><ele>1.58</ele><time>2011-05-29T05:25:59Z</time></trkpt><trkpt lat="47.812928" lon="-4.371057"><ele>1.58</ele><time>2011-05-29T05:26:24Z</time></trkpt><trkpt lat="47.812511" lon="-4.372061"><ele>2.54</ele><time>2011-05-29T05:26:41Z</time></trkpt><trkpt lat="47.811776" lon="-4.372144"><ele>3.02</ele><time>2011-05-29T05:27:02Z</time></trkpt><trkpt lat="47.811429" lon="-4.371615"><ele>4.46</ele><time>2011-05-29T05:27:39Z</time></trkpt><trkpt lat="47.810474" lon="-4.371272"><ele>6.87</ele><time>2011-05-29T05:27:48Z</time></trkpt><trkpt lat="47.809505" lon="-4.370859"><ele>8.79</ele><time>2011-05-29T05:27:57Z</time></trkpt><trkpt lat="47.808579" lon="-4.370885"><ele>12.15</ele><time>2011-05-29T05:28:04Z</time></trkpt><trkpt lat="47.807679" lon="-4.371466"><ele>5.91</ele><time>2011-05-29T05:28:12Z</time></trkpt><trkpt lat="47.807706" lon="-4.370288"><ele>1.58</ele><time>2011-05-29T05:28:34Z</time></trkpt><trkpt lat="47.807612" lon="-4.371135"><ele>1.58</ele><time>2011-05-29T05:29:40Z</time></trkpt><trkpt lat="47.806960" lon="-4.371944"><ele>7.35</ele><time>2011-05-29T05:29:58Z</time></trkpt><trkpt lat="47.806035" lon="-4.372413"><ele>6.39</ele><time>2011-05-29T05:30:06Z</time></trkpt><trkpt lat="47.805287" lon="-4.372327"><ele>2.54</ele><time>2011-05-29T05:30:20Z</time></trkpt><trkpt lat="47.804896" lon="-4.371019"><ele>4.46</ele><time>2011-05-29T05:31:32Z</time></trkpt><trkpt lat="47.804453" lon="-4.369734"><ele>4.46</ele><time>2011-05-29T05:31:40Z</time></trkpt><trkpt lat="47.804113" lon="-4.368473"><ele>1.58</ele><time>2011-05-29T05:31:50Z</time></trkpt><trkpt lat="47.803723" lon="-4.367480"><ele>3.50</ele><time>2011-05-29T05:32:36Z</time></trkpt><trkpt lat="47.802742" lon="-4.367287"><ele>5.42</ele><time>2011-05-29T05:32:47Z</time></trkpt><trkpt lat="47.802265" lon="-4.367970"><ele>5.42</ele><time>2011-05-29T05:33:02Z</time></trkpt><trkpt lat="47.802299" lon="-4.369324"><ele>2.06</ele><time>2011-05-29T05:33:34Z</time></trkpt><trkpt lat="47.802329" lon="-4.370688"><ele>3.98</ele><time>2011-05-29T05:33:50Z</time></trkpt><trkpt lat="47.802794" lon="-4.371944"><ele>4.94</ele><time>2011-05-29T05:33:59Z</time></trkpt><trkpt lat="47.803305" lon="-4.373163"><ele>3.02</ele><time>2011-05-29T05:34:08Z</time></trkpt><trkpt lat="47.804148" lon="-4.373511"><ele>4.94</ele><time>2011-05-29T05:34:21Z</time></trkpt><trkpt lat="47.805049" lon="-4.373088"><ele>3.98</ele><time>2011-05-29T05:34:29Z</time></trkpt><trkpt lat="47.805193" lon="-4.371867"><ele>5.91</ele><time>2011-05-29T05:34:40Z</time></trkpt><trkpt lat="47.804741" lon="-4.370531"><ele>7.83</ele><time>2011-05-29T05:34:47Z</time></trkpt><trkpt lat="47.804266" lon="-4.369144"><ele>6.39</ele><time>2011-05-29T05:34:54Z</time></trkpt><trkpt lat="47.804123" lon="-4.367775"><ele>3.02</ele><time>2011-05-29T05:35:03Z</time></trkpt><trkpt lat="47.804157" lon="-4.366368"><ele>7.35</ele><time>2011-05-29T05:35:12Z</time></trkpt><trkpt lat="47.804000" lon="-4.364845"><ele>9.75</ele><time>2011-05-29T05:35:19Z</time></trkpt><trkpt lat="47.804170" lon="-4.363541"><ele>7.83</ele><time>2011-05-29T05:35:25Z</time></trkpt><trkpt lat="47.804781" lon="-4.362352"><ele>6.87</ele><time>2011-05-29T05:35:32Z</time></trkpt><trkpt lat="47.805566" lon="-4.361370"><ele>7.35</ele><time>2011-05-29T05:35:39Z</time></trkpt><trkpt lat="47.806248" lon="-4.360495"><ele>8.31</ele><time>2011-05-29T05:35:45Z</time></trkpt><trkpt lat="47.806839" lon="-4.359391"><ele>3.02</ele><time>2011-05-29T05:35:53Z</time></trkpt><trkpt lat="47.807721" lon="-4.359483"><ele>3.98</ele><time>2011-05-29T05:36:08Z</time></trkpt><trkpt lat="47.808618" lon="-4.359928"><ele>5.42</ele><time>2011-05-29T05:36:20Z</time></trkpt><trkpt lat="47.809501" lon="-4.360026"><ele>4.94</ele><time>2011-05-29T05:36:55Z</time></trkpt><trkpt lat="47.810484" lon="-4.359883"><ele>3.50</ele><time>2011-05-29T05:37:05Z</time></trkpt><trkpt lat="47.810578" lon="-4.360981"><ele>2.06</ele><time>2011-05-29T05:37:23Z</time></trkpt><trkpt lat="47.810495" lon="-4.359898"><ele>3.02</ele><time>2011-05-29T05:38:09Z</time></trkpt><trkpt lat="47.809541" lon="-4.360040"><ele>5.91</ele><time>2011-05-29T05:38:19Z</time></trkpt><trkpt lat="47.808851" lon="-4.360055"><ele>3.02</ele><time>2011-05-29T05:38:39Z</time></trkpt><trkpt lat="47.809749" lon="-4.359936"><ele>5.91</ele><time>2011-05-29T05:38:49Z</time></trkpt><trkpt lat="47.810709" lon="-4.359922"><ele>2.06</ele><time>2011-05-29T05:38:58Z</time></trkpt><trkpt lat="47.810866" lon="-4.359578"><ele>2.06</ele><time>2011-05-29T05:39:52Z</time></trkpt><trkpt lat="47.811483" lon="-4.360277"><ele>1.10</ele><time>2011-05-29T05:40:11Z</time></trkpt><trkpt lat="47.811986" lon="-4.361227"><ele>2.06</ele><time>2011-05-29T05:40:35Z</time></trkpt><trkpt lat="47.812054" lon="-4.362536"><ele>1.58</ele><time>2011-05-29T05:41:12Z</time></trkpt><trkpt lat="47.811508" lon="-4.363595"><ele>0.62</ele><time>2011-05-29T05:41:24Z</time></trkpt><trkpt lat="47.812010" lon="-4.362649"><ele>2.06</ele><time>2011-05-29T05:42:20Z</time></trkpt><trkpt lat="47.811999" lon="-4.361314"><ele>2.06</ele><time>2011-05-29T05:42:30Z</time></trkpt><trkpt lat="47.811546" lon="-4.360316"><ele>2.54</ele><time>2011-05-29T05:42:44Z</time></trkpt><trkpt lat="47.810631" lon="-4.359928"><ele>5.91</ele><time>2011-05-29T05:42:52Z</time></trkpt><trkpt lat="47.809677" lon="-4.359993"><ele>4.94</ele><time>2011-05-29T05:43:00Z</time></trkpt><trkpt lat="47.809423" lon="-4.359804"><ele>3.98</ele><time>2011-05-29T05:44:03Z</time></trkpt><trkpt lat="47.810232" lon="-4.359732"><ele>2.54</ele><time>2011-05-29T05:44:17Z</time></trkpt><trkpt lat="47.810235" lon="-4.358345"><ele>7.35</ele><time>2011-05-29T05:44:26Z</time></trkpt><trkpt lat="47.810229" lon="-4.356833"><ele>8.31</ele><time>2011-05-29T05:44:34Z</time></trkpt><trkpt lat="47.810509" lon="-4.355439"><ele>9.75</ele><time>2011-05-29T05:44:41Z</time></trkpt><trkpt lat="47.811124" lon="-4.354193"><ele>10.23</ele><time>2011-05-29T05:44:48Z</time></trkpt><trkpt lat="47.811742" lon="-4.353100"><ele>5.42</ele><time>2011-05-29T05:44:56Z</time></trkpt><trkpt lat="47.811331" lon="-4.351845"><ele>9.75</ele><time>2011-05-29T05:45:06Z</time></trkpt><trkpt lat="47.811164" lon="-4.350413"><ele>10.23</ele><time>2011-05-29T05:45:14Z</time></trkpt><trkpt lat="47.811544" lon="-4.349660"><ele>6.39</ele><time>2011-05-29T05:45:26Z</time></trkpt><trkpt lat="47.812434" lon="-4.350221"><ele>6.87</ele><time>2011-05-29T05:46:07Z</time></trkpt><trkpt lat="47.813306" lon="-4.350925"><ele>6.87</ele><time>2011-05-29T05:46:36Z</time></trkpt><trkpt lat="47.814142" lon="-4.351092"><ele>6.39</ele><time>2011-05-29T05:46:46Z</time></trkpt><trkpt lat="47.814740" lon="-4.351815"><ele>7.83</ele><time>2011-05-29T05:47:02Z</time></trkpt><trkpt lat="47.815110" lon="-4.353229"><ele>11.67</ele><time>2011-05-29T05:47:09Z</time></trkpt><trkpt lat="47.815670" lon="-4.354549"><ele>12.15</ele><time>2011-05-29T05:47:15Z</time></trkpt><trkpt lat="47.816212" lon="-4.355657"><ele>11.67</ele><time>2011-05-29T05:47:20Z</time></trkpt><trkpt lat="47.816695" lon="-4.356968"><ele>10.23</ele><time>2011-05-29T05:47:26Z</time></trkpt><trkpt lat="47.817290" lon="-4.357746"><ele>6.39</ele><time>2011-05-29T05:47:36Z</time></trkpt><trkpt lat="47.818320" lon="-4.357770"><ele>9.75</ele><time>2011-05-29T05:47:44Z</time></trkpt><trkpt lat="47.819351" lon="-4.357812"><ele>13.12</ele><time>2011-05-29T05:47:50Z</time></trkpt><trkpt lat="47.820253" lon="-4.357917"><ele>12.63</ele><time>2011-05-29T05:47:55Z</time></trkpt><trkpt lat="47.821227" lon="-4.358057"><ele>9.75</ele><time>2011-05-29T05:48:01Z</time></trkpt><trkpt lat="47.822087" lon="-4.358246"><ele>5.91</ele><time>2011-05-29T05:48:10Z</time></trkpt><trkpt lat="47.822918" lon="-4.357552"><ele>6.39</ele><time>2011-05-29T05:48:19Z</time></trkpt><trkpt lat="47.823317" lon="-4.356386"><ele>8.79</ele><time>2011-05-29T05:48:29Z</time></trkpt><trkpt lat="47.823492" lon="-4.355038"><ele>11.67</ele><time>2011-05-29T05:48:35Z</time></trkpt><trkpt lat="47.823693" lon="-4.353495"><ele>13.12</ele><time>2011-05-29T05:48:41Z</time></trkpt><trkpt lat="47.823876" lon="-4.352122"><ele>13.12</ele><time>2011-05-29T05:48:46Z</time></trkpt><trkpt lat="47.824051" lon="-4.350773"><ele>12.63</ele><time>2011-05-29T05:48:51Z</time></trkpt><trkpt lat="47.824223" lon="-4.349433"><ele>14.08</ele><time>2011-05-29T05:48:56Z</time></trkpt><trkpt lat="47.824419" lon="-4.347975"><ele>10.23</ele><time>2011-05-29T05:49:02Z</time></trkpt><trkpt lat="47.824827" lon="-4.347067"><ele>5.91</ele><time>2011-05-29T05:49:15Z</time></trkpt><trkpt lat="47.825794" lon="-4.346705"><ele>9.75</ele><time>2011-05-29T05:49:23Z</time></trkpt><trkpt lat="47.826746" lon="-4.346328"><ele>12.15</ele><time>2011-05-29T05:49:29Z</time></trkpt><trkpt lat="47.827625" lon="-4.345991"><ele>13.60</ele><time>2011-05-29T05:49:34Z</time></trkpt><trkpt lat="47.828528" lon="-4.345632"><ele>15.04</ele><time>2011-05-29T05:49:39Z</time></trkpt><trkpt lat="47.829465" lon="-4.345250"><ele>15.52</ele><time>2011-05-29T05:49:44Z</time></trkpt><trkpt lat="47.830426" lon="-4.344875"><ele>16.96</ele><time>2011-05-29T05:49:49Z</time></trkpt><trkpt lat="47.831397" lon="-4.344486"><ele>16.96</ele><time>2011-05-29T05:49:54Z</time></trkpt><trkpt lat="47.832371" lon="-4.344106"><ele>15.52</ele><time>2011-05-29T05:49:59Z</time></trkpt><trkpt lat="47.833318" lon="-4.343717"><ele>15.04</ele><time>2011-05-29T05:50:04Z</time></trkpt><trkpt lat="47.834236" lon="-4.343308"><ele>16.00</ele><time>2011-05-29T05:50:09Z</time></trkpt><trkpt lat="47.835119" lon="-4.342916"><ele>15.52</ele><time>2011-05-29T05:50:14Z</time></trkpt><trkpt lat="47.836078" lon="-4.342488"><ele>13.60</ele><time>2011-05-29T05:50:20Z</time></trkpt><trkpt lat="47.836746" lon="-4.341882"><ele>8.79</ele><time>2011-05-29T05:50:31Z</time></trkpt><trkpt lat="47.836739" lon="-4.341014"><ele>7.83</ele><time>2011-05-29T05:50:50Z</time></trkpt><trkpt lat="47.836757" lon="-4.342030"><ele>9.27</ele><time>2011-05-29T05:51:32Z</time></trkpt><trkpt lat="47.837425" lon="-4.342275"><ele>9.27</ele><time>2011-05-29T05:51:52Z</time></trkpt><trkpt lat="47.837391" lon="-4.343787"><ele>10.23</ele><time>2011-05-29T05:52:01Z</time></trkpt><trkpt lat="47.837309" lon="-4.345132"><ele>3.98</ele><time>2011-05-29T05:52:11Z</time></trkpt><trkpt lat="47.837050" lon="-4.346255"><ele>3.50</ele><time>2011-05-29T05:54:10Z</time></trkpt><trkpt lat="47.837312" lon="-4.345078"><ele>3.98</ele><time>2011-05-29T05:54:26Z</time></trkpt><trkpt lat="47.837367" lon="-4.343578"><ele>7.83</ele><time>2011-05-29T05:54:36Z</time></trkpt><trkpt lat="47.837385" lon="-4.342078"><ele>11.67</ele><time>2011-05-29T05:54:44Z</time></trkpt><trkpt lat="47.837395" lon="-4.340699"><ele>16.00</ele><time>2011-05-29T05:54:50Z</time></trkpt><trkpt lat="47.837404" lon="-4.339156"><ele>18.88</ele><time>2011-05-29T05:54:56Z</time></trkpt><trkpt lat="47.837426" lon="-4.337803"><ele>22.25</ele><time>2011-05-29T05:55:01Z</time></trkpt><trkpt lat="47.837455" lon="-4.336369"><ele>21.77</ele><time>2011-05-29T05:55:06Z</time></trkpt><trkpt lat="47.837479" lon="-4.334911"><ele>23.69</ele><time>2011-05-29T05:55:11Z</time></trkpt><trkpt lat="47.837501" lon="-4.333441"><ele>24.17</ele><time>2011-05-29T05:55:16Z</time></trkpt><trkpt lat="47.837533" lon="-4.332017"><ele>24.65</ele><time>2011-05-29T05:55:21Z</time></trkpt><trkpt lat="47.837468" lon="-4.330524"><ele>22.25</ele><time>2011-05-29T05:55:27Z</time></trkpt><trkpt lat="47.837742" lon="-4.329478"><ele>18.40</ele><time>2011-05-29T05:55:39Z</time></trkpt><trkpt lat="47.838585" lon="-4.328600"><ele>21.77</ele><time>2011-05-29T05:55:47Z</time></trkpt><trkpt lat="47.839397" lon="-4.327735"><ele>24.65</ele><time>2011-05-29T05:55:53Z</time></trkpt><trkpt lat="47.840201" lon="-4.326867"><ele>23.21</ele><time>2011-05-29T05:55:59Z</time></trkpt><trkpt lat="47.840962" lon="-4.326146"><ele>18.40</ele><time>2011-05-29T05:56:09Z</time></trkpt><trkpt lat="47.841933" lon="-4.326423"><ele>22.73</ele><time>2011-05-29T05:56:45Z</time></trkpt><trkpt lat="47.842727" lon="-4.326605"><ele>20.32</ele><time>2011-05-29T05:57:30Z</time></trkpt><trkpt lat="47.843734" lon="-4.326798"><ele>23.21</ele><time>2011-05-29T05:57:41Z</time></trkpt><trkpt lat="47.844727" lon="-4.326993"><ele>27.05</ele><time>2011-05-29T05:57:48Z</time></trkpt><trkpt lat="47.845640" lon="-4.327168"><ele>28.98</ele><time>2011-05-29T05:57:54Z</time></trkpt><trkpt lat="47.846561" lon="-4.327414"><ele>28.98</ele><time>2011-05-29T05:58:00Z</time></trkpt><trkpt lat="47.847529" lon="-4.327508"><ele>28.98</ele><time>2011-05-29T05:58:06Z</time></trkpt><trkpt lat="47.848510" lon="-4.327465"><ele>28.50</ele><time>2011-05-29T05:58:12Z</time></trkpt><trkpt lat="47.849517" lon="-4.327346"><ele>27.05</ele><time>2011-05-29T05:58:18Z</time></trkpt><trkpt lat="47.850477" lon="-4.327351"><ele>25.61</ele><time>2011-05-29T05:58:24Z</time></trkpt><trkpt lat="47.851441" lon="-4.327403"><ele>19.36</ele><time>2011-05-29T05:58:31Z</time></trkpt><trkpt lat="47.851720" lon="-4.326139"><ele>20.81</ele><time>2011-05-29T05:58:43Z</time></trkpt><trkpt lat="47.851669" lon="-4.324701"><ele>24.17</ele><time>2011-05-29T05:58:50Z</time></trkpt><trkpt lat="47.851526" lon="-4.323216"><ele>25.13</ele><time>2011-05-29T05:58:57Z</time></trkpt><trkpt lat="47.851463" lon="-4.321803"><ele>26.09</ele><time>2011-05-29T05:59:04Z</time></trkpt><trkpt lat="47.851645" lon="-4.320496"><ele>27.05</ele><time>2011-05-29T05:59:11Z</time></trkpt><trkpt lat="47.851694" lon="-4.319108"><ele>29.46</ele><time>2011-05-29T05:59:18Z</time></trkpt><trkpt lat="47.851561" lon="-4.317713"><ele>29.94</ele><time>2011-05-29T05:59:24Z</time></trkpt><trkpt lat="47.851415" lon="-4.316302"><ele>31.86</ele><time>2011-05-29T05:59:30Z</time></trkpt><trkpt lat="47.851253" lon="-4.314951"><ele>32.34</ele><time>2011-05-29T05:59:36Z</time></trkpt><trkpt lat="47.851009" lon="-4.313526"><ele>29.46</ele><time>2011-05-29T05:59:44Z</time></trkpt><trkpt lat="47.850762" lon="-4.312169"><ele>29.94</ele><time>2011-05-29T06:00:19Z</time></trkpt><trkpt lat="47.850351" lon="-4.310827"><ele>34.74</ele><time>2011-05-29T06:00:28Z</time></trkpt><trkpt lat="47.849719" lon="-4.309706"><ele>34.26</ele><time>2011-05-29T06:00:37Z</time></trkpt><trkpt lat="47.848917" lon="-4.309899"><ele>35.23</ele><time>2011-05-29T06:00:47Z</time></trkpt><trkpt lat="47.848001" lon="-4.309929"><ele>36.19</ele><time>2011-05-29T06:00:57Z</time></trkpt><trkpt lat="47.847028" lon="-4.309537"><ele>38.59</ele><time>2011-05-29T06:01:04Z</time></trkpt><trkpt lat="47.846047" lon="-4.309121"><ele>37.15</ele><time>2011-05-29T06:01:11Z</time></trkpt><trkpt lat="47.845321" lon="-4.308321"><ele>32.82</ele><time>2011-05-29T06:01:19Z</time></trkpt><trkpt lat="47.845113" lon="-4.306974"><ele>30.90</ele><time>2011-05-29T06:01:26Z</time></trkpt><trkpt lat="47.844503" lon="-4.306007"><ele>30.42</ele><time>2011-05-29T06:01:33Z</time></trkpt><trkpt lat="47.843720" lon="-4.305110"><ele>29.94</ele><time>2011-05-29T06:01:40Z</time></trkpt><trkpt lat="47.843275" lon="-4.303708"><ele>28.02</ele><time>2011-05-29T06:01:47Z</time></trkpt><trkpt lat="47.842659" lon="-4.302504"><ele>28.02</ele><time>2011-05-29T06:01:54Z</time></trkpt><trkpt lat="47.841773" lon="-4.301780"><ele>32.82</ele><time>2011-05-29T06:02:01Z</time></trkpt><trkpt lat="47.840961" lon="-4.301068"><ele>28.50</ele><time>2011-05-29T06:02:08Z</time></trkpt><trkpt lat="47.841130" lon="-4.299956"><ele>28.50</ele><time>2011-05-29T06:02:22Z</time></trkpt><trkpt lat="47.841317" lon="-4.298743"><ele>26.57</ele><time>2011-05-29T06:02:39Z</time></trkpt><trkpt lat="47.841136" lon="-4.300023"><ele>28.50</ele><time>2011-05-29T06:03:08Z</time></trkpt><trkpt lat="47.841013" lon="-4.301137"><ele>26.09</ele><time>2011-05-29T06:03:25Z</time></trkpt><trkpt lat="47.841863" lon="-4.301891"><ele>30.42</ele><time>2011-05-29T06:03:34Z</time></trkpt><trkpt lat="47.842667" lon="-4.302536"><ele>28.02</ele><time>2011-05-29T06:03:41Z</time></trkpt><trkpt lat="47.843232" lon="-4.303631"><ele>21.29</ele><time>2011-05-29T06:03:49Z</time></trkpt><trkpt lat="47.843584" lon="-4.304606"><ele>22.73</ele><time>2011-05-29T06:04:38Z</time></trkpt><trkpt lat="47.844182" lon="-4.305640"><ele>28.50</ele><time>2011-05-29T06:05:06Z</time></trkpt><trkpt lat="47.844998" lon="-4.306506"><ele>28.98</ele><time>2011-05-29T06:05:14Z</time></trkpt><trkpt lat="47.845269" lon="-4.307969"><ele>32.34</ele><time>2011-05-29T06:05:22Z</time></trkpt><trkpt lat="47.845869" lon="-4.309056"><ele>34.74</ele><time>2011-05-29T06:05:30Z</time></trkpt><trkpt lat="47.846845" lon="-4.309453"><ele>36.67</ele><time>2011-05-29T06:05:37Z</time></trkpt><trkpt lat="47.847775" lon="-4.309844"><ele>36.67</ele><time>2011-05-29T06:05:43Z</time></trkpt><trkpt lat="47.848714" lon="-4.310121"><ele>30.90</ele><time>2011-05-29T06:05:51Z</time></trkpt><trkpt lat="47.849497" lon="-4.309402"><ele>32.82</ele><time>2011-05-29T06:06:04Z</time></trkpt><trkpt lat="47.849665" lon="-4.307977"><ele>35.71</ele><time>2011-05-29T06:06:13Z</time></trkpt><trkpt lat="47.849770" lon="-4.306501"><ele>34.26</ele><time>2011-05-29T06:06:20Z</time></trkpt><trkpt lat="47.849858" lon="-4.305187"><ele>30.42</ele><time>2011-05-29T06:06:54Z</time></trkpt><trkpt lat="47.849883" lon="-4.303707"><ele>30.90</ele><time>2011-05-29T06:07:03Z</time></trkpt><trkpt lat="47.850080" lon="-4.302399"><ele>28.50</ele><time>2011-05-29T06:07:13Z</time></trkpt><trkpt lat="47.849634" lon="-4.301617"><ele>29.94</ele><time>2011-05-29T06:07:51Z</time></trkpt><trkpt lat="47.848982" lon="-4.300986"><ele>28.50</ele><time>2011-05-29T06:08:08Z</time></trkpt><trkpt lat="47.848814" lon="-4.301629"><ele>27.05</ele><time>2011-05-29T06:08:51Z</time></trkpt><trkpt lat="47.849211" lon="-4.300949"><ele>28.02</ele><time>2011-05-29T06:09:13Z</time></trkpt><trkpt lat="47.849857" lon="-4.302013"><ele>30.42</ele><time>2011-05-29T06:09:24Z</time></trkpt><trkpt lat="47.850268" lon="-4.301260"><ele>32.34</ele><time>2011-05-29T06:09:37Z</time></trkpt><trkpt lat="47.850487" lon="-4.299918"><ele>34.26</ele><time>2011-05-29T06:09:44Z</time></trkpt><trkpt lat="47.850726" lon="-4.298443"><ele>35.23</ele><time>2011-05-29T06:09:51Z</time></trkpt><trkpt lat="47.851026" lon="-4.296935"><ele>35.23</ele><time>2011-05-29T06:09:58Z</time></trkpt><trkpt lat="47.851430" lon="-4.295602"><ele>35.71</ele><time>2011-05-29T06:10:04Z</time></trkpt><trkpt lat="47.851730" lon="-4.294296"><ele>33.78</ele><time>2011-05-29T06:10:10Z</time></trkpt><trkpt lat="47.851313" lon="-4.292986"><ele>35.71</ele><time>2011-05-29T06:10:17Z</time></trkpt><trkpt lat="47.850661" lon="-4.291763"><ele>36.67</ele><time>2011-05-29T06:10:24Z</time></trkpt><trkpt lat="47.850208" lon="-4.290566"><ele>37.63</ele><time>2011-05-29T06:10:30Z</time></trkpt><trkpt lat="47.849872" lon="-4.289178"><ele>38.11</ele><time>2011-05-29T06:10:37Z</time></trkpt><trkpt lat="47.849427" lon="-4.287973"><ele>36.19</ele><time>2011-05-29T06:10:44Z</time></trkpt><trkpt lat="47.848781" lon="-4.286932"><ele>35.71</ele><time>2011-05-29T06:11:04Z</time></trkpt><trkpt lat="47.848683" lon="-4.285619"><ele>34.74</ele><time>2011-05-29T06:11:14Z</time></trkpt><trkpt lat="47.848800" lon="-4.284422"><ele>32.34</ele><time>2011-05-29T06:11:26Z</time></trkpt><trkpt lat="47.847901" lon="-4.283878"><ele>37.15</ele><time>2011-05-29T06:11:35Z</time></trkpt><trkpt lat="47.847011" lon="-4.283071"><ele>37.63</ele><time>2011-05-29T06:11:42Z</time></trkpt><trkpt lat="47.846169" lon="-4.282511"><ele>37.15</ele><time>2011-05-29T06:11:48Z</time></trkpt><trkpt lat="47.845235" lon="-4.282185"><ele>36.67</ele><time>2011-05-29T06:11:54Z</time></trkpt><trkpt lat="47.844327" lon="-4.282116"><ele>35.23</ele><time>2011-05-29T06:12:00Z</time></trkpt><trkpt lat="47.843772" lon="-4.283126"><ele>32.34</ele><time>2011-05-29T06:12:12Z</time></trkpt><trkpt lat="47.843049" lon="-4.284023"><ele>28.98</ele><time>2011-05-29T06:12:21Z</time></trkpt><trkpt lat="47.842467" lon="-4.285073"><ele>29.94</ele><time>2011-05-29T06:12:36Z</time></trkpt><trkpt lat="47.841959" lon="-4.286207"><ele>32.34</ele><time>2011-05-29T06:12:44Z</time></trkpt><trkpt lat="47.841115" lon="-4.286953"><ele>31.38</ele><time>2011-05-29T06:12:51Z</time></trkpt><trkpt lat="47.840115" lon="-4.286824"><ele>30.42</ele><time>2011-05-29T06:12:58Z</time></trkpt><trkpt lat="47.839400" lon="-4.287139"><ele>28.02</ele><time>2011-05-29T06:13:11Z</time></trkpt><trkpt lat="47.838916" lon="-4.288498"><ele>32.34</ele><time>2011-05-29T06:13:19Z</time></trkpt><trkpt lat="47.838462" lon="-4.289662"><ele>24.65</ele><time>2011-05-29T06:13:25Z</time></trkpt><trkpt lat="47.838092" lon="-4.290878"><ele>25.13</ele><time>2011-05-29T06:13:35Z</time></trkpt><trkpt lat="47.837307" lon="-4.291857"><ele>26.57</ele><time>2011-05-29T06:13:45Z</time></trkpt><trkpt lat="47.836578" lon="-4.292777"><ele>27.53</ele><time>2011-05-29T06:13:51Z</time></trkpt><trkpt lat="47.835840" lon="-4.293684"><ele>27.53</ele><time>2011-05-29T06:13:56Z</time></trkpt><trkpt lat="47.835121" lon="-4.294744"><ele>27.53</ele><time>2011-05-29T06:14:01Z</time></trkpt><trkpt lat="47.834593" lon="-4.296170"><ele>26.57</ele><time>2011-05-29T06:14:06Z</time></trkpt><trkpt lat="47.834284" lon="-4.297448"><ele>25.13</ele><time>2011-05-29T06:14:10Z</time></trkpt><trkpt lat="47.833822" lon="-4.298641"><ele>24.65</ele><time>2011-05-29T06:14:14Z</time></trkpt><trkpt lat="47.833235" lon="-4.299716"><ele>24.17</ele><time>2011-05-29T06:14:18Z</time></trkpt><trkpt lat="47.832578" lon="-4.300716"><ele>24.17</ele><time>2011-05-29T06:14:22Z</time></trkpt><trkpt lat="47.831831" lon="-4.301631"><ele>24.17</ele><time>2011-05-29T06:14:26Z</time></trkpt><trkpt lat="47.831080" lon="-4.302546"><ele>23.69</ele><time>2011-05-29T06:14:30Z</time></trkpt><trkpt lat="47.830324" lon="-4.303479"><ele>27.05</ele><time>2011-05-29T06:14:34Z</time></trkpt><trkpt lat="47.829539" lon="-4.304393"><ele>26.57</ele><time>2011-05-29T06:14:38Z</time></trkpt><trkpt lat="47.828728" lon="-4.305279"><ele>26.57</ele><time>2011-05-29T06:14:42Z</time></trkpt><trkpt lat="47.827916" lon="-4.306156"><ele>25.13</ele><time>2011-05-29T06:14:46Z</time></trkpt><trkpt lat="47.827127" lon="-4.307037"><ele>25.61</ele><time>2011-05-29T06:14:50Z</time></trkpt><trkpt lat="47.826394" lon="-4.307978"><ele>26.57</ele><time>2011-05-29T06:14:54Z</time></trkpt><trkpt lat="47.825735" lon="-4.309037"><ele>26.57</ele><time>2011-05-29T06:14:58Z</time></trkpt><trkpt lat="47.825141" lon="-4.310214"><ele>26.09</ele><time>2011-05-29T06:15:02Z</time></trkpt><trkpt lat="47.824554" lon="-4.311430"><ele>26.09</ele><time>2011-05-29T06:15:06Z</time></trkpt><trkpt lat="47.823963" lon="-4.312592"><ele>25.13</ele><time>2011-05-29T06:15:10Z</time></trkpt><trkpt lat="47.823326" lon="-4.313637"><ele>25.13</ele><time>2011-05-29T06:15:14Z</time></trkpt><trkpt lat="47.822604" lon="-4.314590"><ele>24.17</ele><time>2011-05-29T06:15:18Z</time></trkpt><trkpt lat="47.821864" lon="-4.315497"><ele>22.25</ele><time>2011-05-29T06:15:22Z</time></trkpt><trkpt lat="47.821113" lon="-4.316380"><ele>18.88</ele><time>2011-05-29T06:15:26Z</time></trkpt><trkpt lat="47.820368" lon="-4.317269"><ele>17.92</ele><time>2011-05-29T06:15:30Z</time></trkpt><trkpt lat="47.819705" lon="-4.318172"><ele>17.92</ele><time>2011-05-29T06:15:34Z</time></trkpt><trkpt lat="47.819075" lon="-4.319200"><ele>14.56</ele><time>2011-05-29T06:15:40Z</time></trkpt><trkpt lat="47.818446" lon="-4.320325"><ele>15.52</ele><time>2011-05-29T06:15:51Z</time></trkpt><trkpt lat="47.817985" lon="-4.321506"><ele>15.52</ele><time>2011-05-29T06:15:57Z</time></trkpt><trkpt lat="47.817534" lon="-4.322697"><ele>16.00</ele><time>2011-05-29T06:16:02Z</time></trkpt><trkpt lat="47.817037" lon="-4.323991"><ele>15.04</ele><time>2011-05-29T06:16:07Z</time></trkpt><trkpt lat="47.816542" lon="-4.325322"><ele>15.04</ele><time>2011-05-29T06:16:12Z</time></trkpt><trkpt lat="47.816052" lon="-4.326788"><ele>13.60</ele><time>2011-05-29T06:16:17Z</time></trkpt><trkpt lat="47.815695" lon="-4.328029"><ele>11.19</ele><time>2011-05-29T06:16:21Z</time></trkpt><trkpt lat="47.815317" lon="-4.329543"><ele>9.75</ele><time>2011-05-29T06:16:26Z</time></trkpt><trkpt lat="47.815002" lon="-4.331068"><ele>9.75</ele><time>2011-05-29T06:16:31Z</time></trkpt><trkpt lat="47.814663" lon="-4.332540"><ele>8.79</ele><time>2011-05-29T06:16:36Z</time></trkpt><trkpt lat="47.814427" lon="-4.333849"><ele>7.83</ele><time>2011-05-29T06:16:41Z</time></trkpt><trkpt lat="47.814072" lon="-4.335305"><ele>7.35</ele><time>2011-05-29T06:16:48Z</time></trkpt><trkpt lat="47.813574" lon="-4.336061"><ele>4.94</ele><time>2011-05-29T06:17:01Z</time></trkpt><trkpt lat="47.812844" lon="-4.336736"><ele>5.91</ele><time>2011-05-29T06:17:11Z</time></trkpt><trkpt lat="47.812395" lon="-4.337953"><ele>5.42</ele><time>2011-05-29T06:17:20Z</time></trkpt><trkpt lat="47.811614" lon="-4.338613"><ele>4.94</ele><time>2011-05-29T06:17:33Z</time></trkpt><trkpt lat="47.811107" lon="-4.339901"><ele>4.46</ele><time>2011-05-29T06:17:43Z</time></trkpt><trkpt lat="47.810558" lon="-4.341000"><ele>3.02</ele><time>2011-05-29T06:17:50Z</time></trkpt><trkpt lat="47.809951" lon="-4.342091"><ele>3.50</ele><time>2011-05-29T06:17:59Z</time></trkpt><trkpt lat="47.809356" lon="-4.343170"><ele>3.50</ele><time>2011-05-29T06:18:07Z</time></trkpt><trkpt lat="47.808769" lon="-4.344368"><ele>5.42</ele><time>2011-05-29T06:18:17Z</time></trkpt><trkpt lat="47.808257" lon="-4.345669"><ele>5.42</ele><time>2011-05-29T06:18:24Z</time></trkpt><trkpt lat="47.807701" lon="-4.346774"><ele>5.91</ele><time>2011-05-29T06:18:30Z</time></trkpt><trkpt lat="47.807077" lon="-4.347955"><ele>5.42</ele><time>2011-05-29T06:18:36Z</time></trkpt><trkpt lat="47.806431" lon="-4.349173"><ele>4.94</ele><time>2011-05-29T06:18:42Z</time></trkpt><trkpt lat="47.805881" lon="-4.350291"><ele>3.50</ele><time>2011-05-29T06:18:48Z</time></trkpt><trkpt lat="47.805123" lon="-4.350243"><ele>3.02</ele><time>2011-05-29T06:19:01Z</time></trkpt><trkpt lat="47.804294" lon="-4.349662"><ele>1.58</ele><time>2011-05-29T06:19:09Z</time></trkpt><trkpt lat="47.803434" lon="-4.350054"><ele>0.62</ele><time>2011-05-29T06:19:18Z</time></trkpt><trkpt lat="47.802485" lon="-4.350630"><ele>0.14</ele><time>2011-05-29T06:19:26Z</time></trkpt><trkpt lat="47.801545" lon="-4.350728"><ele>1.10</ele><time>2011-05-29T06:19:34Z</time></trkpt><trkpt lat="47.800527" lon="-4.350628"><ele>0.62</ele><time>2011-05-29T06:19:41Z</time></trkpt><trkpt lat="47.799605" lon="-4.350710"><ele>0.62</ele><time>2011-05-29T06:19:48Z</time></trkpt><trkpt lat="47.798725" lon="-4.350912"><ele>-1.30</ele><time>2011-05-29T06:20:06Z</time></trkpt><trkpt lat="47.798313" lon="-4.352078"><ele>-1.30</ele><time>2011-05-29T06:20:32Z</time></trkpt><trkpt lat="47.798587" lon="-4.351968"><ele>-0.82</ele><time>2011-05-29T06:25:14Z</time></trkpt><trkpt lat="47.798621" lon="-4.351760"><ele>0.62</ele><time>2011-05-29T06:40:28Z</time></trkpt></trkseg><trkseg><trkpt lat="47.798621" lon="-4.351760"><ele>-1.30</ele><time>2011-05-29T06:52:41Z</time></trkpt><trkpt lat="47.798621" lon="-4.351760"><ele>-0.82</ele><time>2011-05-29T06:53:26Z</time></trkpt></trkseg><trkseg><trkpt lat="47.798621" lon="-4.351760"><ele>-1.79</ele><time>2011-05-29T06:53:32Z</time></trkpt><trkpt lat="47.798621" lon="-4.351760"><ele>-1.79</ele><time>2011-05-29T06:53:35Z</time></trkpt></trkseg><trkseg><trkpt lat="47.798621" lon="-4.351760"><ele>11.19</ele><time>2011-05-29T06:55:50Z</time></trkpt><trkpt lat="47.798621" lon="-4.351760"><ele>-1.79</ele><time>2011-05-29T06:55:53Z</time></trkpt></trkseg><trkseg><trkpt lat="47.798621" lon="-4.351760"><ele>-5.63</ele><time>2011-05-29T09:55:37Z</time></trkpt><trkpt lat="47.798621" lon="-4.351760"><ele>-6.11</ele><time>2011-05-29T09:56:46Z</time></trkpt></trkseg><trkseg><trkpt lat="47.798621" lon="-4.351760"><ele>-5.63</ele><time>2011-05-29T09:56:53Z</time></trkpt><trkpt lat="47.798621" lon="-4.351760"><ele>-6.11</ele><time>2011-05-29T09:56:56Z</time></trkpt></trkseg><trkseg><trkpt lat="47.798621" lon="-4.351760"><ele>-5.63</ele><time>2011-05-29T09:58:57Z</time></trkpt><trkpt lat="47.798621" lon="-4.351760"><ele>-5.63</ele><time>2011-05-29T10:00:45Z</time></trkpt></trkseg><trkseg><trkpt lat="47.798621" lon="-4.351760"><ele>-6.11</ele><time>2011-05-29T10:00:55Z</time></trkpt><trkpt lat="47.798621" lon="-4.351760"><ele>-6.59</ele><time>2011-05-29T10:01:55Z</time></trkpt></trkseg><trkseg><trkpt lat="47.798621" lon="-4.351760"><ele>11.19</ele><time>2011-05-29T10:02:01Z</time></trkpt><trkpt lat="47.798621" lon="-4.351760"><ele>-6.11</ele><time>2011-05-29T10:02:04Z</time></trkpt></trkseg></trk><trk><name>Tracé actuel: 30 MAI 2011 11:17</name><trkseg><trkpt lat="47.798621" lon="-4.351760"><ele>11.19</ele><time>2011-05-30T09:17:20Z</time></trkpt><trkpt lat="47.798621" lon="-4.351760"><ele>16.48</ele><time>2011-05-30T09:17:45Z</time></trkpt></trkseg><trkseg><trkpt lat="47.798621" lon="-4.351760"><ele>15.52</ele><time>2011-05-30T09:17:51Z</time></trkpt><trkpt lat="47.798621" lon="-4.351760"><ele>16.00</ele><time>2011-05-30T09:17:54Z</time></trkpt></trkseg></trk><trk><name>Tracé actuel: 30 MAI 2011 16:00</name><trkseg><trkpt lat="47.841240" lon="-4.284693"><ele>33.78</ele><time>2011-05-30T14:00:43Z</time></trkpt><trkpt lat="47.840453" lon="-4.285022"><ele>37.15</ele><time>2011-05-30T14:03:53Z</time></trkpt><trkpt lat="47.839768" lon="-4.286076"><ele>35.71</ele><time>2011-05-30T14:04:06Z</time></trkpt><trkpt lat="47.839339" lon="-4.287355"><ele>40.51</ele><time>2011-05-30T14:04:14Z</time></trkpt><trkpt lat="47.838886" lon="-4.288574"><ele>39.07</ele><time>2011-05-30T14:04:21Z</time></trkpt><trkpt lat="47.838393" lon="-4.289833"><ele>38.59</ele><time>2011-05-30T14:04:28Z</time></trkpt><trkpt lat="47.837974" lon="-4.291008"><ele>36.67</ele><time>2011-05-30T14:04:38Z</time></trkpt><trkpt lat="47.837272" lon="-4.291900"><ele>40.03</ele><time>2011-05-30T14:04:46Z</time></trkpt><trkpt lat="47.836562" lon="-4.292785"><ele>44.84</ele><time>2011-05-30T14:04:52Z</time></trkpt><trkpt lat="47.835742" lon="-4.293786"><ele>51.09</ele><time>2011-05-30T14:04:58Z</time></trkpt><trkpt lat="47.835091" lon="-4.294800"><ele>50.61</ele><time>2011-05-30T14:05:03Z</time></trkpt><trkpt lat="47.834607" lon="-4.296117"><ele>53.49</ele><time>2011-05-30T14:05:08Z</time></trkpt><trkpt lat="47.834244" lon="-4.297567"><ele>44.36</ele><time>2011-05-30T14:05:13Z</time></trkpt><trkpt lat="47.833703" lon="-4.298864"><ele>46.76</ele><time>2011-05-30T14:05:18Z</time></trkpt><trkpt lat="47.833099" lon="-4.299949"><ele>43.88</ele><time>2011-05-30T14:05:23Z</time></trkpt><trkpt lat="47.832445" lon="-4.300865"><ele>39.07</ele><time>2011-05-30T14:05:28Z</time></trkpt><trkpt lat="47.831692" lon="-4.301797"><ele>33.78</ele><time>2011-05-30T14:05:34Z</time></trkpt><trkpt lat="47.830882" lon="-4.301756"><ele>30.90</ele><time>2011-05-30T14:05:46Z</time></trkpt><trkpt lat="47.830614" lon="-4.302106"><ele>29.94</ele><time>2011-05-30T14:06:13Z</time></trkpt><trkpt lat="47.831382" lon="-4.302007"><ele>28.98</ele><time>2011-05-30T14:06:28Z</time></trkpt><trkpt lat="47.830719" lon="-4.302975"><ele>35.23</ele><time>2011-05-30T14:06:51Z</time></trkpt><trkpt lat="47.830012" lon="-4.303930"><ele>30.42</ele><time>2011-05-30T14:06:59Z</time></trkpt><trkpt lat="47.829894" lon="-4.305341"><ele>38.11</ele><time>2011-05-30T14:07:09Z</time></trkpt><trkpt lat="47.829790" lon="-4.306743"><ele>25.61</ele><time>2011-05-30T14:07:19Z</time></trkpt><trkpt lat="47.829872" lon="-4.305449"><ele>28.02</ele><time>2011-05-30T14:07:45Z</time></trkpt><trkpt lat="47.830002" lon="-4.304119"><ele>28.98</ele><time>2011-05-30T14:07:56Z</time></trkpt><trkpt lat="47.829280" lon="-4.304654"><ele>30.90</ele><time>2011-05-30T14:08:24Z</time></trkpt><trkpt lat="47.828451" lon="-4.305550"><ele>30.42</ele><time>2011-05-30T14:08:32Z</time></trkpt><trkpt lat="47.827645" lon="-4.306421"><ele>30.90</ele><time>2011-05-30T14:08:39Z</time></trkpt><trkpt lat="47.827130" lon="-4.307403"><ele>28.98</ele><time>2011-05-30T14:08:48Z</time></trkpt><trkpt lat="47.826767" lon="-4.308618"><ele>33.78</ele><time>2011-05-30T14:08:56Z</time></trkpt><trkpt lat="47.826277" lon="-4.309935"><ele>35.23</ele><time>2011-05-30T14:09:03Z</time></trkpt><trkpt lat="47.825799" lon="-4.311273"><ele>31.86</ele><time>2011-05-30T14:09:10Z</time></trkpt><trkpt lat="47.825390" lon="-4.312530"><ele>25.61</ele><time>2011-05-30T14:09:27Z</time></trkpt><trkpt lat="47.824827" lon="-4.313760"><ele>28.02</ele><time>2011-05-30T14:09:36Z</time></trkpt><trkpt lat="47.823971" lon="-4.314239"><ele>27.53</ele><time>2011-05-30T14:09:43Z</time></trkpt><trkpt lat="47.823071" lon="-4.314608"><ele>26.57</ele><time>2011-05-30T14:09:50Z</time></trkpt><trkpt lat="47.822266" lon="-4.314976"><ele>25.13</ele><time>2011-05-30T14:10:05Z</time></trkpt><trkpt lat="47.821510" lon="-4.315873"><ele>26.09</ele><time>2011-05-30T14:10:13Z</time></trkpt><trkpt lat="47.820740" lon="-4.316797"><ele>15.04</ele><time>2011-05-30T14:10:21Z</time></trkpt><trkpt lat="47.820044" lon="-4.317678"><ele>21.29</ele><time>2011-05-30T14:10:32Z</time></trkpt><trkpt lat="47.819359" lon="-4.318756"><ele>25.61</ele><time>2011-05-30T14:10:40Z</time></trkpt><trkpt lat="47.818661" lon="-4.319456"><ele>18.88</ele><time>2011-05-30T14:10:51Z</time></trkpt><trkpt lat="47.818716" lon="-4.317987"><ele>23.21</ele><time>2011-05-30T14:11:03Z</time></trkpt><trkpt lat="47.818663" lon="-4.316598"><ele>24.65</ele><time>2011-05-30T14:11:10Z</time></trkpt><trkpt lat="47.818551" lon="-4.315236"><ele>27.05</ele><time>2011-05-30T14:11:16Z</time></trkpt><trkpt lat="47.818427" lon="-4.313686"><ele>25.13</ele><time>2011-05-30T14:11:22Z</time></trkpt><trkpt lat="47.818302" lon="-4.312094"><ele>30.90</ele><time>2011-05-30T14:11:28Z</time></trkpt><trkpt lat="47.818189" lon="-4.310701"><ele>30.90</ele><time>2011-05-30T14:11:33Z</time></trkpt><trkpt lat="47.818122" lon="-4.309328"><ele>27.53</ele><time>2011-05-30T14:11:38Z</time></trkpt><trkpt lat="47.818181" lon="-4.307976"><ele>30.90</ele><time>2011-05-30T14:11:43Z</time></trkpt><trkpt lat="47.818338" lon="-4.306475"><ele>24.65</ele><time>2011-05-30T14:11:49Z</time></trkpt><trkpt lat="47.818163" lon="-4.305404"><ele>24.65</ele><time>2011-05-30T14:11:59Z</time></trkpt><trkpt lat="47.817234" lon="-4.305050"><ele>25.13</ele><time>2011-05-30T14:12:08Z</time></trkpt><trkpt lat="47.816369" lon="-4.304724"><ele>22.73</ele><time>2011-05-30T14:12:21Z</time></trkpt><trkpt lat="47.815512" lon="-4.305181"><ele>25.13</ele><time>2011-05-30T14:12:30Z</time></trkpt><trkpt lat="47.814680" lon="-4.305769"><ele>21.29</ele><time>2011-05-30T14:12:40Z</time></trkpt><trkpt lat="47.814570" lon="-4.307129"><ele>25.61</ele><time>2011-05-30T14:12:50Z</time></trkpt><trkpt lat="47.814443" lon="-4.308522"><ele>27.53</ele><time>2011-05-30T14:12:59Z</time></trkpt><trkpt lat="47.814023" lon="-4.309812"><ele>28.50</ele><time>2011-05-30T14:13:09Z</time></trkpt><trkpt lat="47.813464" lon="-4.310905"><ele>21.29</ele><time>2011-05-30T14:13:20Z</time></trkpt><trkpt lat="47.812586" lon="-4.310689"><ele>19.84</ele><time>2011-05-30T14:13:33Z</time></trkpt><trkpt lat="47.812146" lon="-4.310597"><ele>16.96</ele><time>2011-05-30T14:14:06Z</time></trkpt><trkpt lat="47.813061" lon="-4.310820"><ele>20.81</ele><time>2011-05-30T14:14:17Z</time></trkpt><trkpt lat="47.813116" lon="-4.311719"><ele>25.13</ele><time>2011-05-30T14:14:31Z</time></trkpt><trkpt lat="47.812632" lon="-4.312933"><ele>26.09</ele><time>2011-05-30T14:14:39Z</time></trkpt><trkpt lat="47.812161" lon="-4.314108"><ele>20.81</ele><time>2011-05-30T14:14:46Z</time></trkpt><trkpt lat="47.811456" lon="-4.314905"><ele>14.56</ele><time>2011-05-30T14:14:54Z</time></trkpt><trkpt lat="47.811530" lon="-4.315994"><ele>15.52</ele><time>2011-05-30T14:15:07Z</time></trkpt><trkpt lat="47.811968" lon="-4.316968"><ele>16.96</ele><time>2011-05-30T14:15:22Z</time></trkpt><trkpt lat="47.812358" lon="-4.317296"><ele>15.52</ele><time>2011-05-30T14:15:53Z</time></trkpt><trkpt lat="47.811540" lon="-4.316713"><ele>10.23</ele><time>2011-05-30T14:16:11Z</time></trkpt><trkpt lat="47.811379" lon="-4.318153"><ele>11.19</ele><time>2011-05-30T14:16:25Z</time></trkpt><trkpt lat="47.811179" lon="-4.319519"><ele>6.87</ele><time>2011-05-30T14:16:37Z</time></trkpt><trkpt lat="47.811102" lon="-4.320117"><ele>4.94</ele><time>2011-05-30T14:17:01Z</time></trkpt><trkpt lat="47.811302" lon="-4.318742"><ele>8.31</ele><time>2011-05-30T14:17:14Z</time></trkpt><trkpt lat="47.811436" lon="-4.317289"><ele>12.15</ele><time>2011-05-30T14:17:22Z</time></trkpt><trkpt lat="47.811469" lon="-4.315850"><ele>11.19</ele><time>2011-05-30T14:17:30Z</time></trkpt><trkpt lat="47.810688" lon="-4.315758"><ele>12.15</ele><time>2011-05-30T14:17:45Z</time></trkpt><trkpt lat="47.811089" lon="-4.315800"><ele>11.67</ele><time>2011-05-30T14:18:14Z</time></trkpt><trkpt lat="47.810920" lon="-4.314570"><ele>14.08</ele><time>2011-05-30T14:18:28Z</time></trkpt><trkpt lat="47.810349" lon="-4.313287"><ele>13.12</ele><time>2011-05-30T14:18:36Z</time></trkpt><trkpt lat="47.809651" lon="-4.312142"><ele>18.40</ele><time>2011-05-30T14:18:43Z</time></trkpt><trkpt lat="47.808996" lon="-4.311153"><ele>17.44</ele><time>2011-05-30T14:18:49Z</time></trkpt><trkpt lat="47.808350" lon="-4.310112"><ele>13.12</ele><time>2011-05-30T14:18:58Z</time></trkpt><trkpt lat="47.808633" lon="-4.309136"><ele>16.00</ele><time>2011-05-30T14:19:13Z</time></trkpt><trkpt lat="47.808614" lon="-4.309399"><ele>16.96</ele><time>2011-05-30T14:19:43Z</time></trkpt><trkpt lat="47.808486" lon="-4.310350"><ele>13.60</ele><time>2011-05-30T14:20:01Z</time></trkpt><trkpt lat="47.808500" lon="-4.311698"><ele>9.27</ele><time>2011-05-30T14:20:13Z</time></trkpt><trkpt lat="47.808073" lon="-4.312856"><ele>6.87</ele><time>2011-05-30T14:20:40Z</time></trkpt><trkpt lat="47.808484" lon="-4.311646"><ele>8.31</ele><time>2011-05-30T14:21:12Z</time></trkpt><trkpt lat="47.808131" lon="-4.310560"><ele>10.71</ele><time>2011-05-30T14:21:28Z</time></trkpt><trkpt lat="47.807197" lon="-4.310410"><ele>9.75</ele><time>2011-05-30T14:21:38Z</time></trkpt><trkpt lat="47.806272" lon="-4.310248"><ele>5.91</ele><time>2011-05-30T14:21:48Z</time></trkpt><trkpt lat="47.805344" lon="-4.310429"><ele>3.98</ele><time>2011-05-30T14:22:00Z</time></trkpt><trkpt lat="47.805200" lon="-4.311279"><ele>3.50</ele><time>2011-05-30T14:22:17Z</time></trkpt><trkpt lat="47.805628" lon="-4.312559"><ele>4.94</ele><time>2011-05-30T14:22:46Z</time></trkpt><trkpt lat="47.805563" lon="-4.312313"><ele>1.58</ele><time>2011-05-30T14:23:20Z</time></trkpt><trkpt lat="47.805136" lon="-4.311110"><ele>1.10</ele><time>2011-05-30T14:23:33Z</time></trkpt><trkpt lat="47.805433" lon="-4.310424"><ele>2.54</ele><time>2011-05-30T14:23:55Z</time></trkpt><trkpt lat="47.805998" lon="-4.309536"><ele>3.50</ele><time>2011-05-30T14:24:11Z</time></trkpt><trkpt lat="47.806341" lon="-4.308231"><ele>7.35</ele><time>2011-05-30T14:24:23Z</time></trkpt><trkpt lat="47.806399" lon="-4.306839"><ele>9.27</ele><time>2011-05-30T14:24:38Z</time></trkpt><trkpt lat="47.807130" lon="-4.307098"><ele>16.48</ele><time>2011-05-30T14:25:04Z</time></trkpt><trkpt lat="47.807308" lon="-4.307610"><ele>14.56</ele><time>2011-05-30T14:25:31Z</time></trkpt><trkpt lat="47.806941" lon="-4.306304"><ele>13.12</ele><time>2011-05-30T14:25:43Z</time></trkpt><trkpt lat="47.806374" lon="-4.305321"><ele>13.12</ele><time>2011-05-30T14:26:15Z</time></trkpt><trkpt lat="47.806853" lon="-4.304184"><ele>15.04</ele><time>2011-05-30T14:26:28Z</time></trkpt><trkpt lat="47.806468" lon="-4.305196"><ele>15.04</ele><time>2011-05-30T14:26:58Z</time></trkpt><trkpt lat="47.805773" lon="-4.304801"><ele>13.12</ele><time>2011-05-30T14:27:12Z</time></trkpt><trkpt lat="47.805587" lon="-4.303787"><ele>7.83</ele><time>2011-05-30T14:27:30Z</time></trkpt><trkpt lat="47.806084" lon="-4.302653"><ele>11.19</ele><time>2011-05-30T14:27:50Z</time></trkpt><trkpt lat="47.806259" lon="-4.302288"><ele>11.19</ele><time>2011-05-30T14:28:37Z</time></trkpt><trkpt lat="47.805745" lon="-4.303460"><ele>11.67</ele><time>2011-05-30T14:28:59Z</time></trkpt><trkpt lat="47.805133" lon="-4.304063"><ele>8.31</ele><time>2011-05-30T14:29:16Z</time></trkpt><trkpt lat="47.804381" lon="-4.303288"><ele>7.83</ele><time>2011-05-30T14:29:26Z</time></trkpt><trkpt lat="47.803550" lon="-4.302752"><ele>5.42</ele><time>2011-05-30T14:29:34Z</time></trkpt><trkpt lat="47.802948" lon="-4.301868"><ele>2.54</ele><time>2011-05-30T14:29:45Z</time></trkpt><trkpt lat="47.802699" lon="-4.300493"><ele>3.98</ele><time>2011-05-30T14:29:52Z</time></trkpt><trkpt lat="47.802420" lon="-4.299005"><ele>2.06</ele><time>2011-05-30T14:29:59Z</time></trkpt><trkpt lat="47.802023" lon="-4.297794"><ele>2.06</ele><time>2011-05-30T14:30:06Z</time></trkpt><trkpt lat="47.801812" lon="-4.296717"><ele>1.10</ele><time>2011-05-30T14:30:23Z</time></trkpt><trkpt lat="47.801684" lon="-4.297132"><ele>2.54</ele><time>2011-05-30T14:30:45Z</time></trkpt><trkpt lat="47.801261" lon="-4.295814"><ele>4.46</ele><time>2011-05-30T14:30:57Z</time></trkpt><trkpt lat="47.800887" lon="-4.294610"><ele>3.02</ele><time>2011-05-30T14:31:11Z</time></trkpt><trkpt lat="47.800626" lon="-4.293963"><ele>2.54</ele><time>2011-05-30T14:32:08Z</time></trkpt><trkpt lat="47.800718" lon="-4.292767"><ele>3.02</ele><time>2011-05-30T14:32:24Z</time></trkpt><trkpt lat="47.800263" lon="-4.291602"><ele>3.98</ele><time>2011-05-30T14:32:52Z</time></trkpt><trkpt lat="47.800194" lon="-4.292645"><ele>5.91</ele><time>2011-05-30T14:33:09Z</time></trkpt><trkpt lat="47.799972" lon="-4.292115"><ele>4.46</ele><time>2011-05-30T14:33:36Z</time></trkpt><trkpt lat="47.800207" lon="-4.291584"><ele>6.39</ele><time>2011-05-30T14:34:16Z</time></trkpt><trkpt lat="47.801091" lon="-4.291315"><ele>4.46</ele><time>2011-05-30T14:34:28Z</time></trkpt><trkpt lat="47.801151" lon="-4.291538"><ele>5.42</ele><time>2011-05-30T14:35:43Z</time></trkpt><trkpt lat="47.801159" lon="-4.290121"><ele>4.94</ele><time>2011-05-30T14:35:54Z</time></trkpt><trkpt lat="47.800571" lon="-4.289718"><ele>3.50</ele><time>2011-05-30T14:36:12Z</time></trkpt><trkpt lat="47.800146" lon="-4.288606"><ele>4.46</ele><time>2011-05-30T14:36:25Z</time></trkpt><trkpt lat="47.800358" lon="-4.289167"><ele>4.94</ele><time>2011-05-30T14:37:16Z</time></trkpt><trkpt lat="47.799594" lon="-4.289593"><ele>4.46</ele><time>2011-05-30T14:37:41Z</time></trkpt><trkpt lat="47.799839" lon="-4.288640"><ele>3.98</ele><time>2011-05-30T14:38:03Z</time></trkpt><trkpt lat="47.799585" lon="-4.287350"><ele>5.91</ele><time>2011-05-30T14:38:36Z</time></trkpt><trkpt lat="47.799270" lon="-4.287942"><ele>6.39</ele><time>2011-05-30T14:38:53Z</time></trkpt><trkpt lat="47.799246" lon="-4.289052"><ele>4.46</ele><time>2011-05-30T14:39:14Z</time></trkpt><trkpt lat="47.799048" lon="-4.289647"><ele>3.50</ele><time>2011-05-30T14:40:17Z</time></trkpt><trkpt lat="47.798847" lon="-4.288475"><ele>3.50</ele><time>2011-05-30T14:40:39Z</time></trkpt><trkpt lat="47.798368" lon="-4.287288"><ele>3.98</ele><time>2011-05-30T14:40:51Z</time></trkpt><trkpt lat="47.797639" lon="-4.287029"><ele>4.46</ele><time>2011-05-30T14:41:16Z</time></trkpt><trkpt lat="47.796711" lon="-4.286966"><ele>6.39</ele><time>2011-05-30T14:41:35Z</time></trkpt><trkpt lat="47.796417" lon="-4.288077"><ele>8.79</ele><time>2011-05-30T14:41:48Z</time></trkpt><trkpt lat="47.796350" lon="-4.289511"><ele>5.91</ele><time>2011-05-30T14:41:57Z</time></trkpt><trkpt lat="47.796981" lon="-4.289933"><ele>5.42</ele><time>2011-05-30T14:42:11Z</time></trkpt><trkpt lat="47.797954" lon="-4.289791"><ele>6.87</ele><time>2011-05-30T14:42:33Z</time></trkpt><trkpt lat="47.798411" lon="-4.290341"><ele>4.46</ele><time>2011-05-30T14:43:06Z</time></trkpt><trkpt lat="47.797803" lon="-4.290691"><ele>2.54</ele><time>2011-05-30T14:43:30Z</time></trkpt><trkpt lat="47.796971" lon="-4.290906"><ele>3.98</ele><time>2011-05-30T14:44:09Z</time></trkpt><trkpt lat="47.796004" lon="-4.291004"><ele>3.50</ele><time>2011-05-30T14:44:19Z</time></trkpt><trkpt lat="47.795065" lon="-4.291108"><ele>3.50</ele><time>2011-05-30T14:44:56Z</time></trkpt><trkpt lat="47.794713" lon="-4.292239"><ele>3.02</ele><time>2011-05-30T14:45:15Z</time></trkpt><trkpt lat="47.793845" lon="-4.292139"><ele>2.54</ele><time>2011-05-30T14:45:46Z</time></trkpt><trkpt lat="47.793355" lon="-4.291406"><ele>3.50</ele><time>2011-05-30T14:46:28Z</time></trkpt><trkpt lat="47.792706" lon="-4.291363"><ele>3.50</ele><time>2011-05-30T14:46:45Z</time></trkpt><trkpt lat="47.792334" lon="-4.292340"><ele>5.91</ele><time>2011-05-30T14:47:06Z</time></trkpt><trkpt lat="47.793055" lon="-4.293138"><ele>3.98</ele><time>2011-05-30T14:47:48Z</time></trkpt><trkpt lat="47.794019" lon="-4.293156"><ele>3.50</ele><time>2011-05-30T14:48:06Z</time></trkpt><trkpt lat="47.794393" lon="-4.293136"><ele>3.50</ele><time>2011-05-30T14:48:47Z</time></trkpt><trkpt lat="47.794159" lon="-4.292264"><ele>4.94</ele><time>2011-05-30T14:49:01Z</time></trkpt><trkpt lat="47.794412" lon="-4.290931"><ele>4.46</ele><time>2011-05-30T14:49:43Z</time></trkpt><trkpt lat="47.794349" lon="-4.289796"><ele>4.46</ele><time>2011-05-30T14:49:58Z</time></trkpt><trkpt lat="47.794049" lon="-4.289009"><ele>3.02</ele><time>2011-05-30T14:50:28Z</time></trkpt><trkpt lat="47.794051" lon="-4.287863"><ele>2.06</ele><time>2011-05-30T14:50:52Z</time></trkpt><trkpt lat="47.794411" lon="-4.286952"><ele>3.50</ele><time>2011-05-30T14:51:11Z</time></trkpt><trkpt lat="47.794467" lon="-4.288088"><ele>2.54</ele><time>2011-05-30T14:51:35Z</time></trkpt><trkpt lat="47.794959" lon="-4.287368"><ele>3.50</ele><time>2011-05-30T14:52:16Z</time></trkpt><trkpt lat="47.795248" lon="-4.286043"><ele>3.98</ele><time>2011-05-30T14:52:52Z</time></trkpt><trkpt lat="47.795242" lon="-4.284785"><ele>4.46</ele><time>2011-05-30T14:53:23Z</time></trkpt><trkpt lat="47.794704" lon="-4.284491"><ele>1.58</ele><time>2011-05-30T14:54:09Z</time></trkpt><trkpt lat="47.793890" lon="-4.284255"><ele>2.54</ele><time>2011-05-30T14:54:49Z</time></trkpt><trkpt lat="47.793755" lon="-4.285187"><ele>1.58</ele><time>2011-05-30T14:55:54Z</time></trkpt><trkpt lat="47.793898" lon="-4.285914"><ele>1.58</ele><time>2011-05-30T14:56:23Z</time></trkpt><trkpt lat="47.793540" lon="-4.286560"><ele>2.54</ele><time>2011-05-30T14:56:48Z</time></trkpt><trkpt lat="47.793397" lon="-4.287698"><ele>0.62</ele><time>2011-05-30T14:58:12Z</time></trkpt><trkpt lat="47.793684" lon="-4.287913"><ele>0.62</ele><time>2011-05-30T14:59:38Z</time></trkpt><trkpt lat="47.794082" lon="-4.288696"><ele>2.54</ele><time>2011-05-30T14:59:58Z</time></trkpt><trkpt lat="47.794125" lon="-4.289749"><ele>3.02</ele><time>2011-05-30T15:00:12Z</time></trkpt><trkpt lat="47.795126" lon="-4.290083"><ele>3.02</ele><time>2011-05-30T15:01:00Z</time></trkpt><trkpt lat="47.795847" lon="-4.289663"><ele>1.58</ele><time>2011-05-30T15:01:27Z</time></trkpt><trkpt lat="47.795714" lon="-4.288279"><ele>1.10</ele><time>2011-05-30T15:01:38Z</time></trkpt><trkpt lat="47.795769" lon="-4.286889"><ele>2.54</ele><time>2011-05-30T15:02:10Z</time></trkpt><trkpt lat="47.796377" lon="-4.286435"><ele>1.58</ele><time>2011-05-30T15:02:28Z</time></trkpt><trkpt lat="47.796400" lon="-4.287795"><ele>2.06</ele><time>2011-05-30T15:02:58Z</time></trkpt><trkpt lat="47.796536" lon="-4.286449"><ele>2.06</ele><time>2011-05-30T15:03:28Z</time></trkpt><trkpt lat="47.796950" lon="-4.285302"><ele>2.54</ele><time>2011-05-30T15:03:49Z</time></trkpt><trkpt lat="47.797530" lon="-4.284711"><ele>1.10</ele><time>2011-05-30T15:05:44Z</time></trkpt><trkpt lat="47.798364" lon="-4.285050"><ele>3.98</ele><time>2011-05-30T15:06:10Z</time></trkpt><trkpt lat="47.799161" lon="-4.285081"><ele>2.54</ele><time>2011-05-30T15:06:28Z</time></trkpt><trkpt lat="47.799410" lon="-4.284527"><ele>2.54</ele><time>2011-05-30T15:07:44Z</time></trkpt><trkpt lat="47.798877" lon="-4.285743"><ele>5.42</ele><time>2011-05-30T15:08:00Z</time></trkpt><trkpt lat="47.798603" lon="-4.287019"><ele>4.94</ele><time>2011-05-30T15:08:28Z</time></trkpt><trkpt lat="47.798082" lon="-4.286516"><ele>3.02</ele><time>2011-05-30T15:08:46Z</time></trkpt><trkpt lat="47.797693" lon="-4.285214"><ele>3.50</ele><time>2011-05-30T15:08:56Z</time></trkpt><trkpt lat="47.796917" lon="-4.284418"><ele>3.02</ele><time>2011-05-30T15:09:07Z</time></trkpt><trkpt lat="47.796201" lon="-4.284578"><ele>1.58</ele><time>2011-05-30T15:09:39Z</time></trkpt><trkpt lat="47.795617" lon="-4.284322"><ele>1.58</ele><time>2011-05-30T15:11:10Z</time></trkpt><trkpt lat="47.795850" lon="-4.283470"><ele>1.58</ele><time>2011-05-30T15:12:30Z</time></trkpt><trkpt lat="47.795150" lon="-4.282821"><ele>2.54</ele><time>2011-05-30T15:13:30Z</time></trkpt><trkpt lat="47.794898" lon="-4.283120"><ele>0.62</ele><time>2011-05-30T15:14:11Z</time></trkpt><trkpt lat="47.795659" lon="-4.283095"><ele>4.94</ele><time>2011-05-30T15:15:34Z</time></trkpt><trkpt lat="47.796313" lon="-4.282628"><ele>0.62</ele><time>2011-05-30T15:16:07Z</time></trkpt><trkpt lat="47.796664" lon="-4.281599"><ele>-1.30</ele><time>2011-05-30T15:17:03Z</time></trkpt><trkpt lat="47.797031" lon="-4.282766"><ele>2.06</ele><time>2011-05-30T15:17:19Z</time></trkpt><trkpt lat="47.796954" lon="-4.283226"><ele>-0.34</ele><time>2011-05-30T15:18:43Z</time></trkpt><trkpt lat="47.796658" lon="-4.284071"><ele>0.14</ele><time>2011-05-30T15:20:01Z</time></trkpt><trkpt lat="47.796105" lon="-4.285212"><ele>2.06</ele><time>2011-05-30T15:20:15Z</time></trkpt><trkpt lat="47.795170" lon="-4.284734"><ele>2.54</ele><time>2011-05-30T15:20:27Z</time></trkpt><trkpt lat="47.794283" lon="-4.284275"><ele>1.58</ele><time>2011-05-30T15:20:37Z</time></trkpt><trkpt lat="47.793705" lon="-4.284931"><ele>6.87</ele><time>2011-05-30T15:20:49Z</time></trkpt><trkpt lat="47.793552" lon="-4.286269"><ele>1.58</ele><time>2011-05-30T15:20:59Z</time></trkpt><trkpt lat="47.793094" lon="-4.285802"><ele>-0.34</ele><time>2011-05-30T15:21:16Z</time></trkpt><trkpt lat="47.792960" lon="-4.285707"><ele>-1.30</ele><time>2011-05-30T15:22:12Z</time></trkpt><trkpt lat="47.793338" lon="-4.284767"><ele>-0.34</ele><time>2011-05-30T15:22:51Z</time></trkpt><trkpt lat="47.793782" lon="-4.283580"><ele>-1.30</ele><time>2011-05-30T15:23:19Z</time></trkpt><trkpt lat="47.794212" lon="-4.282397"><ele>-1.30</ele><time>2011-05-30T15:23:35Z</time></trkpt><trkpt lat="47.794246" lon="-4.281304"><ele>-2.27</ele><time>2011-05-30T15:23:58Z</time></trkpt><trkpt lat="47.794719" lon="-4.280802"><ele>-1.79</ele><time>2011-05-30T15:25:04Z</time></trkpt><trkpt lat="47.795341" lon="-4.280279"><ele>-3.71</ele><time>2011-05-30T15:25:21Z</time></trkpt><trkpt lat="47.795750" lon="-4.281136"><ele>0.14</ele><time>2011-05-30T15:25:39Z</time></trkpt><trkpt lat="47.795254" lon="-4.281740"><ele>-0.82</ele><time>2011-05-30T15:27:06Z</time></trkpt><trkpt lat="47.795784" lon="-4.282268"><ele>1.10</ele><time>2011-05-30T15:28:11Z</time></trkpt><trkpt lat="47.796722" lon="-4.282040"><ele>-0.34</ele><time>2011-05-30T15:28:57Z</time></trkpt><trkpt lat="47.796386" lon="-4.280924"><ele>-1.79</ele><time>2011-05-30T15:29:14Z</time></trkpt><trkpt lat="47.796285" lon="-4.279577"><ele>-0.82</ele><time>2011-05-30T15:29:32Z</time></trkpt><trkpt lat="47.796193" lon="-4.278326"><ele>-0.82</ele><time>2011-05-30T15:29:49Z</time></trkpt><trkpt lat="47.796212" lon="-4.278888"><ele>0.62</ele><time>2011-05-30T15:30:35Z</time></trkpt><trkpt lat="47.796787" lon="-4.278226"><ele>-1.30</ele><time>2011-05-30T15:30:58Z</time></trkpt><trkpt lat="47.796963" lon="-4.276919"><ele>-1.79</ele><time>2011-05-30T15:31:41Z</time></trkpt><trkpt lat="47.797333" lon="-4.277703"><ele>0.62</ele><time>2011-05-30T15:31:55Z</time></trkpt><trkpt lat="47.797540" lon="-4.278779"><ele>1.58</ele><time>2011-05-30T15:32:09Z</time></trkpt><trkpt lat="47.798075" lon="-4.278550"><ele>-2.27</ele><time>2011-05-30T15:34:02Z</time></trkpt><trkpt lat="47.798027" lon="-4.277854"><ele>-2.75</ele><time>2011-05-30T15:35:14Z</time></trkpt><trkpt lat="47.797998" lon="-4.277020"><ele>-2.75</ele><time>2011-05-30T15:36:53Z</time></trkpt><trkpt lat="47.798414" lon="-4.276191"><ele>-2.75</ele><time>2011-05-30T15:37:27Z</time></trkpt><trkpt lat="47.799329" lon="-4.276400"><ele>-2.27</ele><time>2011-05-30T15:37:39Z</time></trkpt><trkpt lat="47.799425" lon="-4.275905"><ele>-0.34</ele><time>2011-05-30T15:38:07Z</time></trkpt><trkpt lat="47.799614" lon="-4.276795"><ele>-2.75</ele><time>2011-05-30T15:38:22Z</time></trkpt><trkpt lat="47.799113" lon="-4.277807"><ele>-1.79</ele><time>2011-05-30T15:39:26Z</time></trkpt><trkpt lat="47.798927" lon="-4.279110"><ele>1.58</ele><time>2011-05-30T15:39:40Z</time></trkpt><trkpt lat="47.799834" lon="-4.279316"><ele>0.14</ele><time>2011-05-30T15:39:58Z</time></trkpt><trkpt lat="47.800034" lon="-4.280198"><ele>-0.34</ele><time>2011-05-30T15:40:25Z</time></trkpt><trkpt lat="47.799834" lon="-4.281088"><ele>-2.27</ele><time>2011-05-30T15:41:58Z</time></trkpt><trkpt lat="47.799440" lon="-4.282249"><ele>-3.71</ele><time>2011-05-30T15:42:25Z</time></trkpt><trkpt lat="47.799776" lon="-4.282074"><ele>-1.30</ele><time>2011-05-30T15:43:20Z</time></trkpt><trkpt lat="47.800290" lon="-4.281287"><ele>2.54</ele><time>2011-05-30T15:43:39Z</time></trkpt><trkpt lat="47.800261" lon="-4.280141"><ele>-0.34</ele><time>2011-05-30T15:44:21Z</time></trkpt><trkpt lat="47.799420" lon="-4.280402"><ele>0.62</ele><time>2011-05-30T15:44:35Z</time></trkpt><trkpt lat="47.798814" lon="-4.280977"><ele>-1.30</ele><time>2011-05-30T15:44:49Z</time></trkpt><trkpt lat="47.798299" lon="-4.281631"><ele>-2.75</ele><time>2011-05-30T15:46:12Z</time></trkpt><trkpt lat="47.798381" lon="-4.282801"><ele>-3.71</ele><time>2011-05-30T15:46:39Z</time></trkpt><trkpt lat="47.799069" lon="-4.283500"><ele>-0.82</ele><time>2011-05-30T15:47:14Z</time></trkpt><trkpt lat="47.799923" lon="-4.284038"><ele>-0.82</ele><time>2011-05-30T15:47:28Z</time></trkpt><trkpt lat="47.800121" lon="-4.285139"><ele>2.06</ele><time>2011-05-30T15:47:42Z</time></trkpt><trkpt lat="47.800782" lon="-4.285554"><ele>-0.34</ele><time>2011-05-30T15:48:08Z</time></trkpt><trkpt lat="47.801331" lon="-4.285037"><ele>3.50</ele><time>2011-05-30T15:48:26Z</time></trkpt><trkpt lat="47.802160" lon="-4.285608"><ele>7.35</ele><time>2011-05-30T15:48:36Z</time></trkpt><trkpt lat="47.802389" lon="-4.286649"><ele>2.54</ele><time>2011-05-30T15:48:52Z</time></trkpt><trkpt lat="47.802972" lon="-4.287696"><ele>8.79</ele><time>2011-05-30T15:49:06Z</time></trkpt><trkpt lat="47.803262" lon="-4.288294"><ele>3.98</ele><time>2011-05-30T15:49:57Z</time></trkpt><trkpt lat="47.802731" lon="-4.287172"><ele>6.39</ele><time>2011-05-30T15:50:08Z</time></trkpt><trkpt lat="47.802379" lon="-4.286012"><ele>4.46</ele><time>2011-05-30T15:50:20Z</time></trkpt><trkpt lat="47.801686" lon="-4.285347"><ele>1.58</ele><time>2011-05-30T15:50:49Z</time></trkpt><trkpt lat="47.801052" lon="-4.285647"><ele>3.02</ele><time>2011-05-30T15:51:04Z</time></trkpt><trkpt lat="47.800961" lon="-4.287027"><ele>4.94</ele><time>2011-05-30T15:51:18Z</time></trkpt><trkpt lat="47.801118" lon="-4.288391"><ele>4.46</ele><time>2011-05-30T15:51:46Z</time></trkpt><trkpt lat="47.801420" lon="-4.289615"><ele>1.10</ele><time>2011-05-30T15:52:01Z</time></trkpt><trkpt lat="47.802412" lon="-4.289615"><ele>9.75</ele><time>2011-05-30T15:52:12Z</time></trkpt><trkpt lat="47.802822" lon="-4.290365"><ele>5.42</ele><time>2011-05-30T15:52:24Z</time></trkpt><trkpt lat="47.802543" lon="-4.290766"><ele>3.98</ele><time>2011-05-30T15:53:04Z</time></trkpt><trkpt lat="47.802815" lon="-4.291912"><ele>5.42</ele><time>2011-05-30T15:53:24Z</time></trkpt><trkpt lat="47.802856" lon="-4.293223"><ele>5.91</ele><time>2011-05-30T15:53:36Z</time></trkpt><trkpt lat="47.803697" lon="-4.293748"><ele>6.39</ele><time>2011-05-30T15:53:51Z</time></trkpt><trkpt lat="47.804535" lon="-4.294353"><ele>2.54</ele><time>2011-05-30T15:54:02Z</time></trkpt><trkpt lat="47.804895" lon="-4.293116"><ele>2.06</ele><time>2011-05-30T15:54:16Z</time></trkpt><trkpt lat="47.805532" lon="-4.293065"><ele>4.46</ele><time>2011-05-30T15:55:13Z</time></trkpt><trkpt lat="47.806394" lon="-4.293346"><ele>4.94</ele><time>2011-05-30T15:55:27Z</time></trkpt><trkpt lat="47.806986" lon="-4.292285"><ele>4.94</ele><time>2011-05-30T15:55:43Z</time></trkpt><trkpt lat="47.807116" lon="-4.290879"><ele>5.91</ele><time>2011-05-30T15:55:56Z</time></trkpt><trkpt lat="47.807528" lon="-4.289664"><ele>9.75</ele><time>2011-05-30T15:56:07Z</time></trkpt><trkpt lat="47.807945" lon="-4.288431"><ele>12.63</ele><time>2011-05-30T15:56:17Z</time></trkpt><trkpt lat="47.808352" lon="-4.287206"><ele>14.08</ele><time>2011-05-30T15:56:29Z</time></trkpt><trkpt lat="47.808878" lon="-4.287465"><ele>15.52</ele><time>2011-05-30T15:56:44Z</time></trkpt><trkpt lat="47.809519" lon="-4.288577"><ele>16.48</ele><time>2011-05-30T15:56:57Z</time></trkpt><trkpt lat="47.810048" lon="-4.289783"><ele>13.12</ele><time>2011-05-30T15:57:06Z</time></trkpt><trkpt lat="47.810231" lon="-4.291124"><ele>12.63</ele><time>2011-05-30T15:57:13Z</time></trkpt><trkpt lat="47.810574" lon="-4.292386"><ele>16.00</ele><time>2011-05-30T15:57:19Z</time></trkpt><trkpt lat="47.811019" lon="-4.293704"><ele>20.32</ele><time>2011-05-30T15:57:25Z</time></trkpt><trkpt lat="47.811775" lon="-4.294761"><ele>16.96</ele><time>2011-05-30T15:57:31Z</time></trkpt><trkpt lat="47.812608" lon="-4.295555"><ele>17.44</ele><time>2011-05-30T15:57:37Z</time></trkpt><trkpt lat="47.813464" lon="-4.296227"><ele>13.60</ele><time>2011-05-30T15:57:44Z</time></trkpt><trkpt lat="47.814183" lon="-4.296789"><ele>9.75</ele><time>2011-05-30T15:58:06Z</time></trkpt><trkpt lat="47.813418" lon="-4.296196"><ele>12.15</ele><time>2011-05-30T15:58:28Z</time></trkpt><trkpt lat="47.812522" lon="-4.295480"><ele>12.63</ele><time>2011-05-30T15:58:36Z</time></trkpt><trkpt lat="47.811746" lon="-4.294723"><ele>12.63</ele><time>2011-05-30T15:58:43Z</time></trkpt><trkpt lat="47.811025" lon="-4.293702"><ele>8.79</ele><time>2011-05-30T15:58:51Z</time></trkpt><trkpt lat="47.810589" lon="-4.292484"><ele>12.15</ele><time>2011-05-30T15:58:58Z</time></trkpt><trkpt lat="47.810215" lon="-4.291249"><ele>14.08</ele><time>2011-05-30T15:59:04Z</time></trkpt><trkpt lat="47.809998" lon="-4.289909"><ele>13.12</ele><time>2011-05-30T15:59:10Z</time></trkpt><trkpt lat="47.809564" lon="-4.288731"><ele>11.19</ele><time>2011-05-30T15:59:17Z</time></trkpt><trkpt lat="47.808966" lon="-4.287712"><ele>13.60</ele><time>2011-05-30T15:59:25Z</time></trkpt><trkpt lat="47.808450" lon="-4.286629"><ele>12.15</ele><time>2011-05-30T15:59:40Z</time></trkpt><trkpt lat="47.807767" lon="-4.286454"><ele>12.63</ele><time>2011-05-30T15:59:56Z</time></trkpt><trkpt lat="47.807160" lon="-4.286926"><ele>11.19</ele><time>2011-05-30T16:00:10Z</time></trkpt><trkpt lat="47.806343" lon="-4.286281"><ele>8.79</ele><time>2011-05-30T16:00:40Z</time></trkpt><trkpt lat="47.806020" lon="-4.285508"><ele>6.39</ele><time>2011-05-30T16:01:00Z</time></trkpt><trkpt lat="47.806375" lon="-4.284992"><ele>7.35</ele><time>2011-05-30T16:01:57Z</time></trkpt><trkpt lat="47.806991" lon="-4.285150"><ele>11.19</ele><time>2011-05-30T16:02:28Z</time></trkpt><trkpt lat="47.807659" lon="-4.284672"><ele>10.71</ele><time>2011-05-30T16:02:43Z</time></trkpt><trkpt lat="47.808141" lon="-4.283479"><ele>8.79</ele><time>2011-05-30T16:03:21Z</time></trkpt><trkpt lat="47.808631" lon="-4.282327"><ele>11.19</ele><time>2011-05-30T16:03:31Z</time></trkpt><trkpt lat="47.808750" lon="-4.281319"><ele>8.31</ele><time>2011-05-30T16:03:59Z</time></trkpt><trkpt lat="47.807789" lon="-4.281115"><ele>10.71</ele><time>2011-05-30T16:04:10Z</time></trkpt><trkpt lat="47.806837" lon="-4.280978"><ele>11.19</ele><time>2011-05-30T16:04:39Z</time></trkpt><trkpt lat="47.806585" lon="-4.282295"><ele>10.71</ele><time>2011-05-30T16:04:51Z</time></trkpt><trkpt lat="47.805983" lon="-4.282830"><ele>6.39</ele><time>2011-05-30T16:06:30Z</time></trkpt><trkpt lat="47.805040" lon="-4.283070"><ele>6.39</ele><time>2011-05-30T16:06:43Z</time></trkpt><trkpt lat="47.804341" lon="-4.283571"><ele>3.98</ele><time>2011-05-30T16:07:07Z</time></trkpt><trkpt lat="47.803549" lon="-4.283681"><ele>3.50</ele><time>2011-05-30T16:07:44Z</time></trkpt><trkpt lat="47.803694" lon="-4.282520"><ele>6.87</ele><time>2011-05-30T16:09:51Z</time></trkpt><trkpt lat="47.803502" lon="-4.281526"><ele>6.87</ele><time>2011-05-30T16:10:49Z</time></trkpt><trkpt lat="47.803324" lon="-4.280392"><ele>7.83</ele><time>2011-05-30T16:11:08Z</time></trkpt><trkpt lat="47.802443" lon="-4.279915"><ele>6.87</ele><time>2011-05-30T16:11:20Z</time></trkpt><trkpt lat="47.801508" lon="-4.279451"><ele>4.46</ele><time>2011-05-30T16:11:36Z</time></trkpt><trkpt lat="47.800597" lon="-4.279463"><ele>3.50</ele><time>2011-05-30T16:11:44Z</time></trkpt><trkpt lat="47.799606" lon="-4.279379"><ele>2.06</ele><time>2011-05-30T16:11:52Z</time></trkpt><trkpt lat="47.798749" lon="-4.279806"><ele>0.62</ele><time>2011-05-30T16:12:01Z</time></trkpt><trkpt lat="47.797872" lon="-4.279736"><ele>2.06</ele><time>2011-05-30T16:12:11Z</time></trkpt><trkpt lat="47.796900" lon="-4.280127"><ele>2.06</ele><time>2011-05-30T16:12:22Z</time></trkpt><trkpt lat="47.796152" lon="-4.280628"><ele>-1.79</ele><time>2011-05-30T16:12:37Z</time></trkpt><trkpt lat="47.796455" lon="-4.280684"><ele>2.06</ele><time>2011-05-30T16:23:22Z</time></trkpt><trkpt lat="47.797179" lon="-4.279829"><ele>6.39</ele><time>2011-05-30T16:23:35Z</time></trkpt><trkpt lat="47.798091" lon="-4.279715"><ele>8.31</ele><time>2011-05-30T16:23:46Z</time></trkpt><trkpt lat="47.798974" lon="-4.279622"><ele>4.94</ele><time>2011-05-30T16:23:56Z</time></trkpt><trkpt lat="47.799907" lon="-4.279359"><ele>6.39</ele><time>2011-05-30T16:24:09Z</time></trkpt><trkpt lat="47.800887" lon="-4.279437"><ele>10.71</ele><time>2011-05-30T16:24:18Z</time></trkpt><trkpt lat="47.801800" lon="-4.279479"><ele>10.71</ele><time>2011-05-30T16:24:26Z</time></trkpt><trkpt lat="47.802682" lon="-4.279988"><ele>12.63</ele><time>2011-05-30T16:24:42Z</time></trkpt><trkpt lat="47.803517" lon="-4.280466"><ele>10.71</ele><time>2011-05-30T16:24:52Z</time></trkpt><trkpt lat="47.803645" lon="-4.281499"><ele>11.67</ele><time>2011-05-30T16:25:09Z</time></trkpt><trkpt lat="47.803786" lon="-4.282170"><ele>7.35</ele><time>2011-05-30T16:25:48Z</time></trkpt><trkpt lat="47.803420" lon="-4.281317"><ele>7.35</ele><time>2011-05-30T16:26:07Z</time></trkpt><trkpt lat="47.803948" lon="-4.280693"><ele>10.23</ele><time>2011-05-30T16:26:27Z</time></trkpt><trkpt lat="47.804835" lon="-4.281013"><ele>10.71</ele><time>2011-05-30T16:26:55Z</time></trkpt><trkpt lat="47.805782" lon="-4.280962"><ele>11.67</ele><time>2011-05-30T16:27:31Z</time></trkpt><trkpt lat="47.806709" lon="-4.280885"><ele>11.19</ele><time>2011-05-30T16:27:50Z</time></trkpt><trkpt lat="47.807044" lon="-4.279564"><ele>13.12</ele><time>2011-05-30T16:28:33Z</time></trkpt><trkpt lat="47.807267" lon="-4.278189"><ele>11.67</ele><time>2011-05-30T16:28:59Z</time></trkpt><trkpt lat="47.806546" lon="-4.277352"><ele>10.23</ele><time>2011-05-30T16:29:09Z</time></trkpt><trkpt lat="47.806292" lon="-4.277095"><ele>10.23</ele><time>2011-05-30T16:29:31Z</time></trkpt><trkpt lat="47.806702" lon="-4.276892"><ele>6.87</ele><time>2011-05-30T16:30:03Z</time></trkpt><trkpt lat="47.807128" lon="-4.277860"><ele>13.12</ele><time>2011-05-30T16:30:17Z</time></trkpt><trkpt lat="47.807202" lon="-4.278860"><ele>14.08</ele><time>2011-05-30T16:30:55Z</time></trkpt><trkpt lat="47.806729" lon="-4.279776"><ele>11.67</ele><time>2011-05-30T16:31:28Z</time></trkpt><trkpt lat="47.805828" lon="-4.279319"><ele>13.12</ele><time>2011-05-30T16:31:38Z</time></trkpt><trkpt lat="47.805520" lon="-4.279937"><ele>11.19</ele><time>2011-05-30T16:31:52Z</time></trkpt><trkpt lat="47.806381" lon="-4.280367"><ele>12.15</ele><time>2011-05-30T16:32:25Z</time></trkpt><trkpt lat="47.805616" lon="-4.279938"><ele>11.19</ele><time>2011-05-30T16:32:54Z</time></trkpt><trkpt lat="47.805115" lon="-4.280790"><ele>11.67</ele><time>2011-05-30T16:33:07Z</time></trkpt><trkpt lat="47.805030" lon="-4.281303"><ele>9.27</ele><time>2011-05-30T16:34:20Z</time></trkpt><trkpt lat="47.804285" lon="-4.280927"><ele>11.67</ele><time>2011-05-30T16:34:48Z</time></trkpt><trkpt lat="47.803422" lon="-4.280415"><ele>9.27</ele><time>2011-05-30T16:35:06Z</time></trkpt><trkpt lat="47.802497" lon="-4.279921"><ele>8.31</ele><time>2011-05-30T16:35:17Z</time></trkpt><trkpt lat="47.802233" lon="-4.280006"><ele>7.83</ele><time>2011-05-30T16:36:01Z</time></trkpt><trkpt lat="47.801551" lon="-4.279445"><ele>6.87</ele><time>2011-05-30T16:36:29Z</time></trkpt><trkpt lat="47.800536" lon="-4.279464"><ele>4.46</ele><time>2011-05-30T16:36:39Z</time></trkpt><trkpt lat="47.799570" lon="-4.279365"><ele>2.06</ele><time>2011-05-30T16:36:48Z</time></trkpt><trkpt lat="47.798826" lon="-4.279812"><ele>0.62</ele><time>2011-05-30T16:40:58Z</time></trkpt></trkseg></trk><trk><name>Tracé actuel: 10 JUIN 2011 23:07</name><trkseg><trkpt lat="47.798826" lon="-4.279812"><ele>1.10</ele><time>2011-06-10T21:07:54Z</time></trkpt><trkpt lat="47.798826" lon="-4.279812"><ele>-49.37</ele><time>2011-06-10T21:08:21Z</time></trkpt></trkseg><trkseg><trkpt lat="47.798826" lon="-4.279812"><ele>-49.85</ele><time>2011-06-10T21:08:27Z</time></trkpt><trkpt lat="47.798826" lon="-4.279812"><ele>-49.85</ele><time>2011-06-10T21:08:30Z</time></trkpt></trkseg><trkseg><trkpt lat="47.798826" lon="-4.279812"><ele>1.10</ele><time>2011-06-10T21:16:04Z</time></trkpt><trkpt lat="47.798826" lon="-4.279812"><ele>-49.37</ele><time>2011-06-10T21:16:08Z</time></trkpt></trkseg></trk><trk><name>Tracé actuel: 11 JUIN 2011 04:40</name><trkseg><trkpt lat="47.833859" lon="-4.188409"><ele>-42.64</ele><time>2011-06-11T02:40:05Z</time></trkpt><trkpt lat="47.834267" lon="-4.189421"><ele>8.31</ele><time>2011-06-11T02:45:59Z</time></trkpt><trkpt lat="47.835032" lon="-4.189810"><ele>5.91</ele><time>2011-06-11T02:46:13Z</time></trkpt><trkpt lat="47.835476" lon="-4.191134"><ele>11.19</ele><time>2011-06-11T02:46:21Z</time></trkpt><trkpt lat="47.836018" lon="-4.192335"><ele>13.60</ele><time>2011-06-11T02:46:26Z</time></trkpt><trkpt lat="47.836679" lon="-4.193284"><ele>15.52</ele><time>2011-06-11T02:46:30Z</time></trkpt><trkpt lat="47.837520" lon="-4.194078"><ele>16.48</ele><time>2011-06-11T02:46:34Z</time></trkpt><trkpt lat="47.838391" lon="-4.194765"><ele>17.44</ele><time>2011-06-11T02:46:38Z</time></trkpt><trkpt lat="47.839246" lon="-4.195429"><ele>16.96</ele><time>2011-06-11T02:46:42Z</time></trkpt><trkpt lat="47.840078" lon="-4.196084"><ele>15.04</ele><time>2011-06-11T02:46:46Z</time></trkpt><trkpt lat="47.841073" lon="-4.196830"><ele>15.04</ele><time>2011-06-11T02:46:51Z</time></trkpt><trkpt lat="47.842012" lon="-4.197562"><ele>14.08</ele><time>2011-06-11T02:46:56Z</time></trkpt><trkpt lat="47.842925" lon="-4.198155"><ele>14.56</ele><time>2011-06-11T02:47:01Z</time></trkpt><trkpt lat="47.843819" lon="-4.198658"><ele>13.60</ele><time>2011-06-11T02:47:06Z</time></trkpt><trkpt lat="47.844676" lon="-4.199138"><ele>14.08</ele><time>2011-06-11T02:47:11Z</time></trkpt><trkpt lat="47.845623" lon="-4.199673"><ele>15.52</ele><time>2011-06-11T02:47:16Z</time></trkpt><trkpt lat="47.846622" lon="-4.200239"><ele>16.00</ele><time>2011-06-11T02:47:21Z</time></trkpt><trkpt lat="47.847672" lon="-4.200824"><ele>14.56</ele><time>2011-06-11T02:47:26Z</time></trkpt><trkpt lat="47.848516" lon="-4.201289"><ele>15.04</ele><time>2011-06-11T02:47:30Z</time></trkpt><trkpt lat="47.849548" lon="-4.201874"><ele>16.00</ele><time>2011-06-11T02:47:35Z</time></trkpt><trkpt lat="47.850525" lon="-4.202516"><ele>16.96</ele><time>2011-06-11T02:47:40Z</time></trkpt><trkpt lat="47.851388" lon="-4.203140"><ele>15.52</ele><time>2011-06-11T02:47:45Z</time></trkpt><trkpt lat="47.852241" lon="-4.203744"><ele>13.60</ele><time>2011-06-11T02:47:51Z</time></trkpt><trkpt lat="47.852415" lon="-4.204211"><ele>13.12</ele><time>2011-06-11T02:48:06Z</time></trkpt><trkpt lat="47.851868" lon="-4.205057"><ele>15.04</ele><time>2011-06-11T02:48:26Z</time></trkpt><trkpt lat="47.851594" lon="-4.206342"><ele>16.00</ele><time>2011-06-11T02:48:39Z</time></trkpt><trkpt lat="47.851732" lon="-4.205651"><ele>17.44</ele><time>2011-06-11T02:49:20Z</time></trkpt><trkpt lat="47.852045" lon="-4.204293"><ele>13.60</ele><time>2011-06-11T02:49:31Z</time></trkpt><trkpt lat="47.851328" lon="-4.203708"><ele>13.12</ele><time>2011-06-11T02:49:45Z</time></trkpt><trkpt lat="47.851326" lon="-4.202285"><ele>14.08</ele><time>2011-06-11T02:50:15Z</time></trkpt><trkpt lat="47.851285" lon="-4.200842"><ele>15.04</ele><time>2011-06-11T02:50:22Z</time></trkpt><trkpt lat="47.851234" lon="-4.199422"><ele>12.63</ele><time>2011-06-11T02:50:28Z</time></trkpt><trkpt lat="47.851291" lon="-4.200154"><ele>12.63</ele><time>2011-06-11T02:51:07Z</time></trkpt><trkpt lat="47.851349" lon="-4.201647"><ele>14.08</ele><time>2011-06-11T02:51:16Z</time></trkpt><trkpt lat="47.851287" lon="-4.203021"><ele>12.63</ele><time>2011-06-11T02:51:26Z</time></trkpt><trkpt lat="47.850471" lon="-4.202573"><ele>14.56</ele><time>2011-06-11T02:51:39Z</time></trkpt><trkpt lat="47.849630" lon="-4.202047"><ele>12.63</ele><time>2011-06-11T02:51:48Z</time></trkpt><trkpt lat="47.849358" lon="-4.203350"><ele>14.08</ele><time>2011-06-11T02:51:59Z</time></trkpt><trkpt lat="47.849438" lon="-4.202992"><ele>14.56</ele><time>2011-06-11T02:52:30Z</time></trkpt><trkpt lat="47.849818" lon="-4.202440"><ele>14.08</ele><time>2011-06-11T02:52:58Z</time></trkpt><trkpt lat="47.849549" lon="-4.202022"><ele>13.60</ele><time>2011-06-11T02:53:34Z</time></trkpt><trkpt lat="47.848816" lon="-4.201531"><ele>12.15</ele><time>2011-06-11T02:54:05Z</time></trkpt><trkpt lat="47.847996" lon="-4.201071"><ele>13.12</ele><time>2011-06-11T02:54:43Z</time></trkpt><trkpt lat="47.847445" lon="-4.202030"><ele>14.56</ele><time>2011-06-11T02:54:55Z</time></trkpt><trkpt lat="47.847726" lon="-4.201426"><ele>13.60</ele><time>2011-06-11T02:55:47Z</time></trkpt><trkpt lat="47.847174" lon="-4.200595"><ele>16.96</ele><time>2011-06-11T02:56:00Z</time></trkpt><trkpt lat="47.846426" lon="-4.199866"><ele>15.04</ele><time>2011-06-11T02:56:10Z</time></trkpt><trkpt lat="47.846510" lon="-4.198736"><ele>13.12</ele><time>2011-06-11T02:56:29Z</time></trkpt><trkpt lat="47.846043" lon="-4.199631"><ele>16.00</ele><time>2011-06-11T02:56:59Z</time></trkpt><trkpt lat="47.845147" lon="-4.199184"><ele>15.52</ele><time>2011-06-11T02:57:07Z</time></trkpt><trkpt lat="47.844274" lon="-4.198803"><ele>10.71</ele><time>2011-06-11T02:57:16Z</time></trkpt><trkpt lat="47.843291" lon="-4.198391"><ele>14.56</ele><time>2011-06-11T02:57:29Z</time></trkpt><trkpt lat="47.842296" lon="-4.197816"><ele>14.56</ele><time>2011-06-11T02:57:35Z</time></trkpt><trkpt lat="47.841495" lon="-4.197153"><ele>12.63</ele><time>2011-06-11T02:57:41Z</time></trkpt><trkpt lat="47.840840" lon="-4.196244"><ele>14.56</ele><time>2011-06-11T02:57:48Z</time></trkpt><trkpt lat="47.840185" lon="-4.195312"><ele>14.56</ele><time>2011-06-11T02:57:54Z</time></trkpt><trkpt lat="47.839553" lon="-4.194130"><ele>13.60</ele><time>2011-06-11T02:58:01Z</time></trkpt><trkpt lat="47.838914" lon="-4.193163"><ele>12.15</ele><time>2011-06-11T02:58:11Z</time></trkpt><trkpt lat="47.838802" lon="-4.192114"><ele>12.15</ele><time>2011-06-11T02:59:34Z</time></trkpt><trkpt lat="47.839217" lon="-4.190668"><ele>11.67</ele><time>2011-06-11T02:59:43Z</time></trkpt><trkpt lat="47.839377" lon="-4.189191"><ele>11.19</ele><time>2011-06-11T02:59:49Z</time></trkpt><trkpt lat="47.839722" lon="-4.187670"><ele>9.75</ele><time>2011-06-11T02:59:55Z</time></trkpt><trkpt lat="47.840123" lon="-4.186339"><ele>9.27</ele><time>2011-06-11T03:00:02Z</time></trkpt><trkpt lat="47.840862" lon="-4.186732"><ele>10.23</ele><time>2011-06-11T03:00:17Z</time></trkpt><trkpt lat="47.841648" lon="-4.187589"><ele>7.83</ele><time>2011-06-11T03:00:30Z</time></trkpt><trkpt lat="47.842330" lon="-4.188477"><ele>10.23</ele><time>2011-06-11T03:01:07Z</time></trkpt><trkpt lat="47.841644" lon="-4.187670"><ele>10.23</ele><time>2011-06-11T03:01:24Z</time></trkpt><trkpt lat="47.840920" lon="-4.186792"><ele>12.63</ele><time>2011-06-11T03:01:37Z</time></trkpt><trkpt lat="47.840112" lon="-4.186478"><ele>11.67</ele><time>2011-06-11T03:01:50Z</time></trkpt><trkpt lat="47.839685" lon="-4.187765"><ele>10.71</ele><time>2011-06-11T03:01:59Z</time></trkpt><trkpt lat="47.838839" lon="-4.188463"><ele>13.12</ele><time>2011-06-11T03:02:07Z</time></trkpt><trkpt lat="47.838164" lon="-4.189207"><ele>7.83</ele><time>2011-06-11T03:02:44Z</time></trkpt><trkpt lat="47.838901" lon="-4.188362"><ele>12.63</ele><time>2011-06-11T03:02:58Z</time></trkpt><trkpt lat="47.839657" lon="-4.188048"><ele>8.31</ele><time>2011-06-11T03:03:09Z</time></trkpt><trkpt lat="47.839357" lon="-4.189563"><ele>14.08</ele><time>2011-06-11T03:03:18Z</time></trkpt><trkpt lat="47.839205" lon="-4.190925"><ele>12.15</ele><time>2011-06-11T03:03:25Z</time></trkpt><trkpt lat="47.838874" lon="-4.191996"><ele>14.08</ele><time>2011-06-11T03:04:01Z</time></trkpt><trkpt lat="47.838248" lon="-4.192585"><ele>13.60</ele><time>2011-06-11T03:04:15Z</time></trkpt><trkpt lat="47.837420" lon="-4.191807"><ele>13.12</ele><time>2011-06-11T03:04:24Z</time></trkpt><trkpt lat="47.837604" lon="-4.191971"><ele>10.23</ele><time>2011-06-11T03:06:11Z</time></trkpt><trkpt lat="47.837406" lon="-4.193349"><ele>12.15</ele><time>2011-06-11T03:06:26Z</time></trkpt><trkpt lat="47.836777" lon="-4.193461"><ele>15.04</ele><time>2011-06-11T03:06:58Z</time></trkpt><trkpt lat="47.836199" lon="-4.194117"><ele>13.60</ele><time>2011-06-11T03:07:10Z</time></trkpt><trkpt lat="47.835771" lon="-4.193810"><ele>12.63</ele><time>2011-06-11T03:07:23Z</time></trkpt><trkpt lat="47.836069" lon="-4.194381"><ele>12.15</ele><time>2011-06-11T03:08:23Z</time></trkpt><trkpt lat="47.836417" lon="-4.193253"><ele>12.63</ele><time>2011-06-11T03:08:39Z</time></trkpt><trkpt lat="47.836593" lon="-4.191973"><ele>13.12</ele><time>2011-06-11T03:09:12Z</time></trkpt><trkpt lat="47.836811" lon="-4.191391"><ele>11.19</ele><time>2011-06-11T03:10:21Z</time></trkpt><trkpt lat="47.836096" lon="-4.190580"><ele>10.71</ele><time>2011-06-11T03:10:36Z</time></trkpt><trkpt lat="47.835295" lon="-4.189921"><ele>8.79</ele><time>2011-06-11T03:13:29Z</time></trkpt><trkpt lat="47.834880" lon="-4.190868"><ele>11.67</ele><time>2011-06-11T03:13:43Z</time></trkpt><trkpt lat="47.835067" lon="-4.192274"><ele>14.08</ele><time>2011-06-11T03:13:53Z</time></trkpt><trkpt lat="47.834868" lon="-4.193707"><ele>16.00</ele><time>2011-06-11T03:14:03Z</time></trkpt><trkpt lat="47.834855" lon="-4.193858"><ele>12.63</ele><time>2011-06-11T03:14:33Z</time></trkpt><trkpt lat="47.835016" lon="-4.193147"><ele>12.63</ele><time>2011-06-11T03:15:40Z</time></trkpt><trkpt lat="47.835021" lon="-4.191855"><ele>14.08</ele><time>2011-06-11T03:15:58Z</time></trkpt><trkpt lat="47.834856" lon="-4.190410"><ele>10.23</ele><time>2011-06-11T03:16:09Z</time></trkpt><trkpt lat="47.834789" lon="-4.189040"><ele>9.75</ele><time>2011-06-11T03:16:20Z</time></trkpt><trkpt lat="47.834376" lon="-4.187631"><ele>16.00</ele><time>2011-06-11T03:16:28Z</time></trkpt><trkpt lat="47.834031" lon="-4.186335"><ele>16.96</ele><time>2011-06-11T03:16:34Z</time></trkpt><trkpt lat="47.833754" lon="-4.184971"><ele>14.56</ele><time>2011-06-11T03:16:41Z</time></trkpt><trkpt lat="47.833543" lon="-4.183680"><ele>10.23</ele><time>2011-06-11T03:16:53Z</time></trkpt><trkpt lat="47.833151" lon="-4.182525"><ele>10.23</ele><time>2011-06-11T03:17:20Z</time></trkpt><trkpt lat="47.832930" lon="-4.182092"><ele>9.27</ele><time>2011-06-11T03:18:23Z</time></trkpt><trkpt lat="47.832778" lon="-4.181632"><ele>9.27</ele><time>2011-06-11T03:19:02Z</time></trkpt><trkpt lat="47.832612" lon="-4.180350"><ele>12.63</ele><time>2011-06-11T03:19:13Z</time></trkpt><trkpt lat="47.832583" lon="-4.179446"><ele>7.83</ele><time>2011-06-11T03:19:25Z</time></trkpt><trkpt lat="47.833291" lon="-4.180151"><ele>10.71</ele><time>2011-06-11T03:19:50Z</time></trkpt><trkpt lat="47.833720" lon="-4.181410"><ele>12.15</ele><time>2011-06-11T03:19:59Z</time></trkpt><trkpt lat="47.833680" lon="-4.181274"><ele>10.71</ele><time>2011-06-11T03:20:29Z</time></trkpt><trkpt lat="47.833248" lon="-4.180025"><ele>10.23</ele><time>2011-06-11T03:20:38Z</time></trkpt><trkpt lat="47.832601" lon="-4.179544"><ele>6.39</ele><time>2011-06-11T03:21:46Z</time></trkpt><trkpt lat="47.832317" lon="-4.178694"><ele>7.83</ele><time>2011-06-11T03:21:59Z</time></trkpt><trkpt lat="47.831794" lon="-4.177730"><ele>7.35</ele><time>2011-06-11T03:22:32Z</time></trkpt><trkpt lat="47.831238" lon="-4.178764"><ele>9.75</ele><time>2011-06-11T03:23:27Z</time></trkpt><trkpt lat="47.831179" lon="-4.180171"><ele>12.15</ele><time>2011-06-11T03:23:56Z</time></trkpt><trkpt lat="47.831470" lon="-4.180823"><ele>9.27</ele><time>2011-06-11T03:24:49Z</time></trkpt><trkpt lat="47.831592" lon="-4.180020"><ele>7.83</ele><time>2011-06-11T03:25:08Z</time></trkpt><trkpt lat="47.832331" lon="-4.179405"><ele>7.35</ele><time>2011-06-11T03:25:39Z</time></trkpt><trkpt lat="47.832240" lon="-4.178088"><ele>6.39</ele><time>2011-06-11T03:25:48Z</time></trkpt><trkpt lat="47.831694" lon="-4.177149"><ele>7.83</ele><time>2011-06-11T03:26:01Z</time></trkpt><trkpt lat="47.831239" lon="-4.176191"><ele>8.31</ele><time>2011-06-11T03:27:06Z</time></trkpt><trkpt lat="47.830355" lon="-4.175511"><ele>10.71</ele><time>2011-06-11T03:27:13Z</time></trkpt><trkpt lat="47.829838" lon="-4.176153"><ele>8.79</ele><time>2011-06-11T03:27:42Z</time></trkpt><trkpt lat="47.829457" lon="-4.177378"><ele>6.39</ele><time>2011-06-11T03:27:52Z</time></trkpt><trkpt lat="47.829226" lon="-4.177210"><ele>7.83</ele><time>2011-06-11T03:28:34Z</time></trkpt><trkpt lat="47.829790" lon="-4.176501"><ele>6.39</ele><time>2011-06-11T03:28:47Z</time></trkpt><trkpt lat="47.829741" lon="-4.175336"><ele>6.87</ele><time>2011-06-11T03:29:21Z</time></trkpt><trkpt lat="47.829686" lon="-4.174240"><ele>7.83</ele><time>2011-06-11T03:30:05Z</time></trkpt><trkpt lat="47.829768" lon="-4.172861"><ele>6.87</ele><time>2011-06-11T03:30:14Z</time></trkpt><trkpt lat="47.828886" lon="-4.172501"><ele>10.23</ele><time>2011-06-11T03:32:04Z</time></trkpt><trkpt lat="47.828058" lon="-4.172294"><ele>4.46</ele><time>2011-06-11T03:32:44Z</time></trkpt><trkpt lat="47.829019" lon="-4.172588"><ele>8.31</ele><time>2011-06-11T03:33:17Z</time></trkpt><trkpt lat="47.829145" lon="-4.173501"><ele>7.83</ele><time>2011-06-11T03:33:38Z</time></trkpt><trkpt lat="47.828720" lon="-4.174453"><ele>8.31</ele><time>2011-06-11T03:34:27Z</time></trkpt><trkpt lat="47.827935" lon="-4.174369"><ele>8.31</ele><time>2011-06-11T03:34:51Z</time></trkpt><trkpt lat="47.827750" lon="-4.174742"><ele>6.39</ele><time>2011-06-11T03:35:46Z</time></trkpt><trkpt lat="47.828508" lon="-4.174624"><ele>9.27</ele><time>2011-06-11T03:35:59Z</time></trkpt><trkpt lat="47.828308" lon="-4.175723"><ele>7.83</ele><time>2011-06-11T03:36:30Z</time></trkpt><trkpt lat="47.827964" lon="-4.176927"><ele>10.23</ele><time>2011-06-11T03:36:43Z</time></trkpt><trkpt lat="47.827910" lon="-4.178246"><ele>9.75</ele><time>2011-06-11T03:36:54Z</time></trkpt><trkpt lat="47.827500" lon="-4.179461"><ele>8.31</ele><time>2011-06-11T03:37:04Z</time></trkpt><trkpt lat="47.827086" lon="-4.180756"><ele>12.15</ele><time>2011-06-11T03:37:26Z</time></trkpt><trkpt lat="47.826796" lon="-4.182111"><ele>11.67</ele><time>2011-06-11T03:37:34Z</time></trkpt><trkpt lat="47.826355" lon="-4.183282"><ele>11.19</ele><time>2011-06-11T03:38:27Z</time></trkpt><trkpt lat="47.826882" lon="-4.182737"><ele>12.15</ele><time>2011-06-11T03:38:51Z</time></trkpt><trkpt lat="47.827546" lon="-4.183068"><ele>11.19</ele><time>2011-06-11T03:39:04Z</time></trkpt><trkpt lat="47.827871" lon="-4.183844"><ele>13.60</ele><time>2011-06-11T03:39:42Z</time></trkpt><trkpt lat="47.828636" lon="-4.183871"><ele>11.67</ele><time>2011-06-11T03:39:54Z</time></trkpt><trkpt lat="47.828480" lon="-4.182503"><ele>10.71</ele><time>2011-06-11T03:40:04Z</time></trkpt><trkpt lat="47.828359" lon="-4.181348"><ele>9.75</ele><time>2011-06-11T03:40:47Z</time></trkpt><trkpt lat="47.828379" lon="-4.180255"><ele>9.27</ele><time>2011-06-11T03:41:37Z</time></trkpt><trkpt lat="47.827537" lon="-4.179687"><ele>8.79</ele><time>2011-06-11T03:41:49Z</time></trkpt><trkpt lat="47.827822" lon="-4.178513"><ele>11.67</ele><time>2011-06-11T03:42:05Z</time></trkpt><trkpt lat="47.827911" lon="-4.177167"><ele>7.83</ele><time>2011-06-11T03:42:16Z</time></trkpt><trkpt lat="47.828142" lon="-4.175876"><ele>8.31</ele><time>2011-06-11T03:42:27Z</time></trkpt><trkpt lat="47.827266" lon="-4.175632"><ele>7.35</ele><time>2011-06-11T03:43:00Z</time></trkpt><trkpt lat="47.827191" lon="-4.174785"><ele>4.94</ele><time>2011-06-11T03:43:38Z</time></trkpt><trkpt lat="47.826844" lon="-4.175867"><ele>6.87</ele><time>2011-06-11T03:44:24Z</time></trkpt><trkpt lat="47.826850" lon="-4.175885"><ele>6.87</ele><time>2011-06-11T03:45:15Z</time></trkpt><trkpt lat="47.826062" lon="-4.175626"><ele>9.75</ele><time>2011-06-11T03:45:30Z</time></trkpt><trkpt lat="47.825094" lon="-4.175549"><ele>11.19</ele><time>2011-06-11T03:45:38Z</time></trkpt><trkpt lat="47.824215" lon="-4.175093"><ele>12.15</ele><time>2011-06-11T03:45:45Z</time></trkpt><trkpt lat="47.823344" lon="-4.174462"><ele>10.23</ele><time>2011-06-11T03:45:52Z</time></trkpt><trkpt lat="47.822449" lon="-4.173923"><ele>6.87</ele><time>2011-06-11T03:46:00Z</time></trkpt><trkpt lat="47.821598" lon="-4.173317"><ele>7.83</ele><time>2011-06-11T03:46:07Z</time></trkpt><trkpt lat="47.820816" lon="-4.173343"><ele>6.87</ele><time>2011-06-11T03:46:18Z</time></trkpt><trkpt lat="47.820772" lon="-4.174836"><ele>11.67</ele><time>2011-06-11T03:46:27Z</time></trkpt><trkpt lat="47.820350" lon="-4.175697"><ele>8.31</ele><time>2011-06-11T03:47:07Z</time></trkpt><trkpt lat="47.820695" lon="-4.175717"><ele>7.35</ele><time>2011-06-11T03:48:02Z</time></trkpt><trkpt lat="47.820770" lon="-4.174317"><ele>9.27</ele><time>2011-06-11T03:48:14Z</time></trkpt><trkpt lat="47.820836" lon="-4.172918"><ele>5.42</ele><time>2011-06-11T03:48:26Z</time></trkpt><trkpt lat="47.819906" lon="-4.172821"><ele>6.39</ele><time>2011-06-11T03:48:38Z</time></trkpt><trkpt lat="47.820092" lon="-4.171496"><ele>9.75</ele><time>2011-06-11T03:49:06Z</time></trkpt><trkpt lat="47.820366" lon="-4.170154"><ele>10.23</ele><time>2011-06-11T03:49:12Z</time></trkpt><trkpt lat="47.820480" lon="-4.168755"><ele>5.42</ele><time>2011-06-11T03:49:20Z</time></trkpt><trkpt lat="47.820482" lon="-4.167367"><ele>4.94</ele><time>2011-06-11T03:49:55Z</time></trkpt><trkpt lat="47.820657" lon="-4.165998"><ele>5.91</ele><time>2011-06-11T03:50:36Z</time></trkpt><trkpt lat="47.821370" lon="-4.165189"><ele>3.50</ele><time>2011-06-11T03:51:18Z</time></trkpt><trkpt lat="47.822045" lon="-4.165954"><ele>2.54</ele><time>2011-06-11T03:51:34Z</time></trkpt><trkpt lat="47.821565" lon="-4.165202"><ele>3.02</ele><time>2011-06-11T03:52:18Z</time></trkpt><trkpt lat="47.822079" lon="-4.164229"><ele>5.42</ele><time>2011-06-11T03:52:32Z</time></trkpt><trkpt lat="47.822760" lon="-4.164096"><ele>3.02</ele><time>2011-06-11T03:52:45Z</time></trkpt><trkpt lat="47.823017" lon="-4.163679"><ele>3.98</ele><time>2011-06-11T03:53:33Z</time></trkpt><trkpt lat="47.823904" lon="-4.164122"><ele>2.54</ele><time>2011-06-11T03:54:49Z</time></trkpt><trkpt lat="47.824813" lon="-4.164795"><ele>7.35</ele><time>2011-06-11T03:54:59Z</time></trkpt><trkpt lat="47.825216" lon="-4.165600"><ele>3.98</ele><time>2011-06-11T03:55:22Z</time></trkpt><trkpt lat="47.824704" lon="-4.164755"><ele>6.87</ele><time>2011-06-11T03:55:47Z</time></trkpt><trkpt lat="47.824012" lon="-4.164987"><ele>3.98</ele><time>2011-06-11T03:56:01Z</time></trkpt><trkpt lat="47.824400" lon="-4.166157"><ele>5.42</ele><time>2011-06-11T03:56:12Z</time></trkpt><trkpt lat="47.825180" lon="-4.166862"><ele>3.98</ele><time>2011-06-11T03:56:40Z</time></trkpt><trkpt lat="47.825769" lon="-4.167059"><ele>4.94</ele><time>2011-06-11T03:57:47Z</time></trkpt><trkpt lat="47.825857" lon="-4.168342"><ele>7.35</ele><time>2011-06-11T03:57:58Z</time></trkpt><trkpt lat="47.825967" lon="-4.169667"><ele>3.50</ele><time>2011-06-11T03:58:07Z</time></trkpt><trkpt lat="47.826675" lon="-4.169249"><ele>4.46</ele><time>2011-06-11T03:58:20Z</time></trkpt><trkpt lat="47.825987" lon="-4.169719"><ele>2.54</ele><time>2011-06-11T03:58:59Z</time></trkpt><trkpt lat="47.825832" lon="-4.168329"><ele>5.91</ele><time>2011-06-11T03:59:11Z</time></trkpt><trkpt lat="47.825869" lon="-4.166860"><ele>8.31</ele><time>2011-06-11T03:59:19Z</time></trkpt><trkpt lat="47.826349" lon="-4.165814"><ele>5.91</ele><time>2011-06-11T03:59:32Z</time></trkpt><trkpt lat="47.826485" lon="-4.164443"><ele>5.91</ele><time>2011-06-11T04:00:07Z</time></trkpt><trkpt lat="47.826697" lon="-4.163199"><ele>3.02</ele><time>2011-06-11T04:00:33Z</time></trkpt><trkpt lat="47.827571" lon="-4.163389"><ele>4.94</ele><time>2011-06-11T04:01:21Z</time></trkpt><trkpt lat="47.828425" lon="-4.162793"><ele>5.42</ele><time>2011-06-11T04:01:52Z</time></trkpt><trkpt lat="47.829303" lon="-4.163057"><ele>5.91</ele><time>2011-06-11T04:02:02Z</time></trkpt><trkpt lat="47.830170" lon="-4.163579"><ele>4.94</ele><time>2011-06-11T04:02:26Z</time></trkpt><trkpt lat="47.831019" lon="-4.163942"><ele>3.02</ele><time>2011-06-11T04:03:15Z</time></trkpt><trkpt lat="47.831620" lon="-4.163906"><ele>2.54</ele><time>2011-06-11T04:03:57Z</time></trkpt><trkpt lat="47.831266" lon="-4.164359"><ele>3.02</ele><time>2011-06-11T04:04:36Z</time></trkpt><trkpt lat="47.830495" lon="-4.163708"><ele>4.94</ele><time>2011-06-11T04:04:46Z</time></trkpt><trkpt lat="47.829551" lon="-4.163181"><ele>6.39</ele><time>2011-06-11T04:04:54Z</time></trkpt><trkpt lat="47.828680" lon="-4.162728"><ele>4.46</ele><time>2011-06-11T04:05:02Z</time></trkpt><trkpt lat="47.827776" lon="-4.163284"><ele>8.31</ele><time>2011-06-11T04:05:12Z</time></trkpt><trkpt lat="47.826825" lon="-4.163254"><ele>5.91</ele><time>2011-06-11T04:05:19Z</time></trkpt><trkpt lat="47.826466" lon="-4.164325"><ele>8.31</ele><time>2011-06-11T04:05:31Z</time></trkpt><trkpt lat="47.826380" lon="-4.165770"><ele>6.87</ele><time>2011-06-11T04:05:39Z</time></trkpt><trkpt lat="47.826671" lon="-4.167031"><ele>5.42</ele><time>2011-06-11T04:06:03Z</time></trkpt><trkpt lat="47.827361" lon="-4.167969"><ele>7.35</ele><time>2011-06-11T04:06:26Z</time></trkpt><trkpt lat="47.827947" lon="-4.167336"><ele>7.83</ele><time>2011-06-11T04:06:48Z</time></trkpt><trkpt lat="47.828245" lon="-4.166072"><ele>4.46</ele><time>2011-06-11T04:06:57Z</time></trkpt><trkpt lat="47.827595" lon="-4.166352"><ele>6.39</ele><time>2011-06-11T04:07:08Z</time></trkpt><trkpt lat="47.828037" lon="-4.165882"><ele>4.94</ele><time>2011-06-11T04:07:44Z</time></trkpt><trkpt lat="47.828854" lon="-4.166530"><ele>5.91</ele><time>2011-06-11T04:08:11Z</time></trkpt><trkpt lat="47.829379" lon="-4.165540"><ele>4.46</ele><time>2011-06-11T04:08:25Z</time></trkpt><trkpt lat="47.829772" lon="-4.164625"><ele>3.98</ele><time>2011-06-11T04:08:56Z</time></trkpt><trkpt lat="47.829291" lon="-4.163824"><ele>4.46</ele><time>2011-06-11T04:09:39Z</time></trkpt><trkpt lat="47.828861" lon="-4.164561"><ele>3.98</ele><time>2011-06-11T04:10:06Z</time></trkpt><trkpt lat="47.829254" lon="-4.165543"><ele>6.39</ele><time>2011-06-11T04:10:37Z</time></trkpt><trkpt lat="47.830241" lon="-4.165441"><ele>6.39</ele><time>2011-06-11T04:10:46Z</time></trkpt><trkpt lat="47.830853" lon="-4.164660"><ele>4.94</ele><time>2011-06-11T04:10:55Z</time></trkpt><trkpt lat="47.831477" lon="-4.164615"><ele>3.98</ele><time>2011-06-11T04:11:08Z</time></trkpt><trkpt lat="47.832080" lon="-4.165640"><ele>5.42</ele><time>2011-06-11T04:11:16Z</time></trkpt><trkpt lat="47.831361" lon="-4.166207"><ele>6.39</ele><time>2011-06-11T04:11:28Z</time></trkpt><trkpt lat="47.831207" lon="-4.166235"><ele>4.94</ele><time>2011-06-11T04:12:08Z</time></trkpt><trkpt lat="47.831686" lon="-4.167173"><ele>6.39</ele><time>2011-06-11T04:12:36Z</time></trkpt><trkpt lat="47.831527" lon="-4.168302"><ele>5.42</ele><time>2011-06-11T04:12:50Z</time></trkpt><trkpt lat="47.830554" lon="-4.168389"><ele>7.35</ele><time>2011-06-11T04:12:59Z</time></trkpt><trkpt lat="47.829985" lon="-4.169318"><ele>3.98</ele><time>2011-06-11T04:13:10Z</time></trkpt><trkpt lat="47.829775" lon="-4.170629"><ele>5.42</ele><time>2011-06-11T04:14:28Z</time></trkpt><trkpt lat="47.830139" lon="-4.171499"><ele>6.87</ele><time>2011-06-11T04:15:04Z</time></trkpt><trkpt lat="47.830477" lon="-4.170378"><ele>5.91</ele><time>2011-06-11T04:16:36Z</time></trkpt><trkpt lat="47.830988" lon="-4.169664"><ele>5.42</ele><time>2011-06-11T04:17:18Z</time></trkpt><trkpt lat="47.831086" lon="-4.169180"><ele>3.98</ele><time>2011-06-11T04:18:41Z</time></trkpt><trkpt lat="47.830981" lon="-4.170395"><ele>6.39</ele><time>2011-06-11T04:19:06Z</time></trkpt><trkpt lat="47.831861" lon="-4.170731"><ele>7.35</ele><time>2011-06-11T04:20:32Z</time></trkpt><trkpt lat="47.832490" lon="-4.170039"><ele>8.31</ele><time>2011-06-11T04:20:47Z</time></trkpt><trkpt lat="47.833148" lon="-4.169859"><ele>5.91</ele><time>2011-06-11T04:21:08Z</time></trkpt><trkpt lat="47.833734" lon="-4.170590"><ele>2.54</ele><time>2011-06-11T04:21:47Z</time></trkpt><trkpt lat="47.834138" lon="-4.171024"><ele>4.46</ele><time>2011-06-11T04:22:02Z</time></trkpt><trkpt lat="47.834048" lon="-4.172401"><ele>4.46</ele><time>2011-06-11T04:22:39Z</time></trkpt><trkpt lat="47.834559" lon="-4.173519"><ele>4.94</ele><time>2011-06-11T04:22:47Z</time></trkpt><trkpt lat="47.835182" lon="-4.174682"><ele>6.39</ele><time>2011-06-11T04:22:56Z</time></trkpt><trkpt lat="47.835574" lon="-4.175840"><ele>3.50</ele><time>2011-06-11T04:23:06Z</time></trkpt><trkpt lat="47.835801" lon="-4.176896"><ele>5.42</ele><time>2011-06-11T04:23:18Z</time></trkpt><trkpt lat="47.836765" lon="-4.176586"><ele>5.42</ele><time>2011-06-11T04:23:27Z</time></trkpt><trkpt lat="47.836397" lon="-4.176776"><ele>4.46</ele><time>2011-06-11T04:24:15Z</time></trkpt><trkpt lat="47.835484" lon="-4.176576"><ele>6.39</ele><time>2011-06-11T04:24:25Z</time></trkpt><trkpt lat="47.834837" lon="-4.175410"><ele>9.27</ele><time>2011-06-11T04:24:32Z</time></trkpt><trkpt lat="47.834203" lon="-4.174209"><ele>10.71</ele><time>2011-06-11T04:24:38Z</time></trkpt><trkpt lat="47.833574" lon="-4.173297"><ele>3.98</ele><time>2011-06-11T04:24:45Z</time></trkpt><trkpt lat="47.833612" lon="-4.172056"><ele>6.39</ele><time>2011-06-11T04:24:58Z</time></trkpt><trkpt lat="47.833801" lon="-4.170639"><ele>6.39</ele><time>2011-06-11T04:25:05Z</time></trkpt><trkpt lat="47.834542" lon="-4.169882"><ele>2.54</ele><time>2011-06-11T04:25:15Z</time></trkpt><trkpt lat="47.835312" lon="-4.169592"><ele>3.02</ele><time>2011-06-11T04:26:16Z</time></trkpt><trkpt lat="47.835794" lon="-4.170398"><ele>3.50</ele><time>2011-06-11T04:26:29Z</time></trkpt><trkpt lat="47.835926" lon="-4.171785"><ele>2.54</ele><time>2011-06-11T04:27:19Z</time></trkpt><trkpt lat="47.835931" lon="-4.171659"><ele>3.98</ele><time>2011-06-11T04:28:02Z</time></trkpt><trkpt lat="47.835882" lon="-4.170274"><ele>5.42</ele><time>2011-06-11T04:28:11Z</time></trkpt><trkpt lat="47.835265" lon="-4.169491"><ele>3.98</ele><time>2011-06-11T04:28:23Z</time></trkpt><trkpt lat="47.834351" lon="-4.169126"><ele>6.87</ele><time>2011-06-11T04:29:06Z</time></trkpt><trkpt lat="47.833523" lon="-4.169305"><ele>6.39</ele><time>2011-06-11T04:29:38Z</time></trkpt><trkpt lat="47.832633" lon="-4.168912"><ele>6.87</ele><time>2011-06-11T04:30:05Z</time></trkpt><trkpt lat="47.833339" lon="-4.168828"><ele>6.39</ele><time>2011-06-11T04:30:20Z</time></trkpt><trkpt lat="47.834241" lon="-4.169075"><ele>6.39</ele><time>2011-06-11T04:31:18Z</time></trkpt><trkpt lat="47.834832" lon="-4.168028"><ele>5.91</ele><time>2011-06-11T04:31:50Z</time></trkpt><trkpt lat="47.834275" lon="-4.167112"><ele>5.42</ele><time>2011-06-11T04:32:04Z</time></trkpt><trkpt lat="47.834327" lon="-4.167104"><ele>5.42</ele><time>2011-06-11T04:33:05Z</time></trkpt><trkpt lat="47.834596" lon="-4.165857"><ele>5.91</ele><time>2011-06-11T04:33:18Z</time></trkpt><trkpt lat="47.834365" lon="-4.164723"><ele>2.54</ele><time>2011-06-11T04:33:41Z</time></trkpt><trkpt lat="47.834289" lon="-4.165310"><ele>4.46</ele><time>2011-06-11T04:34:12Z</time></trkpt><trkpt lat="47.833383" lon="-4.165749"><ele>7.35</ele><time>2011-06-11T04:34:21Z</time></trkpt><trkpt lat="47.832477" lon="-4.166001"><ele>3.98</ele><time>2011-06-11T04:34:59Z</time></trkpt><trkpt lat="47.832580" lon="-4.166527"><ele>8.79</ele><time>2011-06-11T04:36:02Z</time></trkpt><trkpt lat="47.832726" lon="-4.167833"><ele>5.91</ele><time>2011-06-11T04:36:45Z</time></trkpt><trkpt lat="47.833624" lon="-4.167647"><ele>7.83</ele><time>2011-06-11T04:36:58Z</time></trkpt><trkpt lat="47.833854" lon="-4.167653"><ele>6.87</ele><time>2011-06-11T04:37:41Z</time></trkpt><trkpt lat="47.832909" lon="-4.167655"><ele>5.42</ele><time>2011-06-11T04:37:59Z</time></trkpt><trkpt lat="47.832689" lon="-4.168903"><ele>7.35</ele><time>2011-06-11T04:38:13Z</time></trkpt><trkpt lat="47.832422" lon="-4.170325"><ele>10.23</ele><time>2011-06-11T04:38:22Z</time></trkpt><trkpt lat="47.832117" lon="-4.171640"><ele>9.27</ele><time>2011-06-11T04:38:29Z</time></trkpt><trkpt lat="47.831855" lon="-4.172885"><ele>5.91</ele><time>2011-06-11T04:39:01Z</time></trkpt><trkpt lat="47.831209" lon="-4.172777"><ele>6.87</ele><time>2011-06-11T04:40:02Z</time></trkpt><trkpt lat="47.831348" lon="-4.173171"><ele>4.94</ele><time>2011-06-11T04:40:27Z</time></trkpt><trkpt lat="47.831800" lon="-4.174035"><ele>5.91</ele><time>2011-06-11T04:41:08Z</time></trkpt><trkpt lat="47.832298" lon="-4.174861"><ele>3.50</ele><time>2011-06-11T04:41:20Z</time></trkpt><trkpt lat="47.832682" lon="-4.174831"><ele>4.46</ele><time>2011-06-11T04:42:21Z</time></trkpt><trkpt lat="47.832704" lon="-4.176049"><ele>6.87</ele><time>2011-06-11T04:42:36Z</time></trkpt><trkpt lat="47.832420" lon="-4.177427"><ele>6.87</ele><time>2011-06-11T04:43:22Z</time></trkpt><trkpt lat="47.832415" lon="-4.178902"><ele>9.27</ele><time>2011-06-11T04:43:30Z</time></trkpt><trkpt lat="47.832116" lon="-4.179882"><ele>8.79</ele><time>2011-06-11T04:43:42Z</time></trkpt><trkpt lat="47.831223" lon="-4.180648"><ele>14.08</ele><time>2011-06-11T04:43:50Z</time></trkpt><trkpt lat="47.830733" lon="-4.181805"><ele>12.63</ele><time>2011-06-11T04:44:22Z</time></trkpt><trkpt lat="47.830295" lon="-4.183107"><ele>13.60</ele><time>2011-06-11T04:44:30Z</time></trkpt><trkpt lat="47.830007" lon="-4.182488"><ele>13.60</ele><time>2011-06-11T04:44:44Z</time></trkpt><trkpt lat="47.830440" lon="-4.181271"><ele>9.75</ele><time>2011-06-11T04:45:18Z</time></trkpt><trkpt lat="47.829821" lon="-4.180574"><ele>7.83</ele><time>2011-06-11T04:45:34Z</time></trkpt><trkpt lat="47.829379" lon="-4.181595"><ele>11.19</ele><time>2011-06-11T04:46:27Z</time></trkpt><trkpt lat="47.829578" lon="-4.182897"><ele>11.19</ele><time>2011-06-11T04:47:28Z</time></trkpt><trkpt lat="47.830117" lon="-4.183693"><ele>13.12</ele><time>2011-06-11T04:47:42Z</time></trkpt><trkpt lat="47.829786" lon="-4.184955"><ele>11.67</ele><time>2011-06-11T04:48:28Z</time></trkpt><trkpt lat="47.828950" lon="-4.184415"><ele>11.19</ele><time>2011-06-11T04:48:39Z</time></trkpt><trkpt lat="47.828040" lon="-4.183894"><ele>11.19</ele><time>2011-06-11T04:49:12Z</time></trkpt><trkpt lat="47.827366" lon="-4.184576"><ele>13.60</ele><time>2011-06-11T04:49:37Z</time></trkpt><trkpt lat="47.826895" lon="-4.185771"><ele>15.04</ele><time>2011-06-11T04:50:12Z</time></trkpt><trkpt lat="47.827221" lon="-4.186451"><ele>12.15</ele><time>2011-06-11T04:50:26Z</time></trkpt><trkpt lat="47.827191" lon="-4.186662"><ele>12.15</ele><time>2011-06-11T04:51:18Z</time></trkpt><trkpt lat="47.827857" lon="-4.186475"><ele>12.63</ele><time>2011-06-11T04:51:43Z</time></trkpt><trkpt lat="47.828470" lon="-4.186981"><ele>14.56</ele><time>2011-06-11T04:52:03Z</time></trkpt><trkpt lat="47.829080" lon="-4.186884"><ele>12.15</ele><time>2011-06-11T04:52:15Z</time></trkpt><trkpt lat="47.829917" lon="-4.187144"><ele>16.00</ele><time>2011-06-11T04:52:30Z</time></trkpt><trkpt lat="47.830699" lon="-4.186947"><ele>13.12</ele><time>2011-06-11T04:52:43Z</time></trkpt><trkpt lat="47.830250" lon="-4.186773"><ele>13.12</ele><time>2011-06-11T04:53:27Z</time></trkpt><trkpt lat="47.830178" lon="-4.185542"><ele>11.67</ele><time>2011-06-11T04:54:06Z</time></trkpt><trkpt lat="47.830632" lon="-4.184975"><ele>12.63</ele><time>2011-06-11T04:54:36Z</time></trkpt><trkpt lat="47.830940" lon="-4.185984"><ele>13.12</ele><time>2011-06-11T04:55:30Z</time></trkpt><trkpt lat="47.831424" lon="-4.185311"><ele>11.19</ele><time>2011-06-11T04:56:11Z</time></trkpt><trkpt lat="47.830813" lon="-4.185827"><ele>12.63</ele><time>2011-06-11T04:56:26Z</time></trkpt><trkpt lat="47.830561" lon="-4.186691"><ele>15.04</ele><time>2011-06-11T04:57:01Z</time></trkpt><trkpt lat="47.829917" lon="-4.187187"><ele>15.52</ele><time>2011-06-11T04:57:13Z</time></trkpt><trkpt lat="47.829353" lon="-4.188040"><ele>17.44</ele><time>2011-06-11T04:57:27Z</time></trkpt><trkpt lat="47.829050" lon="-4.189338"><ele>13.12</ele><time>2011-06-11T04:57:41Z</time></trkpt><trkpt lat="47.828231" lon="-4.189404"><ele>14.56</ele><time>2011-06-11T04:57:54Z</time></trkpt><trkpt lat="47.827333" lon="-4.189180"><ele>13.60</ele><time>2011-06-11T04:58:03Z</time></trkpt><trkpt lat="47.826342" lon="-4.188992"><ele>15.52</ele><time>2011-06-11T04:58:41Z</time></trkpt><trkpt lat="47.825467" lon="-4.188400"><ele>17.92</ele><time>2011-06-11T04:58:48Z</time></trkpt><trkpt lat="47.824636" lon="-4.187769"><ele>17.44</ele><time>2011-06-11T04:58:54Z</time></trkpt><trkpt lat="47.823784" lon="-4.187043"><ele>16.96</ele><time>2011-06-11T04:59:00Z</time></trkpt><trkpt lat="47.822857" lon="-4.186335"><ele>18.40</ele><time>2011-06-11T04:59:06Z</time></trkpt><trkpt lat="47.821894" lon="-4.185599"><ele>18.88</ele><time>2011-06-11T04:59:12Z</time></trkpt><trkpt lat="47.821081" lon="-4.184989"><ele>18.88</ele><time>2011-06-11T04:59:17Z</time></trkpt><trkpt lat="47.820177" lon="-4.184284"><ele>13.60</ele><time>2011-06-11T04:59:23Z</time></trkpt><trkpt lat="47.819383" lon="-4.183785"><ele>7.35</ele><time>2011-06-11T04:59:54Z</time></trkpt><trkpt lat="47.818479" lon="-4.183477"><ele>6.87</ele><time>2011-06-11T05:00:04Z</time></trkpt><trkpt lat="47.817738" lon="-4.182973"><ele>5.42</ele><time>2011-06-11T05:00:45Z</time></trkpt><trkpt lat="47.818173" lon="-4.181793"><ele>5.91</ele><time>2011-06-11T05:00:57Z</time></trkpt><trkpt lat="47.818251" lon="-4.181014"><ele>5.91</ele><time>2011-06-11T05:01:32Z</time></trkpt><trkpt lat="47.817995" lon="-4.182405"><ele>7.35</ele><time>2011-06-11T05:01:48Z</time></trkpt><trkpt lat="47.817307" lon="-4.182932"><ele>8.31</ele><time>2011-06-11T05:02:04Z</time></trkpt><trkpt lat="47.816385" lon="-4.182947"><ele>3.50</ele><time>2011-06-11T05:02:13Z</time></trkpt><trkpt lat="47.816402" lon="-4.182325"><ele>3.98</ele><time>2011-06-11T05:03:02Z</time></trkpt><trkpt lat="47.815771" lon="-4.183132"><ele>4.94</ele><time>2011-06-11T05:03:23Z</time></trkpt><trkpt lat="47.814772" lon="-4.182967"><ele>7.83</ele><time>2011-06-11T05:03:31Z</time></trkpt><trkpt lat="47.813853" lon="-4.182943"><ele>9.27</ele><time>2011-06-11T05:03:38Z</time></trkpt><trkpt lat="47.812930" lon="-4.182945"><ele>9.27</ele><time>2011-06-11T05:03:45Z</time></trkpt><trkpt lat="47.812185" lon="-4.182919"><ele>5.91</ele><time>2011-06-11T05:05:10Z</time></trkpt><trkpt lat="47.812613" lon="-4.182127"><ele>8.79</ele><time>2011-06-11T05:05:36Z</time></trkpt><trkpt lat="47.812519" lon="-4.180625"><ele>10.71</ele><time>2011-06-11T05:05:44Z</time></trkpt><trkpt lat="47.812415" lon="-4.179265"><ele>4.46</ele><time>2011-06-11T05:05:53Z</time></trkpt><trkpt lat="47.813399" lon="-4.179139"><ele>5.42</ele><time>2011-06-11T05:06:04Z</time></trkpt><trkpt lat="47.813328" lon="-4.179163"><ele>5.42</ele><time>2011-06-11T05:06:57Z</time></trkpt><trkpt lat="47.812422" lon="-4.179188"><ele>4.46</ele><time>2011-06-11T05:07:08Z</time></trkpt><trkpt lat="47.812617" lon="-4.178579"><ele>4.94</ele><time>2011-06-11T05:08:17Z</time></trkpt><trkpt lat="47.812288" lon="-4.177722"><ele>3.50</ele><time>2011-06-11T05:08:42Z</time></trkpt><trkpt lat="47.811621" lon="-4.176691"><ele>6.87</ele><time>2011-06-11T05:09:13Z</time></trkpt><trkpt lat="47.811591" lon="-4.175547"><ele>4.94</ele><time>2011-06-11T05:09:24Z</time></trkpt><trkpt lat="47.812494" lon="-4.175129"><ele>7.35</ele><time>2011-06-11T05:09:33Z</time></trkpt><trkpt lat="47.813237" lon="-4.174257"><ele>6.39</ele><time>2011-06-11T05:09:42Z</time></trkpt><trkpt lat="47.813694" lon="-4.173100"><ele>3.50</ele><time>2011-06-11T05:09:51Z</time></trkpt><trkpt lat="47.813970" lon="-4.174143"><ele>6.39</ele><time>2011-06-11T05:10:02Z</time></trkpt><trkpt lat="47.813557" lon="-4.174658"><ele>2.06</ele><time>2011-06-11T05:10:41Z</time></trkpt><trkpt lat="47.814013" lon="-4.173705"><ele>5.42</ele><time>2011-06-11T05:10:54Z</time></trkpt><trkpt lat="47.814766" lon="-4.173595"><ele>7.35</ele><time>2011-06-11T05:11:06Z</time></trkpt><trkpt lat="47.815392" lon="-4.173539"><ele>4.46</ele><time>2011-06-11T05:11:44Z</time></trkpt><trkpt lat="47.816066" lon="-4.173953"><ele>10.23</ele><time>2011-06-11T05:11:55Z</time></trkpt><trkpt lat="47.816620" lon="-4.173192"><ele>8.79</ele><time>2011-06-11T05:12:04Z</time></trkpt><trkpt lat="47.816605" lon="-4.171825"><ele>4.94</ele><time>2011-06-11T05:12:46Z</time></trkpt><trkpt lat="47.816802" lon="-4.170424"><ele>9.27</ele><time>2011-06-11T05:12:55Z</time></trkpt><trkpt lat="47.816459" lon="-4.169411"><ele>7.35</ele><time>2011-06-11T05:13:06Z</time></trkpt><trkpt lat="47.815582" lon="-4.168818"><ele>7.83</ele><time>2011-06-11T05:13:15Z</time></trkpt><trkpt lat="47.814840" lon="-4.167940"><ele>4.94</ele><time>2011-06-11T05:13:26Z</time></trkpt><trkpt lat="47.814781" lon="-4.166598"><ele>3.02</ele><time>2011-06-11T05:13:55Z</time></trkpt><trkpt lat="47.814798" lon="-4.167571"><ele>5.91</ele><time>2011-06-11T05:14:46Z</time></trkpt><trkpt lat="47.814466" lon="-4.168887"><ele>8.31</ele><time>2011-06-11T05:14:57Z</time></trkpt><trkpt lat="47.814279" lon="-4.170256"><ele>7.83</ele><time>2011-06-11T05:15:05Z</time></trkpt><trkpt lat="47.813991" lon="-4.171581"><ele>6.87</ele><time>2011-06-11T05:15:13Z</time></trkpt><trkpt lat="47.813646" lon="-4.172854"><ele>4.94</ele><time>2011-06-11T05:15:21Z</time></trkpt><trkpt lat="47.813268" lon="-4.174087"><ele>5.42</ele><time>2011-06-11T05:15:31Z</time></trkpt><trkpt lat="47.812700" lon="-4.175089"><ele>3.50</ele><time>2011-06-11T05:15:41Z</time></trkpt><trkpt lat="47.811764" lon="-4.175408"><ele>5.42</ele><time>2011-06-11T05:15:52Z</time></trkpt><trkpt lat="47.810948" lon="-4.175731"><ele>4.46</ele><time>2011-06-11T05:16:03Z</time></trkpt><trkpt lat="47.810155" lon="-4.175149"><ele>3.02</ele><time>2011-06-11T05:16:43Z</time></trkpt><trkpt lat="47.809303" lon="-4.175639"><ele>4.94</ele><time>2011-06-11T05:16:56Z</time></trkpt><trkpt lat="47.809376" lon="-4.176910"><ele>5.91</ele><time>2011-06-11T05:17:08Z</time></trkpt><trkpt lat="47.809747" lon="-4.178200"><ele>6.39</ele><time>2011-06-11T05:17:48Z</time></trkpt><trkpt lat="47.809535" lon="-4.177894"><ele>5.42</ele><time>2011-06-11T05:18:20Z</time></trkpt><trkpt lat="47.810293" lon="-4.178683"><ele>9.75</ele><time>2011-06-11T05:18:32Z</time></trkpt><trkpt lat="47.811135" lon="-4.179409"><ele>6.39</ele><time>2011-06-11T05:18:43Z</time></trkpt><trkpt lat="47.811328" lon="-4.179651"><ele>4.46</ele><time>2011-06-11T05:20:46Z</time></trkpt><trkpt lat="47.812194" lon="-4.180176"><ele>7.83</ele><time>2011-06-11T05:20:58Z</time></trkpt><trkpt lat="47.812591" lon="-4.181266"><ele>10.71</ele><time>2011-06-11T05:21:23Z</time></trkpt><trkpt lat="47.812697" lon="-4.182737"><ele>9.27</ele><time>2011-06-11T05:21:31Z</time></trkpt><trkpt lat="47.813569" lon="-4.182966"><ele>10.23</ele><time>2011-06-11T05:21:39Z</time></trkpt><trkpt lat="47.814492" lon="-4.182893"><ele>10.71</ele><time>2011-06-11T05:21:45Z</time></trkpt><trkpt lat="47.815462" lon="-4.183119"><ele>10.23</ele><time>2011-06-11T05:21:51Z</time></trkpt><trkpt lat="47.816466" lon="-4.182917"><ele>11.19</ele><time>2011-06-11T05:21:57Z</time></trkpt><trkpt lat="47.817376" lon="-4.182870"><ele>8.79</ele><time>2011-06-11T05:22:03Z</time></trkpt><trkpt lat="47.818197" lon="-4.183405"><ele>11.67</ele><time>2011-06-11T05:22:10Z</time></trkpt><trkpt lat="47.819096" lon="-4.183632"><ele>12.63</ele><time>2011-06-11T05:22:16Z</time></trkpt><trkpt lat="47.820046" lon="-4.184140"><ele>14.56</ele><time>2011-06-11T05:22:22Z</time></trkpt><trkpt lat="47.820864" lon="-4.184760"><ele>16.96</ele><time>2011-06-11T05:22:27Z</time></trkpt><trkpt lat="47.821714" lon="-4.185409"><ele>17.92</ele><time>2011-06-11T05:22:32Z</time></trkpt><trkpt lat="47.822580" lon="-4.186054"><ele>18.40</ele><time>2011-06-11T05:22:37Z</time></trkpt><trkpt lat="47.823450" lon="-4.186724"><ele>18.88</ele><time>2011-06-11T05:22:42Z</time></trkpt><trkpt lat="47.824286" lon="-4.187423"><ele>18.40</ele><time>2011-06-11T05:22:47Z</time></trkpt><trkpt lat="47.825093" lon="-4.188060"><ele>17.44</ele><time>2011-06-11T05:22:52Z</time></trkpt><trkpt lat="47.826002" lon="-4.188766"><ele>17.44</ele><time>2011-06-11T05:22:58Z</time></trkpt><trkpt lat="47.826920" lon="-4.189111"><ele>16.48</ele><time>2011-06-11T05:23:04Z</time></trkpt><trkpt lat="47.827870" lon="-4.189290"><ele>13.60</ele><time>2011-06-11T05:23:11Z</time></trkpt><trkpt lat="47.828765" lon="-4.189467"><ele>10.71</ele><time>2011-06-11T05:23:21Z</time></trkpt><trkpt lat="47.829702" lon="-4.189640"><ele>14.08</ele><time>2011-06-11T05:23:36Z</time></trkpt><trkpt lat="47.830631" lon="-4.189833"><ele>12.63</ele><time>2011-06-11T05:23:44Z</time></trkpt><trkpt lat="47.831665" lon="-4.190015"><ele>13.60</ele><time>2011-06-11T05:25:03Z</time></trkpt><trkpt lat="47.832695" lon="-4.190112"><ele>12.63</ele><time>2011-06-11T05:25:10Z</time></trkpt><trkpt lat="47.833659" lon="-4.189671"><ele>12.63</ele><time>2011-06-11T05:25:17Z</time></trkpt><trkpt lat="47.834573" lon="-4.189368"><ele>7.35</ele><time>2011-06-11T05:25:25Z</time></trkpt><trkpt lat="47.834500" lon="-4.188232"><ele>10.71</ele><time>2011-06-11T05:25:37Z</time></trkpt><trkpt lat="47.834125" lon="-4.186835"><ele>14.08</ele><time>2011-06-11T05:25:44Z</time></trkpt><trkpt lat="47.833782" lon="-4.185440"><ele>14.08</ele><time>2011-06-11T05:25:51Z</time></trkpt><trkpt lat="47.833500" lon="-4.184087"><ele>14.08</ele><time>2011-06-11T05:25:57Z</time></trkpt><trkpt lat="47.833158" lon="-4.182601"><ele>14.56</ele><time>2011-06-11T05:26:03Z</time></trkpt><trkpt lat="47.832822" lon="-4.181185"><ele>12.15</ele><time>2011-06-11T05:26:09Z</time></trkpt><trkpt lat="47.832488" lon="-4.179883"><ele>5.42</ele><time>2011-06-11T05:26:17Z</time></trkpt><trkpt lat="47.832306" lon="-4.178521"><ele>4.94</ele><time>2011-06-11T05:26:36Z</time></trkpt><trkpt lat="47.831702" lon="-4.177618"><ele>4.94</ele><time>2011-06-11T05:26:47Z</time></trkpt><trkpt lat="47.831489" lon="-4.176428"><ele>5.42</ele><time>2011-06-11T05:27:07Z</time></trkpt><trkpt lat="47.830614" lon="-4.175701"><ele>7.83</ele><time>2011-06-11T05:27:15Z</time></trkpt><trkpt lat="47.829695" lon="-4.175323"><ele>6.39</ele><time>2011-06-11T05:27:32Z</time></trkpt><trkpt lat="47.829692" lon="-4.174193"><ele>7.35</ele><time>2011-06-11T05:27:46Z</time></trkpt><trkpt lat="47.829732" lon="-4.172853"><ele>4.94</ele><time>2011-06-11T05:27:55Z</time></trkpt><trkpt lat="47.829707" lon="-4.171499"><ele>6.87</ele><time>2011-06-11T05:28:07Z</time></trkpt><trkpt lat="47.829869" lon="-4.170140"><ele>5.91</ele><time>2011-06-11T05:28:16Z</time></trkpt><trkpt lat="47.830077" lon="-4.168800"><ele>3.50</ele><time>2011-06-11T05:28:26Z</time></trkpt><trkpt lat="47.829190" lon="-4.168708"><ele>5.42</ele><time>2011-06-11T05:28:40Z</time></trkpt><trkpt lat="47.828917" lon="-4.168643"><ele>1.58</ele><time>2011-06-11T05:29:35Z</time></trkpt></trkseg><trkseg><trkpt lat="47.828917" lon="-4.168643"><ele>-4.19</ele><time>2011-06-11T06:50:34Z</time></trkpt><trkpt lat="47.828917" lon="-4.168643"><ele>-4.67</ele><time>2011-06-11T06:51:10Z</time></trkpt></trkseg></trk></gpx>